<?xml version="1.0" encoding="UTF-8" standalone="no" ?>
<gpx xmlns="http://www.topografix.com/GPX/1/1" xmlns:xsi="http://www.w3.org/2001/XMLSchema-instance" xsi:schemaLocation="http://www.topografix.com/GPX/1/1 http://www.topografix.com/GPX/1/1/gpx.xsd" version="1.1" creator="VisuGPX - https://www.visugpx.com">
  <metadata>
    <name>Mont Vinaigre avec BB</name>
    <desc><![CDATA[Une bonne sortie longue !]]></desc>
  </metadata>
  <trk>
    <name><![CDATA[ACTIVE LOG 002]]></name>
    <trkseg>
      <trkpt lat="43.42371" lon="6.75696">
        <ele>9.7506104</ele>
        <time>2012-08-17T09:50:02Z</time>
      </trkpt>
    </trkseg>
  </trk>
  <trk>
    <name><![CDATA[Mont Vinaigre BB]]></name>
    <trkseg>
      <trkpt lat="43.42481" lon="6.75523">
        <ele>19.8443604</ele>
        <time>2012-08-17T05:06:55Z</time>
      </trkpt>
      <trkpt lat="43.42484" lon="6.75505">
        <ele>19.3637695</ele>
        <time>2012-08-17T05:07:04Z</time>
      </trkpt>
      <trkpt lat="43.42411" lon="6.75473">
        <ele>19.8443604</ele>
        <time>2012-08-17T05:07:38Z</time>
      </trkpt>
      <trkpt lat="43.42468" lon="6.75543">
        <ele>20.3249512</ele>
        <time>2012-08-17T05:07:52Z</time>
      </trkpt>
      <trkpt lat="43.42518" lon="6.75542">
        <ele>20.3249512</ele>
        <time>2012-08-17T05:08:03Z</time>
      </trkpt>
      <trkpt lat="43.42548" lon="6.75525">
        <ele>20.3249512</ele>
        <time>2012-08-17T05:08:07Z</time>
      </trkpt>
      <trkpt lat="43.42605" lon="6.756">
        <ele>20.3249512</ele>
        <time>2012-08-17T05:08:16Z</time>
      </trkpt>
      <trkpt lat="43.42578" lon="6.75605">
        <ele>20.3249512</ele>
        <time>2012-08-17T05:08:22Z</time>
      </trkpt>
      <trkpt lat="43.42644" lon="6.75705">
        <ele>20.3249512</ele>
        <time>2012-08-17T05:08:24Z</time>
      </trkpt>
      <trkpt lat="43.42639" lon="6.75756">
        <ele>19.8443604</ele>
        <time>2012-08-17T05:08:32Z</time>
      </trkpt>
      <trkpt lat="43.42639" lon="6.7576">
        <ele>19.8443604</ele>
        <time>2012-08-17T05:08:36Z</time>
      </trkpt>
      <trkpt lat="43.42635" lon="6.758">
        <ele>20.3249512</ele>
        <time>2012-08-17T05:08:48Z</time>
      </trkpt>
      <trkpt lat="43.42631" lon="6.75841">
        <ele>20.3249512</ele>
        <time>2012-08-17T05:08:52Z</time>
      </trkpt>
      <trkpt lat="43.42625" lon="6.75919">
        <ele>20.8056641</ele>
        <time>2012-08-17T05:09:05Z</time>
      </trkpt>
      <trkpt lat="43.42618" lon="6.75989">
        <ele>20.3249512</ele>
        <time>2012-08-17T05:09:16Z</time>
      </trkpt>
      <trkpt lat="43.42616" lon="6.76022">
        <ele>20.3249512</ele>
        <time>2012-08-17T05:09:21Z</time>
      </trkpt>
      <trkpt lat="43.42613" lon="6.76049">
        <ele>20.8056641</ele>
        <time>2012-08-17T05:09:25Z</time>
      </trkpt>
      <trkpt lat="43.42609" lon="6.76084">
        <ele>19.8443604</ele>
        <time>2012-08-17T05:09:30Z</time>
      </trkpt>
      <trkpt lat="43.42605" lon="6.76137">
        <ele>20.3249512</ele>
        <time>2012-08-17T05:09:38Z</time>
      </trkpt>
      <trkpt lat="43.426" lon="6.76191">
        <ele>19.8443604</ele>
        <time>2012-08-17T05:09:45Z</time>
      </trkpt>
      <trkpt lat="43.42597" lon="6.76223">
        <ele>20.3249512</ele>
        <time>2012-08-17T05:09:50Z</time>
      </trkpt>
      <trkpt lat="43.42595" lon="6.76246">
        <ele>20.3249512</ele>
        <time>2012-08-17T05:09:53Z</time>
      </trkpt>
      <trkpt lat="43.42608" lon="6.76277">
        <ele>20.3249512</ele>
        <time>2012-08-17T05:10:01Z</time>
      </trkpt>
      <trkpt lat="43.42623" lon="6.76279">
        <ele>20.3249512</ele>
        <time>2012-08-17T05:10:03Z</time>
      </trkpt>
      <trkpt lat="43.42671" lon="6.76319">
        <ele>19.3637695</ele>
        <time>2012-08-17T05:10:13Z</time>
      </trkpt>
      <trkpt lat="43.42679" lon="6.76327">
        <ele>19.3637695</ele>
        <time>2012-08-17T05:10:15Z</time>
      </trkpt>
      <trkpt lat="43.42716" lon="6.76342">
        <ele>19.8443604</ele>
        <time>2012-08-17T05:10:23Z</time>
      </trkpt>
      <trkpt lat="43.42755" lon="6.76308">
        <ele>20.3249512</ele>
        <time>2012-08-17T05:10:33Z</time>
      </trkpt>
      <trkpt lat="43.42759" lon="6.76301">
        <ele>19.3637695</ele>
        <time>2012-08-17T05:10:35Z</time>
      </trkpt>
      <trkpt lat="43.42773" lon="6.7629">
        <ele>20.3249512</ele>
        <time>2012-08-17T05:10:37Z</time>
      </trkpt>
      <trkpt lat="43.42832" lon="6.76299">
        <ele>19.8443604</ele>
        <time>2012-08-17T05:10:49Z</time>
      </trkpt>
      <trkpt lat="43.42878" lon="6.76309">
        <ele>19.8443604</ele>
        <time>2012-08-17T05:10:57Z</time>
      </trkpt>
      <trkpt lat="43.42879" lon="6.76343">
        <ele>19.8443604</ele>
        <time>2012-08-17T05:11:03Z</time>
      </trkpt>
      <trkpt lat="43.4289" lon="6.76373">
        <ele>20.8056641</ele>
        <time>2012-08-17T05:11:09Z</time>
      </trkpt>
      <trkpt lat="43.42972" lon="6.76399">
        <ele>20.8056641</ele>
        <time>2012-08-17T05:11:27Z</time>
      </trkpt>
      <trkpt lat="43.43023" lon="6.76398">
        <ele>20.8056641</ele>
        <time>2012-08-17T05:11:38Z</time>
      </trkpt>
      <trkpt lat="43.43037" lon="6.76393">
        <ele>20.8056641</ele>
        <time>2012-08-17T05:11:41Z</time>
      </trkpt>
      <trkpt lat="43.43048" lon="6.76447">
        <ele>20.3249512</ele>
        <time>2012-08-17T05:11:46Z</time>
      </trkpt>
      <trkpt lat="43.43145" lon="6.76432">
        <ele>20.8056641</ele>
        <time>2012-08-17T05:12:03Z</time>
      </trkpt>
      <trkpt lat="43.43151" lon="6.76433">
        <ele>20.8056641</ele>
        <time>2012-08-17T05:12:04Z</time>
      </trkpt>
      <trkpt lat="43.43224" lon="6.76487">
        <ele>20.8056641</ele>
        <time>2012-08-17T05:12:17Z</time>
      </trkpt>
      <trkpt lat="43.43233" lon="6.76487">
        <ele>21.7669678</ele>
        <time>2012-08-17T05:12:21Z</time>
      </trkpt>
      <trkpt lat="43.43241" lon="6.76487">
        <ele>21.7669678</ele>
        <time>2012-08-17T05:12:23Z</time>
      </trkpt>
      <trkpt lat="43.43299" lon="6.76356">
        <ele>21.286377</ele>
        <time>2012-08-17T05:12:39Z</time>
      </trkpt>
      <trkpt lat="43.43355" lon="6.76402">
        <ele>21.7669678</ele>
        <time>2012-08-17T05:12:46Z</time>
      </trkpt>
      <trkpt lat="43.43355" lon="6.76402">
        <ele>21.7669678</ele>
        <time>2012-08-17T05:12:48Z</time>
      </trkpt>
      <trkpt lat="43.43355" lon="6.76402">
        <ele>21.286377</ele>
        <time>2012-08-17T05:12:51Z</time>
      </trkpt>
      <trkpt lat="43.43362" lon="6.76412">
        <ele>20.8056641</ele>
        <time>2012-08-17T05:12:55Z</time>
      </trkpt>
      <trkpt lat="43.43367" lon="6.76448">
        <ele>20.3249512</ele>
        <time>2012-08-17T05:13:00Z</time>
      </trkpt>
      <trkpt lat="43.43384" lon="6.76487">
        <ele>20.8056641</ele>
        <time>2012-08-17T05:13:07Z</time>
      </trkpt>
      <trkpt lat="43.43401" lon="6.76506">
        <ele>21.286377</ele>
        <time>2012-08-17T05:13:12Z</time>
      </trkpt>
      <trkpt lat="43.43409" lon="6.76512">
        <ele>20.8056641</ele>
        <time>2012-08-17T05:13:14Z</time>
      </trkpt>
      <trkpt lat="43.43438" lon="6.7653">
        <ele>21.286377</ele>
        <time>2012-08-17T05:13:21Z</time>
      </trkpt>
      <trkpt lat="43.43448" lon="6.76534">
        <ele>21.286377</ele>
        <time>2012-08-17T05:13:23Z</time>
      </trkpt>
      <trkpt lat="43.4348" lon="6.76543">
        <ele>21.7669678</ele>
        <time>2012-08-17T05:13:29Z</time>
      </trkpt>
      <trkpt lat="43.4356" lon="6.76564">
        <ele>22.2475586</ele>
        <time>2012-08-17T05:13:46Z</time>
      </trkpt>
      <trkpt lat="43.43574" lon="6.76574">
        <ele>22.2475586</ele>
        <time>2012-08-17T05:13:49Z</time>
      </trkpt>
      <trkpt lat="43.43651" lon="6.76629">
        <ele>21.286377</ele>
        <time>2012-08-17T05:14:05Z</time>
      </trkpt>
      <trkpt lat="43.43672" lon="6.76646">
        <ele>20.8056641</ele>
        <time>2012-08-17T05:14:13Z</time>
      </trkpt>
      <trkpt lat="43.43698" lon="6.76653">
        <ele>21.286377</ele>
        <time>2012-08-17T05:14:18Z</time>
      </trkpt>
      <trkpt lat="43.43732" lon="6.76659">
        <ele>23.2089844</ele>
        <time>2012-08-17T05:14:28Z</time>
      </trkpt>
      <trkpt lat="43.43775" lon="6.7669">
        <ele>25.1317139</ele>
        <time>2012-08-17T05:14:43Z</time>
      </trkpt>
      <trkpt lat="43.43819" lon="6.76699">
        <ele>26.0928955</ele>
        <time>2012-08-17T05:14:55Z</time>
      </trkpt>
      <trkpt lat="43.4389" lon="6.76696">
        <ele>28.0155029</ele>
        <time>2012-08-17T05:15:11Z</time>
      </trkpt>
      <trkpt lat="43.43918" lon="6.76704">
        <ele>27.5349121</ele>
        <time>2012-08-17T05:15:16Z</time>
      </trkpt>
      <trkpt lat="43.43931" lon="6.76717">
        <ele>27.5349121</ele>
        <time>2012-08-17T05:15:19Z</time>
      </trkpt>
      <trkpt lat="43.43964" lon="6.76735">
        <ele>27.5349121</ele>
        <time>2012-08-17T05:15:25Z</time>
      </trkpt>
      <trkpt lat="43.43976" lon="6.76739">
        <ele>28.0155029</ele>
        <time>2012-08-17T05:15:28Z</time>
      </trkpt>
      <trkpt lat="43.44013" lon="6.76741">
        <ele>31.8607178</ele>
        <time>2012-08-17T05:15:37Z</time>
      </trkpt>
      <trkpt lat="43.44026" lon="6.76736">
        <ele>33.3028564</ele>
        <time>2012-08-17T05:15:41Z</time>
      </trkpt>
      <trkpt lat="43.44042" lon="6.76731">
        <ele>33.7834473</ele>
        <time>2012-08-17T05:15:45Z</time>
      </trkpt>
      <trkpt lat="43.44103" lon="6.76704">
        <ele>29.9381104</ele>
        <time>2012-08-17T05:15:55Z</time>
      </trkpt>
      <trkpt lat="43.44124" lon="6.76703">
        <ele>29.4575195</ele>
        <time>2012-08-17T05:15:58Z</time>
      </trkpt>
      <trkpt lat="43.44188" lon="6.7673">
        <ele>30.8995361</ele>
        <time>2012-08-17T05:16:10Z</time>
      </trkpt>
      <trkpt lat="43.4421" lon="6.76743">
        <ele>31.380127</ele>
        <time>2012-08-17T05:16:15Z</time>
      </trkpt>
      <trkpt lat="43.44226" lon="6.76754">
        <ele>31.8607178</ele>
        <time>2012-08-17T05:16:19Z</time>
      </trkpt>
      <trkpt lat="43.44241" lon="6.76772">
        <ele>32.8222656</ele>
        <time>2012-08-17T05:16:23Z</time>
      </trkpt>
      <trkpt lat="43.44274" lon="6.76828">
        <ele>35.2254639</ele>
        <time>2012-08-17T05:16:36Z</time>
      </trkpt>
      <trkpt lat="43.44312" lon="6.7685">
        <ele>38.5900879</ele>
        <time>2012-08-17T05:16:48Z</time>
      </trkpt>
      <trkpt lat="43.44355" lon="6.76873">
        <ele>40.9934082</ele>
        <time>2012-08-17T05:17:02Z</time>
      </trkpt>
      <trkpt lat="43.44395" lon="6.76895">
        <ele>43.3966064</ele>
        <time>2012-08-17T05:17:15Z</time>
      </trkpt>
      <trkpt lat="43.44445" lon="6.76904">
        <ele>44.3580322</ele>
        <time>2012-08-17T05:17:29Z</time>
      </trkpt>
      <trkpt lat="43.44491" lon="6.76877">
        <ele>45.3192139</ele>
        <time>2012-08-17T05:17:42Z</time>
      </trkpt>
      <trkpt lat="43.445" lon="6.76871">
        <ele>45.3192139</ele>
        <time>2012-08-17T05:17:45Z</time>
      </trkpt>
      <trkpt lat="43.44514" lon="6.76826">
        <ele>45.3192139</ele>
        <time>2012-08-17T05:17:52Z</time>
      </trkpt>
      <trkpt lat="43.44533" lon="6.76815">
        <ele>45.7999268</ele>
        <time>2012-08-17T05:17:57Z</time>
      </trkpt>
      <trkpt lat="43.44558" lon="6.768">
        <ele>46.2806396</ele>
        <time>2012-08-17T05:18:04Z</time>
      </trkpt>
      <trkpt lat="43.44584" lon="6.76771">
        <ele>46.7612305</ele>
        <time>2012-08-17T05:18:12Z</time>
      </trkpt>
      <trkpt lat="43.44601" lon="6.7676">
        <ele>46.7612305</ele>
        <time>2012-08-17T05:18:16Z</time>
      </trkpt>
      <trkpt lat="43.44633" lon="6.76755">
        <ele>46.2806396</ele>
        <time>2012-08-17T05:18:23Z</time>
      </trkpt>
      <trkpt lat="43.44649" lon="6.76769">
        <ele>46.2806396</ele>
        <time>2012-08-17T05:18:29Z</time>
      </trkpt>
      <trkpt lat="43.44646" lon="6.76775">
        <ele>46.7612305</ele>
        <time>2012-08-17T05:18:31Z</time>
      </trkpt>
      <trkpt lat="43.44665" lon="6.76811">
        <ele>48.2033691</ele>
        <time>2012-08-17T05:18:43Z</time>
      </trkpt>
      <trkpt lat="43.44704" lon="6.76832">
        <ele>48.68396</ele>
        <time>2012-08-17T05:18:56Z</time>
      </trkpt>
      <trkpt lat="43.4475" lon="6.76839">
        <ele>50.6065674</ele>
        <time>2012-08-17T05:19:12Z</time>
      </trkpt>
      <trkpt lat="43.44794" lon="6.76844">
        <ele>52.048584</ele>
        <time>2012-08-17T05:19:25Z</time>
      </trkpt>
      <trkpt lat="43.44833" lon="6.76856">
        <ele>53.4904785</ele>
        <time>2012-08-17T05:19:39Z</time>
      </trkpt>
      <trkpt lat="43.4486" lon="6.76889">
        <ele>54.4517822</ele>
        <time>2012-08-17T05:19:51Z</time>
      </trkpt>
      <trkpt lat="43.449" lon="6.76931">
        <ele>55.4130859</ele>
        <time>2012-08-17T05:20:06Z</time>
      </trkpt>
      <trkpt lat="43.44946" lon="6.76966">
        <ele>56.3745117</ele>
        <time>2012-08-17T05:20:21Z</time>
      </trkpt>
      <trkpt lat="43.44989" lon="6.76982">
        <ele>57.3358154</ele>
        <time>2012-08-17T05:20:34Z</time>
      </trkpt>
      <trkpt lat="43.45008" lon="6.76991">
        <ele>57.3358154</ele>
        <time>2012-08-17T05:20:39Z</time>
      </trkpt>
      <trkpt lat="43.45052" lon="6.77005">
        <ele>55.8937988</ele>
        <time>2012-08-17T05:20:48Z</time>
      </trkpt>
      <trkpt lat="43.45067" lon="6.77023">
        <ele>55.8937988</ele>
        <time>2012-08-17T05:20:52Z</time>
      </trkpt>
      <trkpt lat="43.45073" lon="6.77034">
        <ele>55.8937988</ele>
        <time>2012-08-17T05:20:54Z</time>
      </trkpt>
      <trkpt lat="43.45087" lon="6.7706">
        <ele>56.3745117</ele>
        <time>2012-08-17T05:20:59Z</time>
      </trkpt>
      <trkpt lat="43.45106" lon="6.77077">
        <ele>55.8937988</ele>
        <time>2012-08-17T05:21:04Z</time>
      </trkpt>
      <trkpt lat="43.45149" lon="6.77107">
        <ele>56.8551025</ele>
        <time>2012-08-17T05:21:16Z</time>
      </trkpt>
      <trkpt lat="43.45175" lon="6.77126">
        <ele>57.8165283</ele>
        <time>2012-08-17T05:21:27Z</time>
      </trkpt>
      <trkpt lat="43.45212" lon="6.77156">
        <ele>59.7391357</ele>
        <time>2012-08-17T05:21:40Z</time>
      </trkpt>
      <trkpt lat="43.45238" lon="6.77194">
        <ele>60.7003174</ele>
        <time>2012-08-17T05:21:52Z</time>
      </trkpt>
      <trkpt lat="43.45271" lon="6.77238">
        <ele>61.6617432</ele>
        <time>2012-08-17T05:22:06Z</time>
      </trkpt>
      <trkpt lat="43.45306" lon="6.77258">
        <ele>64.0650635</ele>
        <time>2012-08-17T05:22:19Z</time>
      </trkpt>
      <trkpt lat="43.45346" lon="6.7728">
        <ele>66.4682617</ele>
        <time>2012-08-17T05:22:35Z</time>
      </trkpt>
      <trkpt lat="43.45375" lon="6.77303">
        <ele>67.9102783</ele>
        <time>2012-08-17T05:22:48Z</time>
      </trkpt>
      <trkpt lat="43.45409" lon="6.77332">
        <ele>70.7941895</ele>
        <time>2012-08-17T05:23:03Z</time>
      </trkpt>
      <trkpt lat="43.4544" lon="6.77354">
        <ele>72.7169189</ele>
        <time>2012-08-17T05:23:17Z</time>
      </trkpt>
      <trkpt lat="43.45463" lon="6.77373">
        <ele>73.6782227</ele>
        <time>2012-08-17T05:23:27Z</time>
      </trkpt>
      <trkpt lat="43.45511" lon="6.77433">
        <ele>73.1976318</ele>
        <time>2012-08-17T05:23:42Z</time>
      </trkpt>
      <trkpt lat="43.45549" lon="6.77468">
        <ele>72.7169189</ele>
        <time>2012-08-17T05:23:52Z</time>
      </trkpt>
      <trkpt lat="43.45562" lon="6.77486">
        <ele>72.7169189</ele>
        <time>2012-08-17T05:23:56Z</time>
      </trkpt>
      <trkpt lat="43.45568" lon="6.77502">
        <ele>72.7169189</ele>
        <time>2012-08-17T05:23:59Z</time>
      </trkpt>
      <trkpt lat="43.45583" lon="6.77539">
        <ele>72.7169189</ele>
        <time>2012-08-17T05:24:10Z</time>
      </trkpt>
      <trkpt lat="43.45606" lon="6.77567">
        <ele>73.1976318</ele>
        <time>2012-08-17T05:24:21Z</time>
      </trkpt>
      <trkpt lat="43.45605" lon="6.77631">
        <ele>75.1202393</ele>
        <time>2012-08-17T05:24:34Z</time>
      </trkpt>
      <trkpt lat="43.45612" lon="6.77677">
        <ele>74.6395264</ele>
        <time>2012-08-17T05:24:46Z</time>
      </trkpt>
      <trkpt lat="43.45628" lon="6.77711">
        <ele>72.2362061</ele>
        <time>2012-08-17T05:24:55Z</time>
      </trkpt>
      <trkpt lat="43.45647" lon="6.77745">
        <ele>69.3522949</ele>
        <time>2012-08-17T05:25:05Z</time>
      </trkpt>
      <trkpt lat="43.4566" lon="6.77763">
        <ele>67.9102783</ele>
        <time>2012-08-17T05:25:10Z</time>
      </trkpt>
      <trkpt lat="43.45681" lon="6.77788">
        <ele>66.4682617</ele>
        <time>2012-08-17T05:25:17Z</time>
      </trkpt>
      <trkpt lat="43.4569" lon="6.778">
        <ele>66.4682617</ele>
        <time>2012-08-17T05:25:29Z</time>
      </trkpt>
      <trkpt lat="43.4571" lon="6.77803">
        <ele>65.0263672</ele>
        <time>2012-08-17T05:25:48Z</time>
      </trkpt>
      <trkpt lat="43.45743" lon="6.77809">
        <ele>62.6229248</ele>
        <time>2012-08-17T05:25:59Z</time>
      </trkpt>
      <trkpt lat="43.45743" lon="6.77809">
        <ele>62.142334</ele>
        <time>2012-08-17T05:26:05Z</time>
      </trkpt>
      <trkpt lat="43.45757" lon="6.77818">
        <ele>62.142334</ele>
        <time>2012-08-17T05:26:17Z</time>
      </trkpt>
      <trkpt lat="43.45786" lon="6.77842">
        <ele>62.142334</ele>
        <time>2012-08-17T05:26:31Z</time>
      </trkpt>
      <trkpt lat="43.45822" lon="6.77872">
        <ele>62.142334</ele>
        <time>2012-08-17T05:26:45Z</time>
      </trkpt>
      <trkpt lat="43.45853" lon="6.77868">
        <ele>62.142334</ele>
        <time>2012-08-17T05:26:54Z</time>
      </trkpt>
      <trkpt lat="43.4589" lon="6.77885">
        <ele>61.1810303</ele>
        <time>2012-08-17T05:27:05Z</time>
      </trkpt>
      <trkpt lat="43.45928" lon="6.77899">
        <ele>60.7003174</ele>
        <time>2012-08-17T05:27:14Z</time>
      </trkpt>
      <trkpt lat="43.45972" lon="6.77884">
        <ele>62.6229248</ele>
        <time>2012-08-17T05:27:26Z</time>
      </trkpt>
      <trkpt lat="43.46002" lon="6.77869">
        <ele>62.142334</ele>
        <time>2012-08-17T05:27:36Z</time>
      </trkpt>
      <trkpt lat="43.46034" lon="6.77875">
        <ele>61.6617432</ele>
        <time>2012-08-17T05:27:45Z</time>
      </trkpt>
      <trkpt lat="43.46042" lon="6.77878">
        <ele>61.1810303</ele>
        <time>2012-08-17T05:27:47Z</time>
      </trkpt>
      <trkpt lat="43.4607" lon="6.77891">
        <ele>59.7391357</ele>
        <time>2012-08-17T05:27:53Z</time>
      </trkpt>
      <trkpt lat="43.46078" lon="6.77899">
        <ele>58.77771</ele>
        <time>2012-08-17T05:28:01Z</time>
      </trkpt>
      <trkpt lat="43.46093" lon="6.77908">
        <ele>58.77771</ele>
        <time>2012-08-17T05:28:14Z</time>
      </trkpt>
      <trkpt lat="43.46094" lon="6.77909">
        <ele>58.77771</ele>
        <time>2012-08-17T05:28:18Z</time>
      </trkpt>
      <trkpt lat="43.46094" lon="6.77909">
        <ele>59.2584229</ele>
        <time>2012-08-17T05:28:25Z</time>
      </trkpt>
      <trkpt lat="43.46117" lon="6.77935">
        <ele>60.7003174</ele>
        <time>2012-08-17T05:28:38Z</time>
      </trkpt>
      <trkpt lat="43.4614" lon="6.77962">
        <ele>62.142334</ele>
        <time>2012-08-17T05:28:50Z</time>
      </trkpt>
      <trkpt lat="43.46176" lon="6.7801">
        <ele>62.6229248</ele>
        <time>2012-08-17T05:29:03Z</time>
      </trkpt>
      <trkpt lat="43.46198" lon="6.78032">
        <ele>64.0650635</ele>
        <time>2012-08-17T05:29:12Z</time>
      </trkpt>
      <trkpt lat="43.46242" lon="6.78053">
        <ele>64.5456543</ele>
        <time>2012-08-17T05:29:26Z</time>
      </trkpt>
      <trkpt lat="43.46246" lon="6.78054">
        <ele>64.5456543</ele>
        <time>2012-08-17T05:29:27Z</time>
      </trkpt>
      <trkpt lat="43.46275" lon="6.7807">
        <ele>65.0263672</ele>
        <time>2012-08-17T05:29:35Z</time>
      </trkpt>
      <trkpt lat="43.46328" lon="6.781">
        <ele>65.9876709</ele>
        <time>2012-08-17T05:29:49Z</time>
      </trkpt>
      <trkpt lat="43.46352" lon="6.78101">
        <ele>66.4682617</ele>
        <time>2012-08-17T05:29:55Z</time>
      </trkpt>
      <trkpt lat="43.46423" lon="6.78091">
        <ele>67.9102783</ele>
        <time>2012-08-17T05:30:12Z</time>
      </trkpt>
      <trkpt lat="43.46485" lon="6.78072">
        <ele>69.3522949</ele>
        <time>2012-08-17T05:30:27Z</time>
      </trkpt>
      <trkpt lat="43.46493" lon="6.7807">
        <ele>69.3522949</ele>
        <time>2012-08-17T05:30:29Z</time>
      </trkpt>
      <trkpt lat="43.46551" lon="6.78066">
        <ele>70.3134766</ele>
        <time>2012-08-17T05:30:43Z</time>
      </trkpt>
      <trkpt lat="43.46571" lon="6.78081">
        <ele>70.7941895</ele>
        <time>2012-08-17T05:30:49Z</time>
      </trkpt>
      <trkpt lat="43.46596" lon="6.78111">
        <ele>72.2362061</ele>
        <time>2012-08-17T05:30:58Z</time>
      </trkpt>
      <trkpt lat="43.46583" lon="6.78138">
        <ele>72.7169189</ele>
        <time>2012-08-17T05:31:05Z</time>
      </trkpt>
      <trkpt lat="43.46551" lon="6.78138">
        <ele>76.5621338</ele>
        <time>2012-08-17T05:31:16Z</time>
      </trkpt>
      <trkpt lat="43.4652" lon="6.78162">
        <ele>79.9266357</ele>
        <time>2012-08-17T05:31:30Z</time>
      </trkpt>
      <trkpt lat="43.4649" lon="6.78176">
        <ele>83.2913818</ele>
        <time>2012-08-17T05:31:43Z</time>
      </trkpt>
      <trkpt lat="43.46454" lon="6.78185">
        <ele>86.175293</ele>
        <time>2012-08-17T05:31:57Z</time>
      </trkpt>
      <trkpt lat="43.46418" lon="6.78207">
        <ele>89.0593262</ele>
        <time>2012-08-17T05:32:12Z</time>
      </trkpt>
      <trkpt lat="43.46395" lon="6.78239">
        <ele>91.9432373</ele>
        <time>2012-08-17T05:32:25Z</time>
      </trkpt>
      <trkpt lat="43.46404" lon="6.78277">
        <ele>94.8271484</ele>
        <time>2012-08-17T05:32:38Z</time>
      </trkpt>
      <trkpt lat="43.46431" lon="6.78295">
        <ele>97.2304688</ele>
        <time>2012-08-17T05:32:51Z</time>
      </trkpt>
      <trkpt lat="43.46459" lon="6.78305">
        <ele>100.5950928</ele>
        <time>2012-08-17T05:33:03Z</time>
      </trkpt>
      <trkpt lat="43.46495" lon="6.78295">
        <ele>102.5177002</ele>
        <time>2012-08-17T05:33:17Z</time>
      </trkpt>
      <trkpt lat="43.46542" lon="6.78294">
        <ele>105.4017334</ele>
        <time>2012-08-17T05:33:34Z</time>
      </trkpt>
      <trkpt lat="43.46578" lon="6.78303">
        <ele>108.2856445</ele>
        <time>2012-08-17T05:33:49Z</time>
      </trkpt>
      <trkpt lat="43.46618" lon="6.78319">
        <ele>110.6888428</ele>
        <time>2012-08-17T05:34:05Z</time>
      </trkpt>
      <trkpt lat="43.46652" lon="6.78342">
        <ele>113.572998</ele>
        <time>2012-08-17T05:34:20Z</time>
      </trkpt>
      <trkpt lat="43.46672" lon="6.78365">
        <ele>115.4956055</ele>
        <time>2012-08-17T05:34:32Z</time>
      </trkpt>
      <trkpt lat="43.46681" lon="6.78394">
        <ele>116.4567871</ele>
        <time>2012-08-17T05:34:45Z</time>
      </trkpt>
      <trkpt lat="43.46683" lon="6.78425">
        <ele>117.4182129</ele>
        <time>2012-08-17T05:34:57Z</time>
      </trkpt>
      <trkpt lat="43.46683" lon="6.78432">
        <ele>117.8988037</ele>
        <time>2012-08-17T05:35:01Z</time>
      </trkpt>
      <trkpt lat="43.46683" lon="6.78419">
        <ele>117.4182129</ele>
        <time>2012-08-17T05:35:07Z</time>
      </trkpt>
      <trkpt lat="43.46682" lon="6.78401">
        <ele>116.9375</ele>
        <time>2012-08-17T05:35:17Z</time>
      </trkpt>
      <trkpt lat="43.46682" lon="6.78407">
        <ele>116.9375</ele>
        <time>2012-08-17T05:35:21Z</time>
      </trkpt>
      <trkpt lat="43.46676" lon="6.78474">
        <ele>118.3793945</ele>
        <time>2012-08-17T05:35:36Z</time>
      </trkpt>
      <trkpt lat="43.4669" lon="6.78538">
        <ele>118.8601074</ele>
        <time>2012-08-17T05:35:50Z</time>
      </trkpt>
      <trkpt lat="43.46695" lon="6.78582">
        <ele>118.8601074</ele>
        <time>2012-08-17T05:35:59Z</time>
      </trkpt>
      <trkpt lat="43.46694" lon="6.78604">
        <ele>118.8601074</ele>
        <time>2012-08-17T05:36:03Z</time>
      </trkpt>
      <trkpt lat="43.46675" lon="6.78696">
        <ele>119.3408203</ele>
        <time>2012-08-17T05:36:17Z</time>
      </trkpt>
      <trkpt lat="43.46671" lon="6.78722">
        <ele>120.302124</ele>
        <time>2012-08-17T05:36:21Z</time>
      </trkpt>
      <trkpt lat="43.46667" lon="6.78747">
        <ele>120.302124</ele>
        <time>2012-08-17T05:36:25Z</time>
      </trkpt>
      <trkpt lat="43.46658" lon="6.78808">
        <ele>121.7441406</ele>
        <time>2012-08-17T05:36:34Z</time>
      </trkpt>
      <trkpt lat="43.46661" lon="6.78902">
        <ele>121.2635498</ele>
        <time>2012-08-17T05:36:47Z</time>
      </trkpt>
      <trkpt lat="43.46666" lon="6.78935">
        <ele>120.302124</ele>
        <time>2012-08-17T05:36:51Z</time>
      </trkpt>
      <trkpt lat="43.46722" lon="6.79028">
        <ele>117.8988037</ele>
        <time>2012-08-17T05:37:05Z</time>
      </trkpt>
      <trkpt lat="43.4675" lon="6.79094">
        <ele>117.4182129</ele>
        <time>2012-08-17T05:37:14Z</time>
      </trkpt>
      <trkpt lat="43.46757" lon="6.79122">
        <ele>117.4182129</ele>
        <time>2012-08-17T05:37:18Z</time>
      </trkpt>
      <trkpt lat="43.46759" lon="6.79136">
        <ele>117.4182129</ele>
        <time>2012-08-17T05:37:20Z</time>
      </trkpt>
      <trkpt lat="43.46764" lon="6.79156">
        <ele>117.8988037</ele>
        <time>2012-08-17T05:37:23Z</time>
      </trkpt>
      <trkpt lat="43.46789" lon="6.79197">
        <ele>118.8601074</ele>
        <time>2012-08-17T05:37:31Z</time>
      </trkpt>
      <trkpt lat="43.46813" lon="6.79239">
        <ele>119.3408203</ele>
        <time>2012-08-17T05:37:39Z</time>
      </trkpt>
      <trkpt lat="43.46859" lon="6.79265">
        <ele>119.3408203</ele>
        <time>2012-08-17T05:37:50Z</time>
      </trkpt>
      <trkpt lat="43.46901" lon="6.79259">
        <ele>120.302124</ele>
        <time>2012-08-17T05:38:02Z</time>
      </trkpt>
      <trkpt lat="43.46952" lon="6.79245">
        <ele>121.7441406</ele>
        <time>2012-08-17T05:38:16Z</time>
      </trkpt>
      <trkpt lat="43.46953" lon="6.79266">
        <ele>122.2247314</ele>
        <time>2012-08-17T05:38:23Z</time>
      </trkpt>
      <trkpt lat="43.46922" lon="6.79333">
        <ele>123.1861572</ele>
        <time>2012-08-17T05:38:38Z</time>
      </trkpt>
      <trkpt lat="43.46926" lon="6.79359">
        <ele>123.666748</ele>
        <time>2012-08-17T05:38:45Z</time>
      </trkpt>
      <trkpt lat="43.46926" lon="6.79401">
        <ele>124.1473389</ele>
        <time>2012-08-17T05:38:54Z</time>
      </trkpt>
      <trkpt lat="43.46914" lon="6.79475">
        <ele>125.1087646</ele>
        <time>2012-08-17T05:39:08Z</time>
      </trkpt>
      <trkpt lat="43.46911" lon="6.79495">
        <ele>125.5893555</ele>
        <time>2012-08-17T05:39:12Z</time>
      </trkpt>
      <trkpt lat="43.4693" lon="6.79495">
        <ele>126.0699463</ele>
        <time>2012-08-17T05:39:19Z</time>
      </trkpt>
      <trkpt lat="43.46961" lon="6.79481">
        <ele>127.5119629</ele>
        <time>2012-08-17T05:39:31Z</time>
      </trkpt>
      <trkpt lat="43.46992" lon="6.79467">
        <ele>129.9152832</ele>
        <time>2012-08-17T05:39:44Z</time>
      </trkpt>
      <trkpt lat="43.47023" lon="6.7945">
        <ele>131.8378906</ele>
        <time>2012-08-17T05:39:58Z</time>
      </trkpt>
      <trkpt lat="43.47052" lon="6.79436">
        <ele>133.760498</ele>
        <time>2012-08-17T05:40:11Z</time>
      </trkpt>
      <trkpt lat="43.47073" lon="6.79432">
        <ele>135.2025146</ele>
        <time>2012-08-17T05:40:22Z</time>
      </trkpt>
      <trkpt lat="43.47073" lon="6.79447">
        <ele>136.1639404</ele>
        <time>2012-08-17T05:40:26Z</time>
      </trkpt>
      <trkpt lat="43.4706" lon="6.79502">
        <ele>137.605835</ele>
        <time>2012-08-17T05:40:42Z</time>
      </trkpt>
      <trkpt lat="43.4704" lon="6.79549">
        <ele>140.4898682</ele>
        <time>2012-08-17T05:40:59Z</time>
      </trkpt>
      <trkpt lat="43.47046" lon="6.79578">
        <ele>141.9317627</ele>
        <time>2012-08-17T05:41:10Z</time>
      </trkpt>
      <trkpt lat="43.47081" lon="6.79589">
        <ele>143.8543701</ele>
        <time>2012-08-17T05:41:23Z</time>
      </trkpt>
      <trkpt lat="43.47123" lon="6.79582">
        <ele>146.2578125</ele>
        <time>2012-08-17T05:41:40Z</time>
      </trkpt>
      <trkpt lat="43.47144" lon="6.79552">
        <ele>148.1804199</ele>
        <time>2012-08-17T05:41:53Z</time>
      </trkpt>
      <trkpt lat="43.47156" lon="6.79501">
        <ele>150.5836182</ele>
        <time>2012-08-17T05:42:09Z</time>
      </trkpt>
      <trkpt lat="43.47165" lon="6.79447">
        <ele>152.9869385</ele>
        <time>2012-08-17T05:42:25Z</time>
      </trkpt>
      <trkpt lat="43.47176" lon="6.79393">
        <ele>155.3902588</ele>
        <time>2012-08-17T05:42:41Z</time>
      </trkpt>
      <trkpt lat="43.47192" lon="6.79339">
        <ele>158.2741699</ele>
        <time>2012-08-17T05:42:57Z</time>
      </trkpt>
      <trkpt lat="43.47218" lon="6.79311">
        <ele>159.7161865</ele>
        <time>2012-08-17T05:43:10Z</time>
      </trkpt>
      <trkpt lat="43.47257" lon="6.7929">
        <ele>161.638916</ele>
        <time>2012-08-17T05:43:27Z</time>
      </trkpt>
      <trkpt lat="43.47289" lon="6.79308">
        <ele>162.6000977</ele>
        <time>2012-08-17T05:43:41Z</time>
      </trkpt>
      <trkpt lat="43.47309" lon="6.79344">
        <ele>164.0421143</ele>
        <time>2012-08-17T05:43:55Z</time>
      </trkpt>
      <trkpt lat="43.47306" lon="6.79387">
        <ele>165.003418</ele>
        <time>2012-08-17T05:44:07Z</time>
      </trkpt>
      <trkpt lat="43.47302" lon="6.79456">
        <ele>166.4453125</ele>
        <time>2012-08-17T05:44:21Z</time>
      </trkpt>
      <trkpt lat="43.47318" lon="6.79516">
        <ele>167.4067383</ele>
        <time>2012-08-17T05:44:34Z</time>
      </trkpt>
      <trkpt lat="43.47333" lon="6.79597">
        <ele>169.3294678</ele>
        <time>2012-08-17T05:44:48Z</time>
      </trkpt>
      <trkpt lat="43.47346" lon="6.79614">
        <ele>170.2906494</ele>
        <time>2012-08-17T05:44:52Z</time>
      </trkpt>
      <trkpt lat="43.47353" lon="6.79619">
        <ele>170.2906494</ele>
        <time>2012-08-17T05:44:54Z</time>
      </trkpt>
      <trkpt lat="43.47401" lon="6.79637">
        <ele>171.732666</ele>
        <time>2012-08-17T05:45:07Z</time>
      </trkpt>
      <trkpt lat="43.4745" lon="6.79625">
        <ele>172.6939697</ele>
        <time>2012-08-17T05:45:21Z</time>
      </trkpt>
      <trkpt lat="43.47475" lon="6.79591">
        <ele>173.6552734</ele>
        <time>2012-08-17T05:45:33Z</time>
      </trkpt>
      <trkpt lat="43.47496" lon="6.79546">
        <ele>175.09729</ele>
        <time>2012-08-17T05:45:45Z</time>
      </trkpt>
      <trkpt lat="43.47524" lon="6.79504">
        <ele>176.5393066</ele>
        <time>2012-08-17T05:45:58Z</time>
      </trkpt>
      <trkpt lat="43.4757" lon="6.79467">
        <ele>177.5006104</ele>
        <time>2012-08-17T05:46:12Z</time>
      </trkpt>
      <trkpt lat="43.47612" lon="6.79435">
        <ele>178.942627</ele>
        <time>2012-08-17T05:46:27Z</time>
      </trkpt>
      <trkpt lat="43.47659" lon="6.79394">
        <ele>180.8652344</ele>
        <time>2012-08-17T05:46:44Z</time>
      </trkpt>
      <trkpt lat="43.47697" lon="6.79393">
        <ele>181.826416</ele>
        <time>2012-08-17T05:46:57Z</time>
      </trkpt>
      <trkpt lat="43.47742" lon="6.79408">
        <ele>182.7878418</ele>
        <time>2012-08-17T05:47:11Z</time>
      </trkpt>
      <trkpt lat="43.47788" lon="6.79408">
        <ele>184.2298584</ele>
        <time>2012-08-17T05:47:24Z</time>
      </trkpt>
      <trkpt lat="43.47792" lon="6.79406">
        <ele>184.2298584</ele>
        <time>2012-08-17T05:47:25Z</time>
      </trkpt>
      <trkpt lat="43.47805" lon="6.79395">
        <ele>183.7490234</ele>
        <time>2012-08-17T05:47:29Z</time>
      </trkpt>
      <trkpt lat="43.4784" lon="6.79381">
        <ele>182.7878418</ele>
        <time>2012-08-17T05:47:37Z</time>
      </trkpt>
      <trkpt lat="43.47877" lon="6.79362">
        <ele>182.7878418</ele>
        <time>2012-08-17T05:47:45Z</time>
      </trkpt>
      <trkpt lat="43.47896" lon="6.79358">
        <ele>182.7878418</ele>
        <time>2012-08-17T05:47:49Z</time>
      </trkpt>
      <trkpt lat="43.47933" lon="6.79338">
        <ele>183.7490234</ele>
        <time>2012-08-17T05:48:01Z</time>
      </trkpt>
      <trkpt lat="43.47942" lon="6.79334">
        <ele>184.7105713</ele>
        <time>2012-08-17T05:48:05Z</time>
      </trkpt>
      <trkpt lat="43.47977" lon="6.79321">
        <ele>186.6331787</ele>
        <time>2012-08-17T05:48:21Z</time>
      </trkpt>
      <trkpt lat="43.48005" lon="6.79319">
        <ele>188.5557861</ele>
        <time>2012-08-17T05:48:35Z</time>
      </trkpt>
      <trkpt lat="43.48032" lon="6.79318">
        <ele>190.4783936</ele>
        <time>2012-08-17T05:48:49Z</time>
      </trkpt>
      <trkpt lat="43.48056" lon="6.79307">
        <ele>191.9202881</ele>
        <time>2012-08-17T05:49:01Z</time>
      </trkpt>
      <trkpt lat="43.48066" lon="6.79293">
        <ele>192.401123</ele>
        <time>2012-08-17T05:49:08Z</time>
      </trkpt>
      <trkpt lat="43.48084" lon="6.79302">
        <ele>193.3623047</ele>
        <time>2012-08-17T05:49:19Z</time>
      </trkpt>
      <trkpt lat="43.48086" lon="6.79305">
        <ele>194.3237305</ele>
        <time>2012-08-17T05:49:21Z</time>
      </trkpt>
      <trkpt lat="43.48114" lon="6.79314">
        <ele>195.765625</ele>
        <time>2012-08-17T05:49:35Z</time>
      </trkpt>
      <trkpt lat="43.48137" lon="6.79305">
        <ele>197.6882324</ele>
        <time>2012-08-17T05:49:47Z</time>
      </trkpt>
      <trkpt lat="43.48163" lon="6.79317">
        <ele>199.130127</ele>
        <time>2012-08-17T05:50:01Z</time>
      </trkpt>
      <trkpt lat="43.48193" lon="6.79331">
        <ele>201.0528564</ele>
        <time>2012-08-17T05:50:15Z</time>
      </trkpt>
      <trkpt lat="43.48225" lon="6.7934">
        <ele>202.494873</ele>
        <time>2012-08-17T05:50:30Z</time>
      </trkpt>
      <trkpt lat="43.48263" lon="6.79324">
        <ele>204.8980713</ele>
        <time>2012-08-17T05:50:48Z</time>
      </trkpt>
      <trkpt lat="43.48284" lon="6.79305">
        <ele>206.8206787</ele>
        <time>2012-08-17T05:51:01Z</time>
      </trkpt>
      <trkpt lat="43.48294" lon="6.79305">
        <ele>207.3013916</ele>
        <time>2012-08-17T05:51:07Z</time>
      </trkpt>
      <trkpt lat="43.48296" lon="6.79316">
        <ele>208.2628174</ele>
        <time>2012-08-17T05:51:13Z</time>
      </trkpt>
      <trkpt lat="43.48303" lon="6.79362">
        <ele>210.1854248</ele>
        <time>2012-08-17T05:51:27Z</time>
      </trkpt>
      <trkpt lat="43.48324" lon="6.79387">
        <ele>211.6274414</ele>
        <time>2012-08-17T05:51:39Z</time>
      </trkpt>
      <trkpt lat="43.48336" lon="6.79429">
        <ele>214.0306396</ele>
        <time>2012-08-17T05:51:53Z</time>
      </trkpt>
      <trkpt lat="43.48339" lon="6.79457">
        <ele>214.9919434</ele>
        <time>2012-08-17T05:52:04Z</time>
      </trkpt>
      <trkpt lat="43.48335" lon="6.79459">
        <ele>215.9532471</ele>
        <time>2012-08-17T05:52:07Z</time>
      </trkpt>
      <trkpt lat="43.48315" lon="6.79454">
        <ele>216.9146729</ele>
        <time>2012-08-17T05:52:19Z</time>
      </trkpt>
      <trkpt lat="43.48286" lon="6.79442">
        <ele>218.8372803</ele>
        <time>2012-08-17T05:52:33Z</time>
      </trkpt>
      <trkpt lat="43.48259" lon="6.79442">
        <ele>220.7598877</ele>
        <time>2012-08-17T05:52:46Z</time>
      </trkpt>
      <trkpt lat="43.48234" lon="6.7945">
        <ele>221.7211914</ele>
        <time>2012-08-17T05:52:58Z</time>
      </trkpt>
      <trkpt lat="43.48204" lon="6.79468">
        <ele>223.6437988</ele>
        <time>2012-08-17T05:53:13Z</time>
      </trkpt>
      <trkpt lat="43.48176" lon="6.79491">
        <ele>226.0471191</ele>
        <time>2012-08-17T05:53:28Z</time>
      </trkpt>
      <trkpt lat="43.48149" lon="6.79511">
        <ele>227.9697266</ele>
        <time>2012-08-17T05:53:42Z</time>
      </trkpt>
      <trkpt lat="43.48122" lon="6.79533">
        <ele>229.892334</ele>
        <time>2012-08-17T05:53:57Z</time>
      </trkpt>
      <trkpt lat="43.48099" lon="6.79561">
        <ele>231.8149414</ele>
        <time>2012-08-17T05:54:11Z</time>
      </trkpt>
      <trkpt lat="43.48087" lon="6.796">
        <ele>234.2183838</ele>
        <time>2012-08-17T05:54:26Z</time>
      </trkpt>
      <trkpt lat="43.48086" lon="6.79644">
        <ele>236.1409912</ele>
        <time>2012-08-17T05:54:41Z</time>
      </trkpt>
      <trkpt lat="43.48095" lon="6.79681">
        <ele>238.0635986</ele>
        <time>2012-08-17T05:54:55Z</time>
      </trkpt>
      <trkpt lat="43.48104" lon="6.79716">
        <ele>239.5054932</ele>
        <time>2012-08-17T05:55:09Z</time>
      </trkpt>
      <trkpt lat="43.48112" lon="6.79748">
        <ele>241.4282227</ele>
        <time>2012-08-17T05:55:23Z</time>
      </trkpt>
      <trkpt lat="43.48108" lon="6.79783">
        <ele>242.8702393</ele>
        <time>2012-08-17T05:55:38Z</time>
      </trkpt>
      <trkpt lat="43.48094" lon="6.79822">
        <ele>245.2734375</ele>
        <time>2012-08-17T05:55:54Z</time>
      </trkpt>
      <trkpt lat="43.48076" lon="6.79854">
        <ele>247.1960449</ele>
        <time>2012-08-17T05:56:08Z</time>
      </trkpt>
      <trkpt lat="43.48052" lon="6.7989">
        <ele>249.5994873</ele>
        <time>2012-08-17T05:56:25Z</time>
      </trkpt>
      <trkpt lat="43.48047" lon="6.79915">
        <ele>250.0802002</ele>
        <time>2012-08-17T05:56:36Z</time>
      </trkpt>
      <trkpt lat="43.48057" lon="6.79912">
        <ele>250.560791</ele>
        <time>2012-08-17T05:56:51Z</time>
      </trkpt>
      <trkpt lat="43.48057" lon="6.79912">
        <ele>250.560791</ele>
        <time>2012-08-17T06:01:17Z</time>
      </trkpt>
      <trkpt lat="43.48063" lon="6.79919">
        <ele>250.560791</ele>
        <time>2012-08-17T06:01:23Z</time>
      </trkpt>
      <trkpt lat="43.48086" lon="6.79942">
        <ele>252.0028076</ele>
        <time>2012-08-17T06:01:37Z</time>
      </trkpt>
      <trkpt lat="43.48109" lon="6.79969">
        <ele>252.9639893</ele>
        <time>2012-08-17T06:01:50Z</time>
      </trkpt>
      <trkpt lat="43.48134" lon="6.79994">
        <ele>254.8865967</ele>
        <time>2012-08-17T06:02:03Z</time>
      </trkpt>
      <trkpt lat="43.4816" lon="6.80019">
        <ele>256.3287354</ele>
        <time>2012-08-17T06:02:16Z</time>
      </trkpt>
      <trkpt lat="43.48197" lon="6.80045">
        <ele>258.2513428</ele>
        <time>2012-08-17T06:02:31Z</time>
      </trkpt>
      <trkpt lat="43.48235" lon="6.80061">
        <ele>260.1739502</ele>
        <time>2012-08-17T06:02:45Z</time>
      </trkpt>
      <trkpt lat="43.48277" lon="6.8006">
        <ele>261.1352539</ele>
        <time>2012-08-17T06:03:01Z</time>
      </trkpt>
      <trkpt lat="43.48317" lon="6.80044">
        <ele>263.5385742</ele>
        <time>2012-08-17T06:03:17Z</time>
      </trkpt>
      <trkpt lat="43.48342" lon="6.80025">
        <ele>264.4998779</ele>
        <time>2012-08-17T06:03:30Z</time>
      </trkpt>
      <trkpt lat="43.48377" lon="6.8">
        <ele>266.4224854</ele>
        <time>2012-08-17T06:03:45Z</time>
      </trkpt>
      <trkpt lat="43.48396" lon="6.79974">
        <ele>267.3839111</ele>
        <time>2012-08-17T06:03:57Z</time>
      </trkpt>
      <trkpt lat="43.4841" lon="6.79941">
        <ele>268.3450928</ele>
        <time>2012-08-17T06:04:09Z</time>
      </trkpt>
      <trkpt lat="43.48432" lon="6.79936">
        <ele>269.7871094</ele>
        <time>2012-08-17T06:04:21Z</time>
      </trkpt>
      <trkpt lat="43.48449" lon="6.79967">
        <ele>270.7484131</ele>
        <time>2012-08-17T06:04:33Z</time>
      </trkpt>
      <trkpt lat="43.48477" lon="6.80009">
        <ele>272.6711426</ele>
        <time>2012-08-17T06:04:50Z</time>
      </trkpt>
      <trkpt lat="43.48485" lon="6.8005">
        <ele>274.1130371</ele>
        <time>2012-08-17T06:05:03Z</time>
      </trkpt>
      <trkpt lat="43.48502" lon="6.80102">
        <ele>275.5550537</ele>
        <time>2012-08-17T06:05:18Z</time>
      </trkpt>
      <trkpt lat="43.48522" lon="6.80145">
        <ele>277.958252</ele>
        <time>2012-08-17T06:05:31Z</time>
      </trkpt>
      <trkpt lat="43.48548" lon="6.80179">
        <ele>279.4002686</ele>
        <time>2012-08-17T06:05:43Z</time>
      </trkpt>
      <trkpt lat="43.48579" lon="6.80215">
        <ele>281.322998</ele>
        <time>2012-08-17T06:05:59Z</time>
      </trkpt>
      <trkpt lat="43.4861" lon="6.80252">
        <ele>282.7650146</ele>
        <time>2012-08-17T06:06:15Z</time>
      </trkpt>
      <trkpt lat="43.48647" lon="6.80287">
        <ele>285.1682129</ele>
        <time>2012-08-17T06:06:32Z</time>
      </trkpt>
      <trkpt lat="43.48678" lon="6.80322">
        <ele>287.0908203</ele>
        <time>2012-08-17T06:06:46Z</time>
      </trkpt>
      <trkpt lat="43.48713" lon="6.80337">
        <ele>288.532959</ele>
        <time>2012-08-17T06:07:00Z</time>
      </trkpt>
      <trkpt lat="43.48738" lon="6.80309">
        <ele>289.9748535</ele>
        <time>2012-08-17T06:07:14Z</time>
      </trkpt>
      <trkpt lat="43.48748" lon="6.80262">
        <ele>291.416748</ele>
        <time>2012-08-17T06:07:28Z</time>
      </trkpt>
      <trkpt lat="43.48763" lon="6.8022">
        <ele>292.8587646</ele>
        <time>2012-08-17T06:07:42Z</time>
      </trkpt>
      <trkpt lat="43.48777" lon="6.80174">
        <ele>294.7813721</ele>
        <time>2012-08-17T06:07:56Z</time>
      </trkpt>
      <trkpt lat="43.48783" lon="6.80111">
        <ele>296.2235107</ele>
        <time>2012-08-17T06:08:14Z</time>
      </trkpt>
      <trkpt lat="43.48777" lon="6.80065">
        <ele>298.626709</ele>
        <time>2012-08-17T06:08:27Z</time>
      </trkpt>
      <trkpt lat="43.48756" lon="6.80017">
        <ele>300.0687256</ele>
        <time>2012-08-17T06:08:43Z</time>
      </trkpt>
      <trkpt lat="43.48732" lon="6.79963">
        <ele>302.4719238</ele>
        <time>2012-08-17T06:09:00Z</time>
      </trkpt>
      <trkpt lat="43.48734" lon="6.79902">
        <ele>304.3946533</ele>
        <time>2012-08-17T06:09:14Z</time>
      </trkpt>
      <trkpt lat="43.48761" lon="6.79853">
        <ele>306.3172607</ele>
        <time>2012-08-17T06:09:29Z</time>
      </trkpt>
      <trkpt lat="43.48804" lon="6.79816">
        <ele>308.2398682</ele>
        <time>2012-08-17T06:09:45Z</time>
      </trkpt>
      <trkpt lat="43.48832" lon="6.79757">
        <ele>310.6430664</ele>
        <time>2012-08-17T06:10:04Z</time>
      </trkpt>
      <trkpt lat="43.48848" lon="6.79709">
        <ele>312.0852051</ele>
        <time>2012-08-17T06:10:20Z</time>
      </trkpt>
      <trkpt lat="43.4886" lon="6.79667">
        <ele>313.5272217</ele>
        <time>2012-08-17T06:10:33Z</time>
      </trkpt>
      <trkpt lat="43.48871" lon="6.79615">
        <ele>314.9691162</ele>
        <time>2012-08-17T06:10:47Z</time>
      </trkpt>
      <trkpt lat="43.4889" lon="6.79563">
        <ele>317.3724365</ele>
        <time>2012-08-17T06:11:03Z</time>
      </trkpt>
      <trkpt lat="43.48893" lon="6.79562">
        <ele>317.3724365</ele>
        <time>2012-08-17T06:11:04Z</time>
      </trkpt>
      <trkpt lat="43.48899" lon="6.79562">
        <ele>317.8530273</ele>
        <time>2012-08-17T06:11:08Z</time>
      </trkpt>
      <trkpt lat="43.48928" lon="6.79595">
        <ele>319.2950439</ele>
        <time>2012-08-17T06:11:20Z</time>
      </trkpt>
      <trkpt lat="43.48967" lon="6.79609">
        <ele>321.2177734</ele>
        <time>2012-08-17T06:11:35Z</time>
      </trkpt>
      <trkpt lat="43.48999" lon="6.79597">
        <ele>322.1789551</ele>
        <time>2012-08-17T06:11:48Z</time>
      </trkpt>
      <trkpt lat="43.49018" lon="6.79613">
        <ele>323.6209717</ele>
        <time>2012-08-17T06:11:59Z</time>
      </trkpt>
      <trkpt lat="43.49032" lon="6.7967">
        <ele>325.0629883</ele>
        <time>2012-08-17T06:12:16Z</time>
      </trkpt>
      <trkpt lat="43.49037" lon="6.79715">
        <ele>327.4661865</ele>
        <time>2012-08-17T06:12:28Z</time>
      </trkpt>
      <trkpt lat="43.49056" lon="6.79768">
        <ele>328.9083252</ele>
        <time>2012-08-17T06:12:43Z</time>
      </trkpt>
      <trkpt lat="43.49089" lon="6.79813">
        <ele>330.8309326</ele>
        <time>2012-08-17T06:12:59Z</time>
      </trkpt>
      <trkpt lat="43.4912" lon="6.79852">
        <ele>332.75354</ele>
        <time>2012-08-17T06:13:14Z</time>
      </trkpt>
      <trkpt lat="43.49134" lon="6.79895">
        <ele>333.7147217</ele>
        <time>2012-08-17T06:13:26Z</time>
      </trkpt>
      <trkpt lat="43.4915" lon="6.79948">
        <ele>336.1181641</ele>
        <time>2012-08-17T06:13:43Z</time>
      </trkpt>
      <trkpt lat="43.49165" lon="6.79985">
        <ele>337.5600586</ele>
        <time>2012-08-17T06:13:57Z</time>
      </trkpt>
      <trkpt lat="43.49178" lon="6.79989">
        <ele>339.482666</ele>
        <time>2012-08-17T06:14:10Z</time>
      </trkpt>
      <trkpt lat="43.49225" lon="6.8002">
        <ele>340.9246826</ele>
        <time>2012-08-17T06:14:25Z</time>
      </trkpt>
      <trkpt lat="43.4926" lon="6.80016">
        <ele>341.8859863</ele>
        <time>2012-08-17T06:14:38Z</time>
      </trkpt>
      <trkpt lat="43.49292" lon="6.8001">
        <ele>343.3278809</ele>
        <time>2012-08-17T06:14:51Z</time>
      </trkpt>
      <trkpt lat="43.49324" lon="6.80025">
        <ele>344.7700195</ele>
        <time>2012-08-17T06:15:03Z</time>
      </trkpt>
      <trkpt lat="43.49362" lon="6.80054">
        <ele>346.2120361</ele>
        <time>2012-08-17T06:15:19Z</time>
      </trkpt>
      <trkpt lat="43.49391" lon="6.80076">
        <ele>348.1346436</ele>
        <time>2012-08-17T06:15:32Z</time>
      </trkpt>
      <trkpt lat="43.4941" lon="6.8011">
        <ele>349.5765381</ele>
        <time>2012-08-17T06:15:46Z</time>
      </trkpt>
      <trkpt lat="43.49418" lon="6.8017">
        <ele>351.0184326</ele>
        <time>2012-08-17T06:16:00Z</time>
      </trkpt>
      <trkpt lat="43.49445" lon="6.802">
        <ele>353.421875</ele>
        <time>2012-08-17T06:16:12Z</time>
      </trkpt>
      <trkpt lat="43.49483" lon="6.80199">
        <ele>354.8637695</ele>
        <time>2012-08-17T06:16:25Z</time>
      </trkpt>
      <trkpt lat="43.49523" lon="6.80187">
        <ele>355.8251953</ele>
        <time>2012-08-17T06:16:39Z</time>
      </trkpt>
      <trkpt lat="43.49555" lon="6.80171">
        <ele>356.786377</ele>
        <time>2012-08-17T06:16:52Z</time>
      </trkpt>
      <trkpt lat="43.49559" lon="6.80171">
        <ele>356.786377</ele>
        <time>2012-08-17T06:16:54Z</time>
      </trkpt>
      <trkpt lat="43.4958" lon="6.80184">
        <ele>356.786377</ele>
        <time>2012-08-17T06:17:07Z</time>
      </trkpt>
      <trkpt lat="43.4958" lon="6.80184">
        <ele>357.2670898</ele>
        <time>2012-08-17T06:17:26Z</time>
      </trkpt>
      <trkpt lat="43.49588" lon="6.8021">
        <ele>358.2283936</ele>
        <time>2012-08-17T06:23:06Z</time>
      </trkpt>
      <trkpt lat="43.49614" lon="6.80254">
        <ele>360.6317139</ele>
        <time>2012-08-17T06:23:22Z</time>
      </trkpt>
      <trkpt lat="43.4964" lon="6.80294">
        <ele>362.5543213</ele>
        <time>2012-08-17T06:23:38Z</time>
      </trkpt>
      <trkpt lat="43.49649" lon="6.80332">
        <ele>364.9576416</ele>
        <time>2012-08-17T06:23:51Z</time>
      </trkpt>
      <trkpt lat="43.49655" lon="6.80374">
        <ele>366.880249</ele>
        <time>2012-08-17T06:24:04Z</time>
      </trkpt>
      <trkpt lat="43.4968" lon="6.80409">
        <ele>368.8029785</ele>
        <time>2012-08-17T06:24:18Z</time>
      </trkpt>
      <trkpt lat="43.49705" lon="6.80439">
        <ele>370.244873</ele>
        <time>2012-08-17T06:24:31Z</time>
      </trkpt>
      <trkpt lat="43.49722" lon="6.80478">
        <ele>372.1674805</ele>
        <time>2012-08-17T06:24:44Z</time>
      </trkpt>
      <trkpt lat="43.49732" lon="6.80524">
        <ele>375.5321045</ele>
        <time>2012-08-17T06:24:58Z</time>
      </trkpt>
      <trkpt lat="43.49714" lon="6.80568">
        <ele>376.9742432</ele>
        <time>2012-08-17T06:25:12Z</time>
      </trkpt>
      <trkpt lat="43.49678" lon="6.80611">
        <ele>376.9742432</ele>
        <time>2012-08-17T06:25:24Z</time>
      </trkpt>
      <trkpt lat="43.49676" lon="6.80622">
        <ele>376.9742432</ele>
        <time>2012-08-17T06:25:26Z</time>
      </trkpt>
      <trkpt lat="43.49689" lon="6.80645">
        <ele>376.4935303</ele>
        <time>2012-08-17T06:25:31Z</time>
      </trkpt>
      <trkpt lat="43.49722" lon="6.80682">
        <ele>375.5321045</ele>
        <time>2012-08-17T06:25:39Z</time>
      </trkpt>
      <trkpt lat="43.4973" lon="6.80716">
        <ele>375.5321045</ele>
        <time>2012-08-17T06:25:43Z</time>
      </trkpt>
      <trkpt lat="43.49739" lon="6.80846">
        <ele>373.6094971</ele>
        <time>2012-08-17T06:25:56Z</time>
      </trkpt>
      <trkpt lat="43.49745" lon="6.80872">
        <ele>373.1289063</ele>
        <time>2012-08-17T06:25:59Z</time>
      </trkpt>
      <trkpt lat="43.49752" lon="6.80895">
        <ele>373.6094971</ele>
        <time>2012-08-17T06:26:02Z</time>
      </trkpt>
      <trkpt lat="43.49799" lon="6.80932">
        <ele>376.4935303</ele>
        <time>2012-08-17T06:26:15Z</time>
      </trkpt>
      <trkpt lat="43.49843" lon="6.80937">
        <ele>379.8580322</ele>
        <time>2012-08-17T06:26:28Z</time>
      </trkpt>
      <trkpt lat="43.49882" lon="6.80954">
        <ele>382.7420654</ele>
        <time>2012-08-17T06:26:43Z</time>
      </trkpt>
      <trkpt lat="43.49915" lon="6.80968">
        <ele>385.6259766</ele>
        <time>2012-08-17T06:26:59Z</time>
      </trkpt>
      <trkpt lat="43.49946" lon="6.80994">
        <ele>388.9906006</ele>
        <time>2012-08-17T06:27:14Z</time>
      </trkpt>
      <trkpt lat="43.49977" lon="6.81016">
        <ele>391.8745117</ele>
        <time>2012-08-17T06:27:30Z</time>
      </trkpt>
      <trkpt lat="43.50008" lon="6.81034">
        <ele>395.2391357</ele>
        <time>2012-08-17T06:27:45Z</time>
      </trkpt>
      <trkpt lat="43.50036" lon="6.81041">
        <ele>397.1617432</ele>
        <time>2012-08-17T06:27:59Z</time>
      </trkpt>
      <trkpt lat="43.50065" lon="6.81035">
        <ele>400.0458984</ele>
        <time>2012-08-17T06:28:12Z</time>
      </trkpt>
      <trkpt lat="43.50095" lon="6.81021">
        <ele>402.9296875</ele>
        <time>2012-08-17T06:28:26Z</time>
      </trkpt>
      <trkpt lat="43.50119" lon="6.81013">
        <ele>405.3330078</ele>
        <time>2012-08-17T06:28:39Z</time>
      </trkpt>
      <trkpt lat="43.50147" lon="6.80999">
        <ele>407.2556152</ele>
        <time>2012-08-17T06:28:54Z</time>
      </trkpt>
      <trkpt lat="43.50174" lon="6.80992">
        <ele>410.6202393</ele>
        <time>2012-08-17T06:29:09Z</time>
      </trkpt>
      <trkpt lat="43.50197" lon="6.80985">
        <ele>412.5428467</ele>
        <time>2012-08-17T06:29:22Z</time>
      </trkpt>
      <trkpt lat="43.50229" lon="6.80978">
        <ele>415.4268799</ele>
        <time>2012-08-17T06:29:39Z</time>
      </trkpt>
      <trkpt lat="43.5025" lon="6.80972">
        <ele>417.3496094</ele>
        <time>2012-08-17T06:29:51Z</time>
      </trkpt>
      <trkpt lat="43.50279" lon="6.80963">
        <ele>419.7528076</ele>
        <time>2012-08-17T06:30:06Z</time>
      </trkpt>
      <trkpt lat="43.50313" lon="6.80959">
        <ele>422.6367188</ele>
        <time>2012-08-17T06:30:24Z</time>
      </trkpt>
      <trkpt lat="43.50344" lon="6.80963">
        <ele>426.0013428</ele>
        <time>2012-08-17T06:30:41Z</time>
      </trkpt>
      <trkpt lat="43.50372" lon="6.8098">
        <ele>428.4046631</ele>
        <time>2012-08-17T06:30:58Z</time>
      </trkpt>
      <trkpt lat="43.50394" lon="6.81001">
        <ele>431.2885742</ele>
        <time>2012-08-17T06:31:14Z</time>
      </trkpt>
      <trkpt lat="43.50412" lon="6.81028">
        <ele>434.6533203</ele>
        <time>2012-08-17T06:31:29Z</time>
      </trkpt>
      <trkpt lat="43.5042" lon="6.81044">
        <ele>435.1339111</ele>
        <time>2012-08-17T06:31:36Z</time>
      </trkpt>
      <trkpt lat="43.50421" lon="6.81046">
        <ele>435.614502</ele>
        <time>2012-08-17T06:31:38Z</time>
      </trkpt>
      <trkpt lat="43.50422" lon="6.81045">
        <ele>435.614502</ele>
        <time>2012-08-17T06:31:43Z</time>
      </trkpt>
      <trkpt lat="43.5042" lon="6.81032">
        <ele>434.1726074</ele>
        <time>2012-08-17T06:31:53Z</time>
      </trkpt>
      <trkpt lat="43.5042" lon="6.81034">
        <ele>434.6533203</ele>
        <time>2012-08-17T06:32:15Z</time>
      </trkpt>
      <trkpt lat="43.50427" lon="6.81065">
        <ele>437.5371094</ele>
        <time>2012-08-17T06:32:29Z</time>
      </trkpt>
      <trkpt lat="43.50431" lon="6.81104">
        <ele>439.9404297</ele>
        <time>2012-08-17T06:32:43Z</time>
      </trkpt>
      <trkpt lat="43.50427" lon="6.81139">
        <ele>442.3438721</ele>
        <time>2012-08-17T06:32:57Z</time>
      </trkpt>
      <trkpt lat="43.50427" lon="6.8116">
        <ele>444.2664795</ele>
        <time>2012-08-17T06:33:05Z</time>
      </trkpt>
      <trkpt lat="43.50426" lon="6.81185">
        <ele>445.708374</ele>
        <time>2012-08-17T06:33:13Z</time>
      </trkpt>
      <trkpt lat="43.50428" lon="6.81222">
        <ele>448.5924072</ele>
        <time>2012-08-17T06:33:29Z</time>
      </trkpt>
      <trkpt lat="43.50434" lon="6.8125">
        <ele>450.9956055</ele>
        <time>2012-08-17T06:33:41Z</time>
      </trkpt>
      <trkpt lat="43.5045" lon="6.81282">
        <ele>452.9182129</ele>
        <time>2012-08-17T06:33:53Z</time>
      </trkpt>
      <trkpt lat="43.50472" lon="6.813">
        <ele>455.8022461</ele>
        <time>2012-08-17T06:34:05Z</time>
      </trkpt>
      <trkpt lat="43.5048" lon="6.81311">
        <ele>456.7635498</ele>
        <time>2012-08-17T06:34:11Z</time>
      </trkpt>
      <trkpt lat="43.50479" lon="6.81315">
        <ele>456.7635498</ele>
        <time>2012-08-17T06:34:21Z</time>
      </trkpt>
      <trkpt lat="43.50476" lon="6.8132">
        <ele>456.7635498</ele>
        <time>2012-08-17T06:34:42Z</time>
      </trkpt>
      <trkpt lat="43.50469" lon="6.81317">
        <ele>457.7249756</ele>
        <time>2012-08-17T06:35:03Z</time>
      </trkpt>
      <trkpt lat="43.50466" lon="6.81316">
        <ele>458.2055664</ele>
        <time>2012-08-17T06:35:07Z</time>
      </trkpt>
      <trkpt lat="43.50446" lon="6.81302">
        <ele>460.1281738</ele>
        <time>2012-08-17T06:35:18Z</time>
      </trkpt>
      <trkpt lat="43.50429" lon="6.81274">
        <ele>462.0507813</ele>
        <time>2012-08-17T06:35:32Z</time>
      </trkpt>
      <trkpt lat="43.50419" lon="6.81245">
        <ele>463.9733887</ele>
        <time>2012-08-17T06:35:44Z</time>
      </trkpt>
      <trkpt lat="43.5041" lon="6.81206">
        <ele>466.8574219</ele>
        <time>2012-08-17T06:35:59Z</time>
      </trkpt>
      <trkpt lat="43.50402" lon="6.81172">
        <ele>467.8187256</ele>
        <time>2012-08-17T06:36:11Z</time>
      </trkpt>
      <trkpt lat="43.50397" lon="6.81139">
        <ele>470.2219238</ele>
        <time>2012-08-17T06:36:23Z</time>
      </trkpt>
      <trkpt lat="43.50387" lon="6.81104">
        <ele>472.1446533</ele>
        <time>2012-08-17T06:36:36Z</time>
      </trkpt>
      <trkpt lat="43.50375" lon="6.81081">
        <ele>473.5866699</ele>
        <time>2012-08-17T06:36:46Z</time>
      </trkpt>
      <trkpt lat="43.50343" lon="6.81063">
        <ele>475.9898682</ele>
        <time>2012-08-17T06:36:59Z</time>
      </trkpt>
      <trkpt lat="43.50309" lon="6.81075">
        <ele>478.3931885</ele>
        <time>2012-08-17T06:37:13Z</time>
      </trkpt>
      <trkpt lat="43.5028" lon="6.81103">
        <ele>481.7578125</ele>
        <time>2012-08-17T06:37:28Z</time>
      </trkpt>
      <trkpt lat="43.50247" lon="6.81127">
        <ele>483.6804199</ele>
        <time>2012-08-17T06:37:43Z</time>
      </trkpt>
      <trkpt lat="43.50219" lon="6.81155">
        <ele>486.5644531</ele>
        <time>2012-08-17T06:37:58Z</time>
      </trkpt>
      <trkpt lat="43.50206" lon="6.81196">
        <ele>489.4483643</ele>
        <time>2012-08-17T06:38:12Z</time>
      </trkpt>
      <trkpt lat="43.50209" lon="6.81246">
        <ele>492.3323975</ele>
        <time>2012-08-17T06:38:28Z</time>
      </trkpt>
      <trkpt lat="43.50208" lon="6.8129">
        <ele>495.2161865</ele>
        <time>2012-08-17T06:38:43Z</time>
      </trkpt>
      <trkpt lat="43.50209" lon="6.81332">
        <ele>497.138916</ele>
        <time>2012-08-17T06:38:58Z</time>
      </trkpt>
      <trkpt lat="43.50199" lon="6.81374">
        <ele>500.0229492</ele>
        <time>2012-08-17T06:39:13Z</time>
      </trkpt>
      <trkpt lat="43.50189" lon="6.81403">
        <ele>501.9455566</ele>
        <time>2012-08-17T06:39:27Z</time>
      </trkpt>
      <trkpt lat="43.50186" lon="6.81453">
        <ele>504.8294678</ele>
        <time>2012-08-17T06:39:47Z</time>
      </trkpt>
      <trkpt lat="43.50191" lon="6.81501">
        <ele>507.713501</ele>
        <time>2012-08-17T06:40:05Z</time>
      </trkpt>
      <trkpt lat="43.50193" lon="6.81543">
        <ele>509.6361084</ele>
        <time>2012-08-17T06:40:22Z</time>
      </trkpt>
      <trkpt lat="43.50199" lon="6.81585">
        <ele>512.5200195</ele>
        <time>2012-08-17T06:40:38Z</time>
      </trkpt>
      <trkpt lat="43.50209" lon="6.81623">
        <ele>514.442627</ele>
        <time>2012-08-17T06:40:54Z</time>
      </trkpt>
      <trkpt lat="43.50205" lon="6.81664">
        <ele>516.8459473</ele>
        <time>2012-08-17T06:41:11Z</time>
      </trkpt>
      <trkpt lat="43.50185" lon="6.81703">
        <ele>519.7298584</ele>
        <time>2012-08-17T06:41:29Z</time>
      </trkpt>
      <trkpt lat="43.50158" lon="6.81728">
        <ele>522.1331787</ele>
        <time>2012-08-17T06:41:47Z</time>
      </trkpt>
      <trkpt lat="43.5013" lon="6.81755">
        <ele>524.536499</ele>
        <time>2012-08-17T06:42:05Z</time>
      </trkpt>
      <trkpt lat="43.50103" lon="6.81781">
        <ele>526.9398193</ele>
        <time>2012-08-17T06:42:24Z</time>
      </trkpt>
      <trkpt lat="43.50071" lon="6.81797">
        <ele>530.3044434</ele>
        <time>2012-08-17T06:42:42Z</time>
      </trkpt>
      <trkpt lat="43.50065" lon="6.81809">
        <ele>530.7851563</ele>
        <time>2012-08-17T06:42:48Z</time>
      </trkpt>
      <trkpt lat="43.5008" lon="6.81814">
        <ele>531.7463379</ele>
        <time>2012-08-17T06:42:56Z</time>
      </trkpt>
      <trkpt lat="43.50111" lon="6.81797">
        <ele>533.6689453</ele>
        <time>2012-08-17T06:43:12Z</time>
      </trkpt>
      <trkpt lat="43.50146" lon="6.8178">
        <ele>536.0723877</ele>
        <time>2012-08-17T06:43:28Z</time>
      </trkpt>
      <trkpt lat="43.50174" lon="6.81769">
        <ele>538.475708</ele>
        <time>2012-08-17T06:43:41Z</time>
      </trkpt>
      <trkpt lat="43.50207" lon="6.81758">
        <ele>540.3983154</ele>
        <time>2012-08-17T06:43:56Z</time>
      </trkpt>
      <trkpt lat="43.50241" lon="6.81748">
        <ele>543.2821045</ele>
        <time>2012-08-17T06:44:12Z</time>
      </trkpt>
      <trkpt lat="43.50249" lon="6.81748">
        <ele>543.2821045</ele>
        <time>2012-08-17T06:44:17Z</time>
      </trkpt>
      <trkpt lat="43.50251" lon="6.81753">
        <ele>543.7628174</ele>
        <time>2012-08-17T06:44:29Z</time>
      </trkpt>
      <trkpt lat="43.50253" lon="6.81774">
        <ele>545.204834</ele>
        <time>2012-08-17T06:47:38Z</time>
      </trkpt>
      <trkpt lat="43.5025" lon="6.81818">
        <ele>547.1274414</ele>
        <time>2012-08-17T06:47:54Z</time>
      </trkpt>
      <trkpt lat="43.50246" lon="6.81857">
        <ele>549.5307617</ele>
        <time>2012-08-17T06:48:09Z</time>
      </trkpt>
      <trkpt lat="43.50246" lon="6.81899">
        <ele>551.934082</ele>
        <time>2012-08-17T06:48:25Z</time>
      </trkpt>
      <trkpt lat="43.50251" lon="6.81939">
        <ele>554.8178711</ele>
        <time>2012-08-17T06:48:40Z</time>
      </trkpt>
      <trkpt lat="43.50253" lon="6.81979">
        <ele>555.7792969</ele>
        <time>2012-08-17T06:48:52Z</time>
      </trkpt>
      <trkpt lat="43.50254" lon="6.82024">
        <ele>557.2214355</ele>
        <time>2012-08-17T06:49:05Z</time>
      </trkpt>
      <trkpt lat="43.50255" lon="6.82026">
        <ele>557.2214355</ele>
        <time>2012-08-17T06:49:06Z</time>
      </trkpt>
      <trkpt lat="43.50256" lon="6.82044">
        <ele>559.6247559</ele>
        <time>2012-08-17T06:49:13Z</time>
      </trkpt>
      <trkpt lat="43.50268" lon="6.82065">
        <ele>562.5085449</ele>
        <time>2012-08-17T06:49:20Z</time>
      </trkpt>
      <trkpt lat="43.50269" lon="6.82067">
        <ele>562.9892578</ele>
        <time>2012-08-17T06:49:21Z</time>
      </trkpt>
      <trkpt lat="43.50273" lon="6.82082">
        <ele>566.8344727</ele>
        <time>2012-08-17T06:49:32Z</time>
      </trkpt>
      <trkpt lat="43.50272" lon="6.82082">
        <ele>566.8344727</ele>
        <time>2012-08-17T06:49:33Z</time>
      </trkpt>
      <trkpt lat="43.50257" lon="6.82072">
        <ele>569.237793</ele>
        <time>2012-08-17T06:49:45Z</time>
      </trkpt>
      <trkpt lat="43.50244" lon="6.82058">
        <ele>572.1218262</ele>
        <time>2012-08-17T06:49:57Z</time>
      </trkpt>
      <trkpt lat="43.50235" lon="6.82043">
        <ele>574.0444336</ele>
        <time>2012-08-17T06:50:10Z</time>
      </trkpt>
      <trkpt lat="43.50233" lon="6.82047">
        <ele>574.0444336</ele>
        <time>2012-08-17T06:50:56Z</time>
      </trkpt>
      <trkpt lat="43.50231" lon="6.82072">
        <ele>577.4091797</ele>
        <time>2012-08-17T06:51:16Z</time>
      </trkpt>
      <trkpt lat="43.5024" lon="6.82088">
        <ele>578.8510742</ele>
        <time>2012-08-17T06:51:32Z</time>
      </trkpt>
      <trkpt lat="43.50243" lon="6.82094">
        <ele>579.331543</ele>
        <time>2012-08-17T06:51:54Z</time>
      </trkpt>
      <trkpt lat="43.50252" lon="6.82113">
        <ele>582.2155762</ele>
        <time>2012-08-17T06:52:12Z</time>
      </trkpt>
      <trkpt lat="43.50253" lon="6.82125">
        <ele>585.5800781</ele>
        <time>2012-08-17T06:52:30Z</time>
      </trkpt>
      <trkpt lat="43.50245" lon="6.82131">
        <ele>588.9450684</ele>
        <time>2012-08-17T06:52:50Z</time>
      </trkpt>
      <trkpt lat="43.50246" lon="6.82138">
        <ele>591.8288574</ele>
        <time>2012-08-17T06:53:04Z</time>
      </trkpt>
      <trkpt lat="43.50237" lon="6.82139">
        <ele>594.2321777</ele>
        <time>2012-08-17T06:53:22Z</time>
      </trkpt>
      <trkpt lat="43.50232" lon="6.82145">
        <ele>595.6740723</ele>
        <time>2012-08-17T06:53:31Z</time>
      </trkpt>
      <trkpt lat="43.50229" lon="6.82162">
        <ele>598.5578613</ele>
        <time>2012-08-17T06:53:46Z</time>
      </trkpt>
      <trkpt lat="43.50227" lon="6.82169">
        <ele>600.4807129</ele>
        <time>2012-08-17T06:53:55Z</time>
      </trkpt>
      <trkpt lat="43.50215" lon="6.82172">
        <ele>603.364502</ele>
        <time>2012-08-17T06:54:09Z</time>
      </trkpt>
      <trkpt lat="43.50216" lon="6.8218">
        <ele>605.2873535</ele>
        <time>2012-08-17T06:54:17Z</time>
      </trkpt>
      <trkpt lat="43.50219" lon="6.82181">
        <ele>605.2873535</ele>
        <time>2012-08-17T06:54:34Z</time>
      </trkpt>
      <trkpt lat="43.50218" lon="6.82174">
        <ele>606.2485352</ele>
        <time>2012-08-17T07:09:00Z</time>
      </trkpt>
      <trkpt lat="43.50227" lon="6.82171">
        <ele>603.364502</ele>
        <time>2012-08-17T07:09:06Z</time>
      </trkpt>
      <trkpt lat="43.50228" lon="6.82164">
        <ele>601.4418945</ele>
        <time>2012-08-17T07:09:23Z</time>
      </trkpt>
      <trkpt lat="43.50227" lon="6.82162">
        <ele>600.4807129</ele>
        <time>2012-08-17T07:09:39Z</time>
      </trkpt>
      <trkpt lat="43.50229" lon="6.82155">
        <ele>600</ele>
        <time>2012-08-17T07:09:46Z</time>
      </trkpt>
      <trkpt lat="43.50231" lon="6.8214">
        <ele>598.0773926</ele>
        <time>2012-08-17T07:09:58Z</time>
      </trkpt>
      <trkpt lat="43.50237" lon="6.82142">
        <ele>597.1159668</ele>
        <time>2012-08-17T07:10:10Z</time>
      </trkpt>
      <trkpt lat="43.5025" lon="6.82141">
        <ele>593.270752</ele>
        <time>2012-08-17T07:10:24Z</time>
      </trkpt>
      <trkpt lat="43.50248" lon="6.82127">
        <ele>590.8674316</ele>
        <time>2012-08-17T07:10:37Z</time>
      </trkpt>
      <trkpt lat="43.50251" lon="6.82122">
        <ele>588.9450684</ele>
        <time>2012-08-17T07:10:45Z</time>
      </trkpt>
      <trkpt lat="43.50258" lon="6.82118">
        <ele>585.5800781</ele>
        <time>2012-08-17T07:10:58Z</time>
      </trkpt>
      <trkpt lat="43.5025" lon="6.82105">
        <ele>582.2155762</ele>
        <time>2012-08-17T07:11:11Z</time>
      </trkpt>
      <trkpt lat="43.50249" lon="6.82103">
        <ele>582.2155762</ele>
        <time>2012-08-17T07:11:12Z</time>
      </trkpt>
      <trkpt lat="43.50247" lon="6.82097">
        <ele>581.7348633</ele>
        <time>2012-08-17T07:11:16Z</time>
      </trkpt>
      <trkpt lat="43.50246" lon="6.82094">
        <ele>581.7348633</ele>
        <time>2012-08-17T07:11:18Z</time>
      </trkpt>
      <trkpt lat="43.50244" lon="6.82088">
        <ele>581.2543945</ele>
        <time>2012-08-17T07:11:38Z</time>
      </trkpt>
      <trkpt lat="43.50244" lon="6.8209">
        <ele>578.3703613</ele>
        <time>2012-08-17T07:12:21Z</time>
      </trkpt>
      <trkpt lat="43.50244" lon="6.8209">
        <ele>581.7348633</ele>
        <time>2012-08-17T07:12:22Z</time>
      </trkpt>
      <trkpt lat="43.50241" lon="6.82083">
        <ele>580.2929688</ele>
        <time>2012-08-17T07:12:30Z</time>
      </trkpt>
      <trkpt lat="43.50238" lon="6.82073">
        <ele>579.331543</ele>
        <time>2012-08-17T07:12:39Z</time>
      </trkpt>
      <trkpt lat="43.50233" lon="6.82059">
        <ele>577.8896484</ele>
        <time>2012-08-17T07:12:54Z</time>
      </trkpt>
      <trkpt lat="43.50231" lon="6.8205">
        <ele>577.4091797</ele>
        <time>2012-08-17T07:12:59Z</time>
      </trkpt>
      <trkpt lat="43.50234" lon="6.82044">
        <ele>576.9284668</ele>
        <time>2012-08-17T07:13:14Z</time>
      </trkpt>
      <trkpt lat="43.50235" lon="6.82046">
        <ele>576.4477539</ele>
        <time>2012-08-17T07:13:21Z</time>
      </trkpt>
      <trkpt lat="43.50242" lon="6.82061">
        <ele>574.5251465</ele>
        <time>2012-08-17T07:13:26Z</time>
      </trkpt>
      <trkpt lat="43.50262" lon="6.82079">
        <ele>570.6796875</ele>
        <time>2012-08-17T07:13:34Z</time>
      </trkpt>
      <trkpt lat="43.5027" lon="6.82084">
        <ele>569.7185059</ele>
        <time>2012-08-17T07:13:36Z</time>
      </trkpt>
      <trkpt lat="43.50274" lon="6.82086">
        <ele>568.7570801</ele>
        <time>2012-08-17T07:13:38Z</time>
      </trkpt>
      <trkpt lat="43.50273" lon="6.82074">
        <ele>567.3151855</ele>
        <time>2012-08-17T07:13:43Z</time>
      </trkpt>
      <trkpt lat="43.50256" lon="6.8203">
        <ele>562.9892578</ele>
        <time>2012-08-17T07:13:49Z</time>
      </trkpt>
      <trkpt lat="43.50252" lon="6.82012">
        <ele>561.0666504</ele>
        <time>2012-08-17T07:13:51Z</time>
      </trkpt>
      <trkpt lat="43.50251" lon="6.81993">
        <ele>560.5859375</ele>
        <time>2012-08-17T07:13:53Z</time>
      </trkpt>
      <trkpt lat="43.50253" lon="6.81951">
        <ele>559.6247559</ele>
        <time>2012-08-17T07:13:58Z</time>
      </trkpt>
      <trkpt lat="43.50252" lon="6.81934">
        <ele>558.6633301</ele>
        <time>2012-08-17T07:14:00Z</time>
      </trkpt>
      <trkpt lat="43.50251" lon="6.81916">
        <ele>557.7021484</ele>
        <time>2012-08-17T07:14:02Z</time>
      </trkpt>
      <trkpt lat="43.50251" lon="6.81895">
        <ele>556.7407227</ele>
        <time>2012-08-17T07:14:04Z</time>
      </trkpt>
      <trkpt lat="43.5025" lon="6.81861">
        <ele>554.8178711</ele>
        <time>2012-08-17T07:14:07Z</time>
      </trkpt>
      <trkpt lat="43.50249" lon="6.81808">
        <ele>550.9726563</ele>
        <time>2012-08-17T07:14:12Z</time>
      </trkpt>
      <trkpt lat="43.50249" lon="6.81778">
        <ele>548.5693359</ele>
        <time>2012-08-17T07:14:18Z</time>
      </trkpt>
      <trkpt lat="43.50242" lon="6.81747">
        <ele>546.6468506</ele>
        <time>2012-08-17T07:14:27Z</time>
      </trkpt>
      <trkpt lat="43.50196" lon="6.81757">
        <ele>544.7242432</ele>
        <time>2012-08-17T07:14:38Z</time>
      </trkpt>
      <trkpt lat="43.50168" lon="6.81767">
        <ele>543.2821045</ele>
        <time>2012-08-17T07:14:42Z</time>
      </trkpt>
      <trkpt lat="43.50143" lon="6.81777">
        <ele>541.84021</ele>
        <time>2012-08-17T07:14:45Z</time>
      </trkpt>
      <trkpt lat="43.50085" lon="6.81806">
        <ele>537.9949951</ele>
        <time>2012-08-17T07:14:52Z</time>
      </trkpt>
      <trkpt lat="43.50074" lon="6.81813">
        <ele>536.0723877</ele>
        <time>2012-08-17T07:14:54Z</time>
      </trkpt>
      <trkpt lat="43.50068" lon="6.81803">
        <ele>534.1496582</ele>
        <time>2012-08-17T07:14:59Z</time>
      </trkpt>
      <trkpt lat="43.50072" lon="6.818">
        <ele>533.6689453</ele>
        <time>2012-08-17T07:15:00Z</time>
      </trkpt>
      <trkpt lat="43.5012" lon="6.81766">
        <ele>530.7851563</ele>
        <time>2012-08-17T07:15:08Z</time>
      </trkpt>
      <trkpt lat="43.50172" lon="6.81718">
        <ele>527.4204102</ele>
        <time>2012-08-17T07:15:15Z</time>
      </trkpt>
      <trkpt lat="43.50187" lon="6.81702">
        <ele>525.4978027</ele>
        <time>2012-08-17T07:15:17Z</time>
      </trkpt>
      <trkpt lat="43.50208" lon="6.81642">
        <ele>521.6525879</ele>
        <time>2012-08-17T07:15:23Z</time>
      </trkpt>
      <trkpt lat="43.50197" lon="6.81578">
        <ele>517.807251</ele>
        <time>2012-08-17T07:15:29Z</time>
      </trkpt>
      <trkpt lat="43.50189" lon="6.81485">
        <ele>513.9620361</ele>
        <time>2012-08-17T07:15:36Z</time>
      </trkpt>
      <trkpt lat="43.50187" lon="6.81472">
        <ele>512.0394287</ele>
        <time>2012-08-17T07:15:37Z</time>
      </trkpt>
      <trkpt lat="43.50186" lon="6.8143">
        <ele>510.59729</ele>
        <time>2012-08-17T07:15:40Z</time>
      </trkpt>
      <trkpt lat="43.50189" lon="6.81404">
        <ele>508.1940918</ele>
        <time>2012-08-17T07:15:42Z</time>
      </trkpt>
      <trkpt lat="43.50208" lon="6.81354">
        <ele>504.348877</ele>
        <time>2012-08-17T07:15:47Z</time>
      </trkpt>
      <trkpt lat="43.5021" lon="6.81249">
        <ele>499.5422363</ele>
        <time>2012-08-17T07:15:55Z</time>
      </trkpt>
      <trkpt lat="43.50208" lon="6.81207">
        <ele>497.138916</ele>
        <time>2012-08-17T07:15:58Z</time>
      </trkpt>
      <trkpt lat="43.50223" lon="6.81149">
        <ele>492.3323975</ele>
        <time>2012-08-17T07:16:03Z</time>
      </trkpt>
      <trkpt lat="43.50229" lon="6.81139">
        <ele>492.8129883</ele>
        <time>2012-08-17T07:16:04Z</time>
      </trkpt>
      <trkpt lat="43.50245" lon="6.81125">
        <ele>490.8903809</ele>
        <time>2012-08-17T07:16:06Z</time>
      </trkpt>
      <trkpt lat="43.50288" lon="6.81092">
        <ele>487.5256348</ele>
        <time>2012-08-17T07:16:11Z</time>
      </trkpt>
      <trkpt lat="43.5031" lon="6.81071">
        <ele>484.6418457</ele>
        <time>2012-08-17T07:16:14Z</time>
      </trkpt>
      <trkpt lat="43.50325" lon="6.81065">
        <ele>483.6804199</ele>
        <time>2012-08-17T07:16:16Z</time>
      </trkpt>
      <trkpt lat="43.50368" lon="6.81078">
        <ele>480.315918</ele>
        <time>2012-08-17T07:16:21Z</time>
      </trkpt>
      <trkpt lat="43.50382" lon="6.81108">
        <ele>478.8739014</ele>
        <time>2012-08-17T07:16:24Z</time>
      </trkpt>
      <trkpt lat="43.50393" lon="6.8114">
        <ele>477.4318848</ele>
        <time>2012-08-17T07:16:27Z</time>
      </trkpt>
      <trkpt lat="43.50407" lon="6.81224">
        <ele>474.0672607</ele>
        <time>2012-08-17T07:16:33Z</time>
      </trkpt>
      <trkpt lat="43.50417" lon="6.81265">
        <ele>470.2219238</ele>
        <time>2012-08-17T07:16:36Z</time>
      </trkpt>
      <trkpt lat="43.50421" lon="6.81276">
        <ele>469.741333</ele>
        <time>2012-08-17T07:16:37Z</time>
      </trkpt>
      <trkpt lat="43.50445" lon="6.81314">
        <ele>465.8961182</ele>
        <time>2012-08-17T07:16:41Z</time>
      </trkpt>
      <trkpt lat="43.50465" lon="6.81322">
        <ele>463.012085</ele>
        <time>2012-08-17T07:16:45Z</time>
      </trkpt>
      <trkpt lat="43.50467" lon="6.81321">
        <ele>463.012085</ele>
        <time>2012-08-17T07:16:46Z</time>
      </trkpt>
      <trkpt lat="43.50463" lon="6.81309">
        <ele>461.0894775</ele>
        <time>2012-08-17T07:16:53Z</time>
      </trkpt>
      <trkpt lat="43.50437" lon="6.81267">
        <ele>458.2055664</ele>
        <time>2012-08-17T07:16:59Z</time>
      </trkpt>
      <trkpt lat="43.50435" lon="6.81257">
        <ele>458.2055664</ele>
        <time>2012-08-17T07:17:00Z</time>
      </trkpt>
      <trkpt lat="43.50434" lon="6.8123">
        <ele>456.7635498</ele>
        <time>2012-08-17T07:17:02Z</time>
      </trkpt>
      <trkpt lat="43.50435" lon="6.81158">
        <ele>452.4376221</ele>
        <time>2012-08-17T07:17:07Z</time>
      </trkpt>
      <trkpt lat="43.50433" lon="6.81116">
        <ele>449.072998</ele>
        <time>2012-08-17T07:17:10Z</time>
      </trkpt>
      <trkpt lat="43.50433" lon="6.81101">
        <ele>448.1118164</ele>
        <time>2012-08-17T07:17:11Z</time>
      </trkpt>
      <trkpt lat="43.50431" lon="6.81073">
        <ele>446.6696777</ele>
        <time>2012-08-17T07:17:13Z</time>
      </trkpt>
      <trkpt lat="43.50419" lon="6.81034">
        <ele>442.8244629</ele>
        <time>2012-08-17T07:17:16Z</time>
      </trkpt>
      <trkpt lat="43.50387" lon="6.80992">
        <ele>438.979126</ele>
        <time>2012-08-17T07:17:21Z</time>
      </trkpt>
      <trkpt lat="43.50379" lon="6.80985">
        <ele>438.979126</ele>
        <time>2012-08-17T07:17:22Z</time>
      </trkpt>
      <trkpt lat="43.50352" lon="6.80967">
        <ele>435.614502</ele>
        <time>2012-08-17T07:17:25Z</time>
      </trkpt>
      <trkpt lat="43.50331" lon="6.80958">
        <ele>434.1726074</ele>
        <time>2012-08-17T07:17:27Z</time>
      </trkpt>
      <trkpt lat="43.50286" lon="6.80959">
        <ele>429.8465576</ele>
        <time>2012-08-17T07:17:31Z</time>
      </trkpt>
      <trkpt lat="43.50275" lon="6.80961">
        <ele>428.885376</ele>
        <time>2012-08-17T07:17:32Z</time>
      </trkpt>
      <trkpt lat="43.50214" lon="6.80976">
        <ele>424.0787354</ele>
        <time>2012-08-17T07:17:37Z</time>
      </trkpt>
      <trkpt lat="43.50177" lon="6.80987">
        <ele>420.7141113</ele>
        <time>2012-08-17T07:17:40Z</time>
      </trkpt>
      <trkpt lat="43.50141" lon="6.80998">
        <ele>416.3881836</ele>
        <time>2012-08-17T07:17:43Z</time>
      </trkpt>
      <trkpt lat="43.50093" lon="6.81017">
        <ele>412.5428467</ele>
        <time>2012-08-17T07:17:47Z</time>
      </trkpt>
      <trkpt lat="43.50062" lon="6.8103">
        <ele>409.1783447</ele>
        <time>2012-08-17T07:17:50Z</time>
      </trkpt>
      <trkpt lat="43.50042" lon="6.81036">
        <ele>406.7749023</ele>
        <time>2012-08-17T07:17:52Z</time>
      </trkpt>
      <trkpt lat="43.4999" lon="6.81022">
        <ele>403.4104004</ele>
        <time>2012-08-17T07:17:57Z</time>
      </trkpt>
      <trkpt lat="43.49946" lon="6.80994">
        <ele>399.0843506</ele>
        <time>2012-08-17T07:18:01Z</time>
      </trkpt>
      <trkpt lat="43.49926" lon="6.80977">
        <ele>396.2005615</ele>
        <time>2012-08-17T07:18:03Z</time>
      </trkpt>
      <trkpt lat="43.49908" lon="6.80965">
        <ele>393.7972412</ele>
        <time>2012-08-17T07:18:05Z</time>
      </trkpt>
      <trkpt lat="43.49834" lon="6.80932">
        <ele>390.4326172</ele>
        <time>2012-08-17T07:18:12Z</time>
      </trkpt>
      <trkpt lat="43.49811" lon="6.8092">
        <ele>387.0679932</ele>
        <time>2012-08-17T07:18:14Z</time>
      </trkpt>
      <trkpt lat="43.49779" lon="6.80904">
        <ele>383.7032471</ele>
        <time>2012-08-17T07:18:17Z</time>
      </trkpt>
      <trkpt lat="43.4977" lon="6.80899">
        <ele>382.2613525</ele>
        <time>2012-08-17T07:18:18Z</time>
      </trkpt>
      <trkpt lat="43.49757" lon="6.80884">
        <ele>381.3000488</ele>
        <time>2012-08-17T07:18:20Z</time>
      </trkpt>
      <trkpt lat="43.49746" lon="6.80852">
        <ele>379.8580322</ele>
        <time>2012-08-17T07:18:23Z</time>
      </trkpt>
      <trkpt lat="43.49738" lon="6.80829">
        <ele>377.9354248</ele>
        <time>2012-08-17T07:18:28Z</time>
      </trkpt>
      <trkpt lat="43.49741" lon="6.80855">
        <ele>377.454834</ele>
        <time>2012-08-17T07:18:37Z</time>
      </trkpt>
      <trkpt lat="43.49743" lon="6.80864">
        <ele>376.9742432</ele>
        <time>2012-08-17T07:18:39Z</time>
      </trkpt>
      <trkpt lat="43.49777" lon="6.80916">
        <ele>376.0128174</ele>
        <time>2012-08-17T07:18:53Z</time>
      </trkpt>
      <trkpt lat="43.49811" lon="6.80941">
        <ele>374.5708008</ele>
        <time>2012-08-17T07:19:01Z</time>
      </trkpt>
      <trkpt lat="43.49847" lon="6.80973">
        <ele>373.1289063</ele>
        <time>2012-08-17T07:19:09Z</time>
      </trkpt>
      <trkpt lat="43.49891" lon="6.81014">
        <ele>371.6868896</ele>
        <time>2012-08-17T07:19:19Z</time>
      </trkpt>
      <trkpt lat="43.49903" lon="6.81032">
        <ele>371.6868896</ele>
        <time>2012-08-17T07:19:22Z</time>
      </trkpt>
      <trkpt lat="43.49937" lon="6.81139">
        <ele>368.3222656</ele>
        <time>2012-08-17T07:19:36Z</time>
      </trkpt>
      <trkpt lat="43.49966" lon="6.81258">
        <ele>365.4383545</ele>
        <time>2012-08-17T07:19:50Z</time>
      </trkpt>
      <trkpt lat="43.49974" lon="6.81323">
        <ele>363.9963379</ele>
        <time>2012-08-17T07:19:57Z</time>
      </trkpt>
      <trkpt lat="43.49966" lon="6.81356">
        <ele>363.0350342</ele>
        <time>2012-08-17T07:20:01Z</time>
      </trkpt>
      <trkpt lat="43.49923" lon="6.81393">
        <ele>360.6317139</ele>
        <time>2012-08-17T07:20:10Z</time>
      </trkpt>
      <trkpt lat="43.49909" lon="6.81387">
        <ele>360.6317139</ele>
        <time>2012-08-17T07:20:12Z</time>
      </trkpt>
      <trkpt lat="43.49823" lon="6.8138">
        <ele>359.6704102</ele>
        <time>2012-08-17T07:20:24Z</time>
      </trkpt>
      <trkpt lat="43.49756" lon="6.81394">
        <ele>361.5931396</ele>
        <time>2012-08-17T07:20:37Z</time>
      </trkpt>
      <trkpt lat="43.4973" lon="6.81408">
        <ele>362.0737305</ele>
        <time>2012-08-17T07:20:43Z</time>
      </trkpt>
      <trkpt lat="43.49717" lon="6.81422">
        <ele>362.5543213</ele>
        <time>2012-08-17T07:20:47Z</time>
      </trkpt>
      <trkpt lat="43.4971" lon="6.81438">
        <ele>363.0350342</ele>
        <time>2012-08-17T07:20:50Z</time>
      </trkpt>
      <trkpt lat="43.49706" lon="6.81455">
        <ele>363.0350342</ele>
        <time>2012-08-17T07:20:53Z</time>
      </trkpt>
      <trkpt lat="43.49707" lon="6.81477">
        <ele>363.9963379</ele>
        <time>2012-08-17T07:20:57Z</time>
      </trkpt>
      <trkpt lat="43.4972" lon="6.81549">
        <ele>364.9576416</ele>
        <time>2012-08-17T07:21:10Z</time>
      </trkpt>
      <trkpt lat="43.49705" lon="6.81573">
        <ele>365.9189453</ele>
        <time>2012-08-17T07:21:16Z</time>
      </trkpt>
      <trkpt lat="43.49688" lon="6.8159">
        <ele>366.3995361</ele>
        <time>2012-08-17T07:21:21Z</time>
      </trkpt>
      <trkpt lat="43.49661" lon="6.81627">
        <ele>367.3609619</ele>
        <time>2012-08-17T07:21:30Z</time>
      </trkpt>
      <trkpt lat="43.49637" lon="6.81668">
        <ele>368.3222656</ele>
        <time>2012-08-17T07:21:39Z</time>
      </trkpt>
      <trkpt lat="43.496" lon="6.81749">
        <ele>370.7255859</ele>
        <time>2012-08-17T07:21:56Z</time>
      </trkpt>
      <trkpt lat="43.49575" lon="6.81812">
        <ele>372.1674805</ele>
        <time>2012-08-17T07:22:10Z</time>
      </trkpt>
      <trkpt lat="43.49578" lon="6.81825">
        <ele>372.6481934</ele>
        <time>2012-08-17T07:22:14Z</time>
      </trkpt>
      <trkpt lat="43.49581" lon="6.81828">
        <ele>372.1674805</ele>
        <time>2012-08-17T07:22:16Z</time>
      </trkpt>
      <trkpt lat="43.49584" lon="6.8183">
        <ele>372.1674805</ele>
        <time>2012-08-17T07:22:20Z</time>
      </trkpt>
      <trkpt lat="43.49588" lon="6.81835">
        <ele>372.1674805</ele>
        <time>2012-08-17T07:22:33Z</time>
      </trkpt>
      <trkpt lat="43.49588" lon="6.81835">
        <ele>371.6868896</ele>
        <time>2012-08-17T07:22:55Z</time>
      </trkpt>
      <trkpt lat="43.49582" lon="6.81843">
        <ele>371.2062988</ele>
        <time>2012-08-17T07:22:59Z</time>
      </trkpt>
      <trkpt lat="43.49566" lon="6.81871">
        <ele>368.8029785</ele>
        <time>2012-08-17T07:23:10Z</time>
      </trkpt>
      <trkpt lat="43.49566" lon="6.81871">
        <ele>368.3222656</ele>
        <time>2012-08-17T07:23:22Z</time>
      </trkpt>
      <trkpt lat="43.49546" lon="6.81901">
        <ele>366.3995361</ele>
        <time>2012-08-17T07:23:36Z</time>
      </trkpt>
      <trkpt lat="43.49531" lon="6.81936">
        <ele>363.5157471</ele>
        <time>2012-08-17T07:23:44Z</time>
      </trkpt>
      <trkpt lat="43.49527" lon="6.81971">
        <ele>362.0737305</ele>
        <time>2012-08-17T07:23:50Z</time>
      </trkpt>
      <trkpt lat="43.49528" lon="6.81986">
        <ele>361.1124268</ele>
        <time>2012-08-17T07:23:52Z</time>
      </trkpt>
      <trkpt lat="43.49521" lon="6.82033">
        <ele>357.7478027</ele>
        <time>2012-08-17T07:24:00Z</time>
      </trkpt>
      <trkpt lat="43.49518" lon="6.82063">
        <ele>355.8251953</ele>
        <time>2012-08-17T07:24:04Z</time>
      </trkpt>
      <trkpt lat="43.49516" lon="6.82078">
        <ele>354.3831787</ele>
        <time>2012-08-17T07:24:06Z</time>
      </trkpt>
      <trkpt lat="43.49514" lon="6.82101">
        <ele>352.9411621</ele>
        <time>2012-08-17T07:24:10Z</time>
      </trkpt>
      <trkpt lat="43.49506" lon="6.82143">
        <ele>350.5378418</ele>
        <time>2012-08-17T07:24:17Z</time>
      </trkpt>
      <trkpt lat="43.49505" lon="6.8215">
        <ele>350.057251</ele>
        <time>2012-08-17T07:24:18Z</time>
      </trkpt>
      <trkpt lat="43.495" lon="6.82172">
        <ele>347.6539307</ele>
        <time>2012-08-17T07:24:21Z</time>
      </trkpt>
      <trkpt lat="43.49493" lon="6.82201">
        <ele>346.2120361</ele>
        <time>2012-08-17T07:24:26Z</time>
      </trkpt>
      <trkpt lat="43.49491" lon="6.82214">
        <ele>345.2506104</ele>
        <time>2012-08-17T07:24:28Z</time>
      </trkpt>
      <trkpt lat="43.49486" lon="6.82244">
        <ele>342.84729</ele>
        <time>2012-08-17T07:24:33Z</time>
      </trkpt>
      <trkpt lat="43.49482" lon="6.82263">
        <ele>341.4052734</ele>
        <time>2012-08-17T07:24:36Z</time>
      </trkpt>
      <trkpt lat="43.49479" lon="6.82276">
        <ele>340.9246826</ele>
        <time>2012-08-17T07:24:38Z</time>
      </trkpt>
      <trkpt lat="43.49474" lon="6.82299">
        <ele>339.0020752</ele>
        <time>2012-08-17T07:24:42Z</time>
      </trkpt>
      <trkpt lat="43.49464" lon="6.82344">
        <ele>336.1181641</ele>
        <time>2012-08-17T07:24:50Z</time>
      </trkpt>
      <trkpt lat="43.49463" lon="6.8235">
        <ele>335.6373291</ele>
        <time>2012-08-17T07:24:51Z</time>
      </trkpt>
      <trkpt lat="43.49456" lon="6.82387">
        <ele>333.2341309</ele>
        <time>2012-08-17T07:24:57Z</time>
      </trkpt>
      <trkpt lat="43.49452" lon="6.82405">
        <ele>331.7921143</ele>
        <time>2012-08-17T07:25:00Z</time>
      </trkpt>
      <trkpt lat="43.49447" lon="6.82423">
        <ele>330.8309326</ele>
        <time>2012-08-17T07:25:03Z</time>
      </trkpt>
      <trkpt lat="43.49436" lon="6.82458">
        <ele>327.9467773</ele>
        <time>2012-08-17T07:25:10Z</time>
      </trkpt>
      <trkpt lat="43.4942" lon="6.82508">
        <ele>324.1015625</ele>
        <time>2012-08-17T07:25:20Z</time>
      </trkpt>
      <trkpt lat="43.49404" lon="6.82546">
        <ele>320.7370605</ele>
        <time>2012-08-17T07:25:30Z</time>
      </trkpt>
      <trkpt lat="43.49412" lon="6.82596">
        <ele>317.8530273</ele>
        <time>2012-08-17T07:25:39Z</time>
      </trkpt>
      <trkpt lat="43.4942" lon="6.82639">
        <ele>314.4884033</ele>
        <time>2012-08-17T07:25:48Z</time>
      </trkpt>
      <trkpt lat="43.49421" lon="6.82649">
        <ele>314.0078125</ele>
        <time>2012-08-17T07:25:50Z</time>
      </trkpt>
      <trkpt lat="43.49422" lon="6.82693">
        <ele>311.6044922</ele>
        <time>2012-08-17T07:25:59Z</time>
      </trkpt>
      <trkpt lat="43.49422" lon="6.82722">
        <ele>309.2011719</ele>
        <time>2012-08-17T07:26:04Z</time>
      </trkpt>
      <trkpt lat="43.49422" lon="6.82727">
        <ele>309.2011719</ele>
        <time>2012-08-17T07:26:05Z</time>
      </trkpt>
      <trkpt lat="43.49417" lon="6.82779">
        <ele>305.355957</ele>
        <time>2012-08-17T07:26:15Z</time>
      </trkpt>
      <trkpt lat="43.49416" lon="6.8279">
        <ele>304.8752441</ele>
        <time>2012-08-17T07:26:17Z</time>
      </trkpt>
      <trkpt lat="43.49406" lon="6.82839">
        <ele>301.5106201</ele>
        <time>2012-08-17T07:26:28Z</time>
      </trkpt>
      <trkpt lat="43.49399" lon="6.82866">
        <ele>298.626709</ele>
        <time>2012-08-17T07:26:39Z</time>
      </trkpt>
      <trkpt lat="43.49393" lon="6.8289">
        <ele>296.7041016</ele>
        <time>2012-08-17T07:28:04Z</time>
      </trkpt>
      <trkpt lat="43.49383" lon="6.82927">
        <ele>294.3007813</ele>
        <time>2012-08-17T07:28:16Z</time>
      </trkpt>
      <trkpt lat="43.4937" lon="6.82971">
        <ele>290.9361572</ele>
        <time>2012-08-17T07:28:26Z</time>
      </trkpt>
      <trkpt lat="43.49352" lon="6.83009">
        <ele>288.0522461</ele>
        <time>2012-08-17T07:28:35Z</time>
      </trkpt>
      <trkpt lat="43.49324" lon="6.83039">
        <ele>284.6876221</ele>
        <time>2012-08-17T07:28:46Z</time>
      </trkpt>
      <trkpt lat="43.49296" lon="6.83061">
        <ele>281.8035889</ele>
        <time>2012-08-17T07:28:56Z</time>
      </trkpt>
      <trkpt lat="43.49293" lon="6.83065">
        <ele>280.8424072</ele>
        <time>2012-08-17T07:29:06Z</time>
      </trkpt>
      <trkpt lat="43.49293" lon="6.83065">
        <ele>281.322998</ele>
        <time>2012-08-17T07:29:09Z</time>
      </trkpt>
      <trkpt lat="43.49293" lon="6.83065">
        <ele>280.8424072</ele>
        <time>2012-08-17T07:29:14Z</time>
      </trkpt>
      <trkpt lat="43.4929" lon="6.83084">
        <ele>279.8808594</ele>
        <time>2012-08-17T07:29:29Z</time>
      </trkpt>
      <trkpt lat="43.4929" lon="6.83084">
        <ele>280.3616943</ele>
        <time>2012-08-17T07:29:42Z</time>
      </trkpt>
      <trkpt lat="43.49297" lon="6.83133">
        <ele>278.4389648</ele>
        <time>2012-08-17T07:29:54Z</time>
      </trkpt>
      <trkpt lat="43.49309" lon="6.83181">
        <ele>276.0356445</ele>
        <time>2012-08-17T07:30:05Z</time>
      </trkpt>
      <trkpt lat="43.49324" lon="6.83227">
        <ele>273.6324463</ele>
        <time>2012-08-17T07:30:14Z</time>
      </trkpt>
      <trkpt lat="43.49323" lon="6.83237">
        <ele>273.6324463</ele>
        <time>2012-08-17T07:30:16Z</time>
      </trkpt>
      <trkpt lat="43.49318" lon="6.83266">
        <ele>271.7097168</ele>
        <time>2012-08-17T07:30:21Z</time>
      </trkpt>
      <trkpt lat="43.49314" lon="6.83272">
        <ele>271.229126</ele>
        <time>2012-08-17T07:30:24Z</time>
      </trkpt>
      <trkpt lat="43.49281" lon="6.83267">
        <ele>268.8258057</ele>
        <time>2012-08-17T07:30:36Z</time>
      </trkpt>
      <trkpt lat="43.49244" lon="6.83256">
        <ele>266.4224854</ele>
        <time>2012-08-17T07:30:48Z</time>
      </trkpt>
      <trkpt lat="43.49214" lon="6.83278">
        <ele>264.0192871</ele>
        <time>2012-08-17T07:30:59Z</time>
      </trkpt>
      <trkpt lat="43.49193" lon="6.833">
        <ele>262.0965576</ele>
        <time>2012-08-17T07:31:06Z</time>
      </trkpt>
      <trkpt lat="43.49177" lon="6.83302">
        <ele>261.6159668</ele>
        <time>2012-08-17T07:31:10Z</time>
      </trkpt>
      <trkpt lat="43.49163" lon="6.83299">
        <ele>260.654541</ele>
        <time>2012-08-17T07:31:13Z</time>
      </trkpt>
      <trkpt lat="43.49153" lon="6.83298">
        <ele>260.1739502</ele>
        <time>2012-08-17T07:31:15Z</time>
      </trkpt>
      <trkpt lat="43.49143" lon="6.83298">
        <ele>259.2126465</ele>
        <time>2012-08-17T07:31:17Z</time>
      </trkpt>
      <trkpt lat="43.49119" lon="6.83302">
        <ele>257.770752</ele>
        <time>2012-08-17T07:31:27Z</time>
      </trkpt>
      <trkpt lat="43.49119" lon="6.83302">
        <ele>256.3287354</ele>
        <time>2012-08-17T07:31:55Z</time>
      </trkpt>
      <trkpt lat="43.49119" lon="6.83302">
        <ele>255.3673096</ele>
        <time>2012-08-17T07:32:04Z</time>
      </trkpt>
      <trkpt lat="43.49117" lon="6.83328">
        <ele>255.3673096</ele>
        <time>2012-08-17T07:32:08Z</time>
      </trkpt>
      <trkpt lat="43.49118" lon="6.83332">
        <ele>254.8865967</ele>
        <time>2012-08-17T07:32:10Z</time>
      </trkpt>
      <trkpt lat="43.49118" lon="6.83338">
        <ele>254.4060059</ele>
        <time>2012-08-17T07:32:25Z</time>
      </trkpt>
      <trkpt lat="43.49118" lon="6.83338">
        <ele>254.8865967</ele>
        <time>2012-08-17T07:32:31Z</time>
      </trkpt>
      <trkpt lat="43.49091" lon="6.83384">
        <ele>252.0028076</ele>
        <time>2012-08-17T07:32:43Z</time>
      </trkpt>
      <trkpt lat="43.49065" lon="6.83419">
        <ele>249.1187744</ele>
        <time>2012-08-17T07:32:54Z</time>
      </trkpt>
      <trkpt lat="43.49065" lon="6.83419">
        <ele>248.6381836</ele>
        <time>2012-08-17T07:33:06Z</time>
      </trkpt>
      <trkpt lat="43.49065" lon="6.83419">
        <ele>247.6767578</ele>
        <time>2012-08-17T07:33:23Z</time>
      </trkpt>
      <trkpt lat="43.49106" lon="6.8344">
        <ele>245.2734375</ele>
        <time>2012-08-17T07:33:44Z</time>
      </trkpt>
      <trkpt lat="43.49113" lon="6.83441">
        <ele>245.2734375</ele>
        <time>2012-08-17T07:33:52Z</time>
      </trkpt>
      <trkpt lat="43.49143" lon="6.83456">
        <ele>243.3508301</ele>
        <time>2012-08-17T07:34:04Z</time>
      </trkpt>
      <trkpt lat="43.49174" lon="6.83483">
        <ele>240.9476318</ele>
        <time>2012-08-17T07:34:16Z</time>
      </trkpt>
      <trkpt lat="43.49213" lon="6.83497">
        <ele>238.0635986</ele>
        <time>2012-08-17T07:34:28Z</time>
      </trkpt>
      <trkpt lat="43.49231" lon="6.83499">
        <ele>237.1022949</ele>
        <time>2012-08-17T07:34:33Z</time>
      </trkpt>
      <trkpt lat="43.49258" lon="6.83525">
        <ele>234.2183838</ele>
        <time>2012-08-17T07:34:42Z</time>
      </trkpt>
      <trkpt lat="43.4927" lon="6.83548">
        <ele>232.7764893</ele>
        <time>2012-08-17T07:34:47Z</time>
      </trkpt>
      <trkpt lat="43.4929" lon="6.83601">
        <ele>229.892334</ele>
        <time>2012-08-17T07:34:59Z</time>
      </trkpt>
      <trkpt lat="43.49292" lon="6.83627">
        <ele>228.4504395</ele>
        <time>2012-08-17T07:35:04Z</time>
      </trkpt>
      <trkpt lat="43.49286" lon="6.83698">
        <ele>225.0859375</ele>
        <time>2012-08-17T07:35:17Z</time>
      </trkpt>
      <trkpt lat="43.49283" lon="6.83748">
        <ele>222.6824951</ele>
        <time>2012-08-17T07:35:30Z</time>
      </trkpt>
      <trkpt lat="43.4928" lon="6.83792">
        <ele>220.2791748</ele>
        <time>2012-08-17T07:35:40Z</time>
      </trkpt>
      <trkpt lat="43.49275" lon="6.83841">
        <ele>218.3565674</ele>
        <time>2012-08-17T07:35:50Z</time>
      </trkpt>
      <trkpt lat="43.49271" lon="6.83896">
        <ele>214.9919434</ele>
        <time>2012-08-17T07:36:01Z</time>
      </trkpt>
      <trkpt lat="43.49269" lon="6.83936">
        <ele>212.588623</ele>
        <time>2012-08-17T07:36:12Z</time>
      </trkpt>
      <trkpt lat="43.49269" lon="6.83936">
        <ele>212.588623</ele>
        <time>2012-08-17T07:37:45Z</time>
      </trkpt>
      <trkpt lat="43.49262" lon="6.83975">
        <ele>210.6660156</ele>
        <time>2012-08-17T07:37:54Z</time>
      </trkpt>
      <trkpt lat="43.49239" lon="6.83991">
        <ele>209.2241211</ele>
        <time>2012-08-17T07:38:01Z</time>
      </trkpt>
      <trkpt lat="43.49211" lon="6.84">
        <ele>206.8206787</ele>
        <time>2012-08-17T07:38:13Z</time>
      </trkpt>
      <trkpt lat="43.49209" lon="6.84051">
        <ele>204.8980713</ele>
        <time>2012-08-17T07:38:24Z</time>
      </trkpt>
      <trkpt lat="43.49175" lon="6.84098">
        <ele>202.0142822</ele>
        <time>2012-08-17T07:38:36Z</time>
      </trkpt>
      <trkpt lat="43.49169" lon="6.84108">
        <ele>202.0142822</ele>
        <time>2012-08-17T07:38:38Z</time>
      </trkpt>
      <trkpt lat="43.49154" lon="6.8415">
        <ele>200.5722656</ele>
        <time>2012-08-17T07:38:45Z</time>
      </trkpt>
      <trkpt lat="43.49131" lon="6.84213">
        <ele>196.7269287</ele>
        <time>2012-08-17T07:38:57Z</time>
      </trkpt>
      <trkpt lat="43.49117" lon="6.84233">
        <ele>195.765625</ele>
        <time>2012-08-17T07:39:03Z</time>
      </trkpt>
      <trkpt lat="43.49089" lon="6.84292">
        <ele>192.8817139</ele>
        <time>2012-08-17T07:39:16Z</time>
      </trkpt>
      <trkpt lat="43.49085" lon="6.8431">
        <ele>192.8817139</ele>
        <time>2012-08-17T07:39:19Z</time>
      </trkpt>
      <trkpt lat="43.4908" lon="6.84379">
        <ele>189.9976807</ele>
        <time>2012-08-17T07:39:31Z</time>
      </trkpt>
      <trkpt lat="43.49082" lon="6.84394">
        <ele>189.5169678</ele>
        <time>2012-08-17T07:39:34Z</time>
      </trkpt>
      <trkpt lat="43.49094" lon="6.84427">
        <ele>188.5557861</ele>
        <time>2012-08-17T07:39:40Z</time>
      </trkpt>
      <trkpt lat="43.49126" lon="6.84475">
        <ele>185.6717529</ele>
        <time>2012-08-17T07:39:53Z</time>
      </trkpt>
      <trkpt lat="43.49126" lon="6.84475">
        <ele>184.2298584</ele>
        <time>2012-08-17T07:42:46Z</time>
      </trkpt>
      <trkpt lat="43.49117" lon="6.84509">
        <ele>182.7878418</ele>
        <time>2012-08-17T07:42:57Z</time>
      </trkpt>
      <trkpt lat="43.491" lon="6.84534">
        <ele>181.3458252</ele>
        <time>2012-08-17T07:43:03Z</time>
      </trkpt>
      <trkpt lat="43.49068" lon="6.84535">
        <ele>178.942627</ele>
        <time>2012-08-17T07:43:12Z</time>
      </trkpt>
      <trkpt lat="43.49065" lon="6.8453">
        <ele>178.4619141</ele>
        <time>2012-08-17T07:43:13Z</time>
      </trkpt>
      <trkpt lat="43.4904" lon="6.84493">
        <ele>176.0585938</ele>
        <time>2012-08-17T07:43:20Z</time>
      </trkpt>
      <trkpt lat="43.49027" lon="6.84464">
        <ele>174.6165771</ele>
        <time>2012-08-17T07:43:25Z</time>
      </trkpt>
      <trkpt lat="43.48998" lon="6.84446">
        <ele>172.2132568</ele>
        <time>2012-08-17T07:43:33Z</time>
      </trkpt>
      <trkpt lat="43.48998" lon="6.84457">
        <ele>171.732666</ele>
        <time>2012-08-17T07:43:36Z</time>
      </trkpt>
      <trkpt lat="43.49007" lon="6.84493">
        <ele>169.3294678</ele>
        <time>2012-08-17T07:43:45Z</time>
      </trkpt>
      <trkpt lat="43.49011" lon="6.84563">
        <ele>165.9647217</ele>
        <time>2012-08-17T07:43:56Z</time>
      </trkpt>
      <trkpt lat="43.49009" lon="6.84594">
        <ele>165.003418</ele>
        <time>2012-08-17T07:44:00Z</time>
      </trkpt>
      <trkpt lat="43.49004" lon="6.84622">
        <ele>162.6000977</ele>
        <time>2012-08-17T07:44:04Z</time>
      </trkpt>
      <trkpt lat="43.48996" lon="6.84643">
        <ele>160.6774902</ele>
        <time>2012-08-17T07:44:13Z</time>
      </trkpt>
      <trkpt lat="43.48993" lon="6.8465">
        <ele>159.7161865</ele>
        <time>2012-08-17T07:44:27Z</time>
      </trkpt>
      <trkpt lat="43.48978" lon="6.8467">
        <ele>158.7547607</ele>
        <time>2012-08-17T07:44:40Z</time>
      </trkpt>
      <trkpt lat="43.48947" lon="6.84715">
        <ele>156.3515625</ele>
        <time>2012-08-17T07:44:52Z</time>
      </trkpt>
      <trkpt lat="43.48935" lon="6.84736">
        <ele>154.4289551</ele>
        <time>2012-08-17T07:44:57Z</time>
      </trkpt>
      <trkpt lat="43.48914" lon="6.84774">
        <ele>152.5063477</ele>
        <time>2012-08-17T07:45:05Z</time>
      </trkpt>
      <trkpt lat="43.48909" lon="6.84817">
        <ele>150.5836182</ele>
        <time>2012-08-17T07:45:12Z</time>
      </trkpt>
      <trkpt lat="43.48907" lon="6.84843">
        <ele>149.1416016</ele>
        <time>2012-08-17T07:45:16Z</time>
      </trkpt>
      <trkpt lat="43.48881" lon="6.84891">
        <ele>145.7770996</ele>
        <time>2012-08-17T07:45:27Z</time>
      </trkpt>
      <trkpt lat="43.48872" lon="6.84904">
        <ele>145.2963867</ele>
        <time>2012-08-17T07:45:30Z</time>
      </trkpt>
      <trkpt lat="43.48862" lon="6.8492">
        <ele>144.3352051</ele>
        <time>2012-08-17T07:45:33Z</time>
      </trkpt>
      <trkpt lat="43.48853" lon="6.84936">
        <ele>142.8930664</ele>
        <time>2012-08-17T07:45:36Z</time>
      </trkpt>
      <trkpt lat="43.48823" lon="6.84962">
        <ele>139.5284424</ele>
        <time>2012-08-17T07:45:46Z</time>
      </trkpt>
      <trkpt lat="43.48796" lon="6.84973">
        <ele>138.0865479</ele>
        <time>2012-08-17T07:45:57Z</time>
      </trkpt>
      <trkpt lat="43.48752" lon="6.84985">
        <ele>135.6831055</ele>
        <time>2012-08-17T07:46:11Z</time>
      </trkpt>
      <trkpt lat="43.48721" lon="6.85">
        <ele>135.2025146</ele>
        <time>2012-08-17T07:46:18Z</time>
      </trkpt>
      <trkpt lat="43.48667" lon="6.85031">
        <ele>133.760498</ele>
        <time>2012-08-17T07:46:28Z</time>
      </trkpt>
      <trkpt lat="43.48655" lon="6.85038">
        <ele>133.760498</ele>
        <time>2012-08-17T07:46:31Z</time>
      </trkpt>
      <trkpt lat="43.48628" lon="6.85041">
        <ele>132.7993164</ele>
        <time>2012-08-17T07:46:36Z</time>
      </trkpt>
      <trkpt lat="43.48593" lon="6.8501">
        <ele>131.8378906</ele>
        <time>2012-08-17T07:46:47Z</time>
      </trkpt>
      <trkpt lat="43.48588" lon="6.8501">
        <ele>131.8378906</ele>
        <time>2012-08-17T07:46:52Z</time>
      </trkpt>
      <trkpt lat="43.4858" lon="6.85008">
        <ele>132.3186035</ele>
        <time>2012-08-17T07:47:06Z</time>
      </trkpt>
      <trkpt lat="43.4858" lon="6.85008">
        <ele>130.876709</ele>
        <time>2012-08-17T07:47:25Z</time>
      </trkpt>
      <trkpt lat="43.4858" lon="6.85008">
        <ele>127.5119629</ele>
        <time>2012-08-17T07:47:46Z</time>
      </trkpt>
      <trkpt lat="43.4858" lon="6.85008">
        <ele>127.0313721</ele>
        <time>2012-08-17T07:48:02Z</time>
      </trkpt>
      <trkpt lat="43.4858" lon="6.85008">
        <ele>130.3959961</ele>
        <time>2012-08-17T07:49:22Z</time>
      </trkpt>
      <trkpt lat="43.48572" lon="6.85006">
        <ele>130.876709</ele>
        <time>2012-08-17T07:49:46Z</time>
      </trkpt>
      <trkpt lat="43.48543" lon="6.85015">
        <ele>129.4346924</ele>
        <time>2012-08-17T07:49:55Z</time>
      </trkpt>
      <trkpt lat="43.48529" lon="6.85056">
        <ele>127.5119629</ele>
        <time>2012-08-17T07:50:02Z</time>
      </trkpt>
      <trkpt lat="43.48528" lon="6.85072">
        <ele>127.0313721</ele>
        <time>2012-08-17T07:50:05Z</time>
      </trkpt>
      <trkpt lat="43.48527" lon="6.8515">
        <ele>123.666748</ele>
        <time>2012-08-17T07:50:16Z</time>
      </trkpt>
      <trkpt lat="43.48526" lon="6.85193">
        <ele>122.7054443</ele>
        <time>2012-08-17T07:50:26Z</time>
      </trkpt>
      <trkpt lat="43.48521" lon="6.85275">
        <ele>121.2635498</ele>
        <time>2012-08-17T07:50:38Z</time>
      </trkpt>
      <trkpt lat="43.48516" lon="6.85348">
        <ele>120.302124</ele>
        <time>2012-08-17T07:50:47Z</time>
      </trkpt>
      <trkpt lat="43.48512" lon="6.85381">
        <ele>119.3408203</ele>
        <time>2012-08-17T07:50:51Z</time>
      </trkpt>
      <trkpt lat="43.48489" lon="6.85498">
        <ele>118.3793945</ele>
        <time>2012-08-17T07:51:05Z</time>
      </trkpt>
      <trkpt lat="43.48486" lon="6.85505">
        <ele>118.3793945</ele>
        <time>2012-08-17T07:51:06Z</time>
      </trkpt>
      <trkpt lat="43.48443" lon="6.85574">
        <ele>117.4182129</ele>
        <time>2012-08-17T07:51:18Z</time>
      </trkpt>
      <trkpt lat="43.48435" lon="6.85582">
        <ele>116.4567871</ele>
        <time>2012-08-17T07:51:20Z</time>
      </trkpt>
      <trkpt lat="43.48425" lon="6.85591">
        <ele>116.4567871</ele>
        <time>2012-08-17T07:51:23Z</time>
      </trkpt>
      <trkpt lat="43.48396" lon="6.85603">
        <ele>115.9761963</ele>
        <time>2012-08-17T07:51:30Z</time>
      </trkpt>
      <trkpt lat="43.48356" lon="6.85619">
        <ele>115.0148926</ele>
        <time>2012-08-17T07:51:39Z</time>
      </trkpt>
      <trkpt lat="43.48288" lon="6.85639">
        <ele>113.572998</ele>
        <time>2012-08-17T07:51:52Z</time>
      </trkpt>
      <trkpt lat="43.48266" lon="6.85637">
        <ele>113.0922852</ele>
        <time>2012-08-17T07:51:56Z</time>
      </trkpt>
      <trkpt lat="43.48211" lon="6.8563">
        <ele>110.6888428</ele>
        <time>2012-08-17T07:52:06Z</time>
      </trkpt>
      <trkpt lat="43.48157" lon="6.85655">
        <ele>109.7276611</ele>
        <time>2012-08-17T07:52:15Z</time>
      </trkpt>
      <trkpt lat="43.48107" lon="6.85691">
        <ele>108.2856445</ele>
        <time>2012-08-17T07:52:24Z</time>
      </trkpt>
      <trkpt lat="43.48075" lon="6.85729">
        <ele>106.3630371</ele>
        <time>2012-08-17T07:52:32Z</time>
      </trkpt>
      <trkpt lat="43.48039" lon="6.85791">
        <ele>103.9597168</ele>
        <time>2012-08-17T07:52:45Z</time>
      </trkpt>
      <trkpt lat="43.48025" lon="6.85824">
        <ele>102.998291</ele>
        <time>2012-08-17T07:52:55Z</time>
      </trkpt>
      <trkpt lat="43.4801" lon="6.85862">
        <ele>102.5177002</ele>
        <time>2012-08-17T07:53:06Z</time>
      </trkpt>
      <trkpt lat="43.48002" lon="6.85921">
        <ele>102.998291</ele>
        <time>2012-08-17T07:53:19Z</time>
      </trkpt>
      <trkpt lat="43.48008" lon="6.85988">
        <ele>102.0371094</ele>
        <time>2012-08-17T07:53:32Z</time>
      </trkpt>
      <trkpt lat="43.48015" lon="6.86037">
        <ele>100.5950928</ele>
        <time>2012-08-17T07:53:40Z</time>
      </trkpt>
      <trkpt lat="43.48011" lon="6.86077">
        <ele>99.1530762</ele>
        <time>2012-08-17T07:53:46Z</time>
      </trkpt>
      <trkpt lat="43.48" lon="6.86122">
        <ele>97.7111816</ele>
        <time>2012-08-17T07:53:52Z</time>
      </trkpt>
      <trkpt lat="43.47974" lon="6.86163">
        <ele>96.7498779</ele>
        <time>2012-08-17T07:53:59Z</time>
      </trkpt>
      <trkpt lat="43.47947" lon="6.86177">
        <ele>95.3077393</ele>
        <time>2012-08-17T07:54:05Z</time>
      </trkpt>
      <trkpt lat="43.47938" lon="6.86178">
        <ele>95.3077393</ele>
        <time>2012-08-17T07:54:07Z</time>
      </trkpt>
      <trkpt lat="43.47898" lon="6.86205">
        <ele>93.8658447</ele>
        <time>2012-08-17T07:54:17Z</time>
      </trkpt>
      <trkpt lat="43.47891" lon="6.86226">
        <ele>94.3465576</ele>
        <time>2012-08-17T07:54:21Z</time>
      </trkpt>
      <trkpt lat="43.47875" lon="6.86247">
        <ele>94.3465576</ele>
        <time>2012-08-17T07:54:26Z</time>
      </trkpt>
      <trkpt lat="43.47865" lon="6.86252">
        <ele>94.3465576</ele>
        <time>2012-08-17T07:54:29Z</time>
      </trkpt>
      <trkpt lat="43.47826" lon="6.86292">
        <ele>93.3851318</ele>
        <time>2012-08-17T07:54:39Z</time>
      </trkpt>
      <trkpt lat="43.47817" lon="6.86299">
        <ele>93.3851318</ele>
        <time>2012-08-17T07:54:41Z</time>
      </trkpt>
      <trkpt lat="43.47777" lon="6.86322">
        <ele>92.4239502</ele>
        <time>2012-08-17T07:54:49Z</time>
      </trkpt>
      <trkpt lat="43.47714" lon="6.86353">
        <ele>90.5013428</ele>
        <time>2012-08-17T07:55:02Z</time>
      </trkpt>
      <trkpt lat="43.47666" lon="6.86374">
        <ele>90.5013428</ele>
        <time>2012-08-17T07:55:11Z</time>
      </trkpt>
      <trkpt lat="43.47641" lon="6.86386">
        <ele>89.539917</ele>
        <time>2012-08-17T07:55:16Z</time>
      </trkpt>
      <trkpt lat="43.47621" lon="6.86392">
        <ele>89.0593262</ele>
        <time>2012-08-17T07:55:20Z</time>
      </trkpt>
      <trkpt lat="43.47554" lon="6.86389">
        <ele>87.1365967</ele>
        <time>2012-08-17T07:55:31Z</time>
      </trkpt>
      <trkpt lat="43.47542" lon="6.86384">
        <ele>86.175293</ele>
        <time>2012-08-17T07:55:33Z</time>
      </trkpt>
      <trkpt lat="43.47471" lon="6.86333">
        <ele>84.2526855</ele>
        <time>2012-08-17T07:55:47Z</time>
      </trkpt>
      <trkpt lat="43.47455" lon="6.86307">
        <ele>83.7719727</ele>
        <time>2012-08-17T07:55:52Z</time>
      </trkpt>
      <trkpt lat="43.47446" lon="6.8628">
        <ele>83.2913818</ele>
        <time>2012-08-17T07:55:56Z</time>
      </trkpt>
      <trkpt lat="43.47444" lon="6.86254">
        <ele>82.810791</ele>
        <time>2012-08-17T07:56:00Z</time>
      </trkpt>
      <trkpt lat="43.47449" lon="6.86228">
        <ele>83.2913818</ele>
        <time>2012-08-17T07:56:04Z</time>
      </trkpt>
      <trkpt lat="43.47462" lon="6.86115">
        <ele>80.8881836</ele>
        <time>2012-08-17T07:56:19Z</time>
      </trkpt>
      <trkpt lat="43.47462" lon="6.861">
        <ele>80.4074707</ele>
        <time>2012-08-17T07:56:21Z</time>
      </trkpt>
      <trkpt lat="43.47455" lon="6.86058">
        <ele>79.9266357</ele>
        <time>2012-08-17T07:56:28Z</time>
      </trkpt>
      <trkpt lat="43.47444" lon="6.86035">
        <ele>79.4460449</ele>
        <time>2012-08-17T07:56:32Z</time>
      </trkpt>
      <trkpt lat="43.47425" lon="6.86018">
        <ele>79.4460449</ele>
        <time>2012-08-17T07:56:36Z</time>
      </trkpt>
      <trkpt lat="43.47405" lon="6.85976">
        <ele>79.9266357</ele>
        <time>2012-08-17T07:56:45Z</time>
      </trkpt>
      <trkpt lat="43.47411" lon="6.85962">
        <ele>79.9266357</ele>
        <time>2012-08-17T07:56:48Z</time>
      </trkpt>
      <trkpt lat="43.4743" lon="6.85939">
        <ele>79.4460449</ele>
        <time>2012-08-17T07:56:54Z</time>
      </trkpt>
      <trkpt lat="43.47445" lon="6.85917">
        <ele>78.9654541</ele>
        <time>2012-08-17T07:56:58Z</time>
      </trkpt>
      <trkpt lat="43.47451" lon="6.85886">
        <ele>77.5234375</ele>
        <time>2012-08-17T07:57:03Z</time>
      </trkpt>
      <trkpt lat="43.4745" lon="6.85847">
        <ele>77.0428467</ele>
        <time>2012-08-17T07:57:08Z</time>
      </trkpt>
      <trkpt lat="43.47448" lon="6.85801">
        <ele>76.0814209</ele>
        <time>2012-08-17T07:57:18Z</time>
      </trkpt>
      <trkpt lat="43.47427" lon="6.8576">
        <ele>74.1588135</ele>
        <time>2012-08-17T07:57:29Z</time>
      </trkpt>
      <trkpt lat="43.47387" lon="6.85769">
        <ele>73.6782227</ele>
        <time>2012-08-17T07:57:39Z</time>
      </trkpt>
      <trkpt lat="43.47384" lon="6.85771">
        <ele>73.6782227</ele>
        <time>2012-08-17T07:57:40Z</time>
      </trkpt>
      <trkpt lat="43.47369" lon="6.85783">
        <ele>73.6782227</ele>
        <time>2012-08-17T07:57:44Z</time>
      </trkpt>
      <trkpt lat="43.47341" lon="6.85782">
        <ele>73.1976318</ele>
        <time>2012-08-17T07:57:51Z</time>
      </trkpt>
      <trkpt lat="43.47327" lon="6.85748">
        <ele>72.7169189</ele>
        <time>2012-08-17T07:57:58Z</time>
      </trkpt>
      <trkpt lat="43.47307" lon="6.85704">
        <ele>72.2362061</ele>
        <time>2012-08-17T07:58:06Z</time>
      </trkpt>
      <trkpt lat="43.47299" lon="6.85693">
        <ele>72.2362061</ele>
        <time>2012-08-17T07:58:08Z</time>
      </trkpt>
      <trkpt lat="43.47284" lon="6.8568">
        <ele>72.2362061</ele>
        <time>2012-08-17T07:58:12Z</time>
      </trkpt>
      <trkpt lat="43.47254" lon="6.85673">
        <ele>70.7941895</ele>
        <time>2012-08-17T07:58:20Z</time>
      </trkpt>
      <trkpt lat="43.47239" lon="6.85677">
        <ele>70.3134766</ele>
        <time>2012-08-17T07:58:24Z</time>
      </trkpt>
      <trkpt lat="43.47229" lon="6.85681">
        <ele>70.3134766</ele>
        <time>2012-08-17T07:58:26Z</time>
      </trkpt>
      <trkpt lat="43.47203" lon="6.85687">
        <ele>69.8328857</ele>
        <time>2012-08-17T07:58:31Z</time>
      </trkpt>
      <trkpt lat="43.47191" lon="6.85689">
        <ele>69.3522949</ele>
        <time>2012-08-17T07:58:33Z</time>
      </trkpt>
      <trkpt lat="43.47164" lon="6.85693">
        <ele>68.3908691</ele>
        <time>2012-08-17T07:58:38Z</time>
      </trkpt>
      <trkpt lat="43.47144" lon="6.85689">
        <ele>67.9102783</ele>
        <time>2012-08-17T07:58:42Z</time>
      </trkpt>
      <trkpt lat="43.47112" lon="6.85685">
        <ele>66.4682617</ele>
        <time>2012-08-17T07:58:47Z</time>
      </trkpt>
      <trkpt lat="43.47089" lon="6.85666">
        <ele>65.0263672</ele>
        <time>2012-08-17T07:58:51Z</time>
      </trkpt>
      <trkpt lat="43.47064" lon="6.85643">
        <ele>63.1036377</ele>
        <time>2012-08-17T07:58:59Z</time>
      </trkpt>
      <trkpt lat="43.47043" lon="6.85624">
        <ele>62.6229248</ele>
        <time>2012-08-17T07:59:10Z</time>
      </trkpt>
      <trkpt lat="43.47004" lon="6.85599">
        <ele>63.5843506</ele>
        <time>2012-08-17T07:59:21Z</time>
      </trkpt>
      <trkpt lat="43.46971" lon="6.85586">
        <ele>65.0263672</ele>
        <time>2012-08-17T07:59:30Z</time>
      </trkpt>
      <trkpt lat="43.46918" lon="6.8557">
        <ele>66.9489746</ele>
        <time>2012-08-17T07:59:43Z</time>
      </trkpt>
      <trkpt lat="43.46867" lon="6.8555">
        <ele>68.3908691</ele>
        <time>2012-08-17T07:59:56Z</time>
      </trkpt>
      <trkpt lat="43.46849" lon="6.85544">
        <ele>68.871582</ele>
        <time>2012-08-17T08:00:00Z</time>
      </trkpt>
      <trkpt lat="43.46793" lon="6.85511">
        <ele>71.2749023</ele>
        <time>2012-08-17T08:00:15Z</time>
      </trkpt>
      <trkpt lat="43.46768" lon="6.85452">
        <ele>72.7169189</ele>
        <time>2012-08-17T08:00:28Z</time>
      </trkpt>
      <trkpt lat="43.46765" lon="6.85367">
        <ele>74.6395264</ele>
        <time>2012-08-17T08:00:42Z</time>
      </trkpt>
      <trkpt lat="43.46758" lon="6.8533">
        <ele>75.6008301</ele>
        <time>2012-08-17T08:00:49Z</time>
      </trkpt>
      <trkpt lat="43.46752" lon="6.8525">
        <ele>77.0428467</ele>
        <time>2012-08-17T08:01:04Z</time>
      </trkpt>
      <trkpt lat="43.46746" lon="6.85216">
        <ele>78.4847412</ele>
        <time>2012-08-17T08:01:10Z</time>
      </trkpt>
      <trkpt lat="43.46739" lon="6.85139">
        <ele>81.3687744</ele>
        <time>2012-08-17T08:01:25Z</time>
      </trkpt>
      <trkpt lat="43.46757" lon="6.85094">
        <ele>83.7719727</ele>
        <time>2012-08-17T08:01:37Z</time>
      </trkpt>
      <trkpt lat="43.46773" lon="6.85052">
        <ele>85.2139893</ele>
        <time>2012-08-17T08:01:47Z</time>
      </trkpt>
      <trkpt lat="43.46761" lon="6.84983">
        <ele>86.175293</ele>
        <time>2012-08-17T08:01:59Z</time>
      </trkpt>
      <trkpt lat="43.46762" lon="6.84942">
        <ele>86.6560059</ele>
        <time>2012-08-17T08:02:07Z</time>
      </trkpt>
      <trkpt lat="43.46751" lon="6.84922">
        <ele>86.6560059</ele>
        <time>2012-08-17T08:02:11Z</time>
      </trkpt>
      <trkpt lat="43.46737" lon="6.84912">
        <ele>87.1365967</ele>
        <time>2012-08-17T08:02:15Z</time>
      </trkpt>
      <trkpt lat="43.46724" lon="6.84899">
        <ele>87.1365967</ele>
        <time>2012-08-17T08:02:19Z</time>
      </trkpt>
      <trkpt lat="43.46714" lon="6.84889">
        <ele>87.1365967</ele>
        <time>2012-08-17T08:02:22Z</time>
      </trkpt>
      <trkpt lat="43.46704" lon="6.84878">
        <ele>88.0980225</ele>
        <time>2012-08-17T08:02:25Z</time>
      </trkpt>
      <trkpt lat="43.46671" lon="6.8483">
        <ele>89.0593262</ele>
        <time>2012-08-17T08:02:37Z</time>
      </trkpt>
      <trkpt lat="43.4668" lon="6.84783">
        <ele>89.539917</ele>
        <time>2012-08-17T08:02:46Z</time>
      </trkpt>
      <trkpt lat="43.46718" lon="6.84762">
        <ele>90.5013428</ele>
        <time>2012-08-17T08:02:56Z</time>
      </trkpt>
      <trkpt lat="43.46783" lon="6.84778">
        <ele>91.9432373</ele>
        <time>2012-08-17T08:03:10Z</time>
      </trkpt>
      <trkpt lat="43.46842" lon="6.84785">
        <ele>92.904541</ele>
        <time>2012-08-17T08:03:22Z</time>
      </trkpt>
      <trkpt lat="43.46906" lon="6.8476">
        <ele>94.3465576</ele>
        <time>2012-08-17T08:03:37Z</time>
      </trkpt>
      <trkpt lat="43.46956" lon="6.84685">
        <ele>96.2692871</ele>
        <time>2012-08-17T08:03:52Z</time>
      </trkpt>
      <trkpt lat="43.46969" lon="6.84676">
        <ele>96.2692871</ele>
        <time>2012-08-17T08:03:55Z</time>
      </trkpt>
      <trkpt lat="43.47029" lon="6.84635">
        <ele>97.7111816</ele>
        <time>2012-08-17T08:04:09Z</time>
      </trkpt>
      <trkpt lat="43.47065" lon="6.84635">
        <ele>99.1530762</ele>
        <time>2012-08-17T08:04:17Z</time>
      </trkpt>
      <trkpt lat="43.47073" lon="6.84598">
        <ele>99.6337891</ele>
        <time>2012-08-17T08:04:24Z</time>
      </trkpt>
      <trkpt lat="43.47071" lon="6.84592">
        <ele>100.114502</ele>
        <time>2012-08-17T08:04:25Z</time>
      </trkpt>
      <trkpt lat="43.47062" lon="6.84562">
        <ele>99.6337891</ele>
        <time>2012-08-17T08:04:30Z</time>
      </trkpt>
      <trkpt lat="43.47047" lon="6.84529">
        <ele>100.5950928</ele>
        <time>2012-08-17T08:04:36Z</time>
      </trkpt>
      <trkpt lat="43.47007" lon="6.84458">
        <ele>102.5177002</ele>
        <time>2012-08-17T08:04:50Z</time>
      </trkpt>
      <trkpt lat="43.46995" lon="6.84432">
        <ele>102.998291</ele>
        <time>2012-08-17T08:04:55Z</time>
      </trkpt>
      <trkpt lat="43.46992" lon="6.84415">
        <ele>102.998291</ele>
        <time>2012-08-17T08:04:58Z</time>
      </trkpt>
      <trkpt lat="43.46988" lon="6.84401">
        <ele>102.998291</ele>
        <time>2012-08-17T08:05:00Z</time>
      </trkpt>
      <trkpt lat="43.46965" lon="6.84392">
        <ele>103.4790039</ele>
        <time>2012-08-17T08:05:06Z</time>
      </trkpt>
      <trkpt lat="43.46943" lon="6.84388">
        <ele>104.4404297</ele>
        <time>2012-08-17T08:05:11Z</time>
      </trkpt>
      <trkpt lat="43.46942" lon="6.84344">
        <ele>103.4790039</ele>
        <time>2012-08-17T08:05:18Z</time>
      </trkpt>
      <trkpt lat="43.46954" lon="6.84328">
        <ele>102.998291</ele>
        <time>2012-08-17T08:05:21Z</time>
      </trkpt>
      <trkpt lat="43.46965" lon="6.84319">
        <ele>102.5177002</ele>
        <time>2012-08-17T08:05:23Z</time>
      </trkpt>
      <trkpt lat="43.46989" lon="6.84247">
        <ele>101.5563965</ele>
        <time>2012-08-17T08:05:30Z</time>
      </trkpt>
      <trkpt lat="43.46985" lon="6.84204">
        <ele>100.5950928</ele>
        <time>2012-08-17T08:05:34Z</time>
      </trkpt>
      <trkpt lat="43.46976" lon="6.84169">
        <ele>99.1530762</ele>
        <time>2012-08-17T08:05:37Z</time>
      </trkpt>
      <trkpt lat="43.46965" lon="6.8414">
        <ele>98.1918945</ele>
        <time>2012-08-17T08:05:40Z</time>
      </trkpt>
      <trkpt lat="43.46942" lon="6.84097">
        <ele>95.7884521</ele>
        <time>2012-08-17T08:05:45Z</time>
      </trkpt>
      <trkpt lat="43.46939" lon="6.84088">
        <ele>94.8271484</ele>
        <time>2012-08-17T08:05:47Z</time>
      </trkpt>
      <trkpt lat="43.46938" lon="6.84083">
        <ele>94.8271484</ele>
        <time>2012-08-17T08:05:48Z</time>
      </trkpt>
      <trkpt lat="43.46937" lon="6.84081">
        <ele>95.3077393</ele>
        <time>2012-08-17T08:06:01Z</time>
      </trkpt>
      <trkpt lat="43.46937" lon="6.84081">
        <ele>91.4625244</ele>
        <time>2012-08-17T08:06:31Z</time>
      </trkpt>
      <trkpt lat="43.46937" lon="6.84081">
        <ele>94.8271484</ele>
        <time>2012-08-17T08:06:32Z</time>
      </trkpt>
      <trkpt lat="43.46937" lon="6.84081">
        <ele>94.3465576</ele>
        <time>2012-08-17T08:07:20Z</time>
      </trkpt>
      <trkpt lat="43.46932" lon="6.84068">
        <ele>94.3465576</ele>
        <time>2012-08-17T08:07:25Z</time>
      </trkpt>
      <trkpt lat="43.4695" lon="6.84051">
        <ele>93.8658447</ele>
        <time>2012-08-17T08:07:29Z</time>
      </trkpt>
      <trkpt lat="43.46956" lon="6.84044">
        <ele>93.3851318</ele>
        <time>2012-08-17T08:07:31Z</time>
      </trkpt>
      <trkpt lat="43.46999" lon="6.84043">
        <ele>92.4239502</ele>
        <time>2012-08-17T08:07:40Z</time>
      </trkpt>
      <trkpt lat="43.47047" lon="6.8404">
        <ele>90.9819336</ele>
        <time>2012-08-17T08:07:49Z</time>
      </trkpt>
      <trkpt lat="43.47063" lon="6.8403">
        <ele>90.5013428</ele>
        <time>2012-08-17T08:07:52Z</time>
      </trkpt>
      <trkpt lat="43.47131" lon="6.8398">
        <ele>88.5787354</ele>
        <time>2012-08-17T08:08:03Z</time>
      </trkpt>
      <trkpt lat="43.47143" lon="6.83977">
        <ele>88.5787354</ele>
        <time>2012-08-17T08:08:05Z</time>
      </trkpt>
      <trkpt lat="43.47168" lon="6.83968">
        <ele>86.6560059</ele>
        <time>2012-08-17T08:08:09Z</time>
      </trkpt>
      <trkpt lat="43.47204" lon="6.83936">
        <ele>85.6945801</ele>
        <time>2012-08-17T08:08:16Z</time>
      </trkpt>
      <trkpt lat="43.47226" lon="6.83903">
        <ele>84.7333984</ele>
        <time>2012-08-17T08:08:20Z</time>
      </trkpt>
      <trkpt lat="43.47261" lon="6.83887">
        <ele>83.2913818</ele>
        <time>2012-08-17T08:08:25Z</time>
      </trkpt>
      <trkpt lat="43.47269" lon="6.8388">
        <ele>82.3300781</ele>
        <time>2012-08-17T08:08:27Z</time>
      </trkpt>
      <trkpt lat="43.47269" lon="6.83845">
        <ele>82.3300781</ele>
        <time>2012-08-17T08:08:34Z</time>
      </trkpt>
      <trkpt lat="43.47255" lon="6.83835">
        <ele>82.810791</ele>
        <time>2012-08-17T08:08:37Z</time>
      </trkpt>
      <trkpt lat="43.47241" lon="6.83792">
        <ele>83.7719727</ele>
        <time>2012-08-17T08:08:45Z</time>
      </trkpt>
      <trkpt lat="43.47245" lon="6.83783">
        <ele>84.2526855</ele>
        <time>2012-08-17T08:08:47Z</time>
      </trkpt>
      <trkpt lat="43.47267" lon="6.83773">
        <ele>84.7333984</ele>
        <time>2012-08-17T08:08:53Z</time>
      </trkpt>
      <trkpt lat="43.47285" lon="6.83767">
        <ele>85.2139893</ele>
        <time>2012-08-17T08:08:58Z</time>
      </trkpt>
      <trkpt lat="43.47305" lon="6.83756">
        <ele>86.175293</ele>
        <time>2012-08-17T08:09:03Z</time>
      </trkpt>
      <trkpt lat="43.4732" lon="6.83727">
        <ele>87.1365967</ele>
        <time>2012-08-17T08:09:10Z</time>
      </trkpt>
      <trkpt lat="43.47324" lon="6.8366">
        <ele>87.6171875</ele>
        <time>2012-08-17T08:09:21Z</time>
      </trkpt>
      <trkpt lat="43.4733" lon="6.83634">
        <ele>87.6171875</ele>
        <time>2012-08-17T08:09:25Z</time>
      </trkpt>
      <trkpt lat="43.47344" lon="6.83606">
        <ele>87.6171875</ele>
        <time>2012-08-17T08:09:30Z</time>
      </trkpt>
      <trkpt lat="43.47377" lon="6.83539">
        <ele>88.5787354</ele>
        <time>2012-08-17T08:09:43Z</time>
      </trkpt>
      <trkpt lat="43.47383" lon="6.83532">
        <ele>89.0593262</ele>
        <time>2012-08-17T08:09:45Z</time>
      </trkpt>
      <trkpt lat="43.47399" lon="6.8352">
        <ele>89.539917</ele>
        <time>2012-08-17T08:09:49Z</time>
      </trkpt>
      <trkpt lat="43.47413" lon="6.83512">
        <ele>89.0593262</ele>
        <time>2012-08-17T08:09:52Z</time>
      </trkpt>
      <trkpt lat="43.47444" lon="6.83509">
        <ele>89.0593262</ele>
        <time>2012-08-17T08:09:58Z</time>
      </trkpt>
      <trkpt lat="43.47459" lon="6.83511">
        <ele>89.0593262</ele>
        <time>2012-08-17T08:10:01Z</time>
      </trkpt>
      <trkpt lat="43.47481" lon="6.835">
        <ele>89.0593262</ele>
        <time>2012-08-17T08:10:06Z</time>
      </trkpt>
      <trkpt lat="43.47508" lon="6.8347">
        <ele>88.5787354</ele>
        <time>2012-08-17T08:10:12Z</time>
      </trkpt>
      <trkpt lat="43.47516" lon="6.83459">
        <ele>89.0593262</ele>
        <time>2012-08-17T08:10:14Z</time>
      </trkpt>
      <trkpt lat="43.47524" lon="6.83438">
        <ele>88.5787354</ele>
        <time>2012-08-17T08:10:18Z</time>
      </trkpt>
      <trkpt lat="43.47508" lon="6.83396">
        <ele>89.0593262</ele>
        <time>2012-08-17T08:10:26Z</time>
      </trkpt>
      <trkpt lat="43.47472" lon="6.83364">
        <ele>91.4625244</ele>
        <time>2012-08-17T08:10:39Z</time>
      </trkpt>
      <trkpt lat="43.47482" lon="6.83309">
        <ele>93.3851318</ele>
        <time>2012-08-17T08:10:52Z</time>
      </trkpt>
      <trkpt lat="43.47488" lon="6.83258">
        <ele>95.7884521</ele>
        <time>2012-08-17T08:11:06Z</time>
      </trkpt>
      <trkpt lat="43.47483" lon="6.83212">
        <ele>97.7111816</ele>
        <time>2012-08-17T08:11:20Z</time>
      </trkpt>
      <trkpt lat="43.4749" lon="6.83157">
        <ele>99.6337891</ele>
        <time>2012-08-17T08:11:35Z</time>
      </trkpt>
      <trkpt lat="43.47492" lon="6.8313">
        <ele>99.1530762</ele>
        <time>2012-08-17T08:11:40Z</time>
      </trkpt>
      <trkpt lat="43.47487" lon="6.83082">
        <ele>98.6724854</ele>
        <time>2012-08-17T08:11:47Z</time>
      </trkpt>
      <trkpt lat="43.47481" lon="6.83038">
        <ele>98.6724854</ele>
        <time>2012-08-17T08:11:53Z</time>
      </trkpt>
      <trkpt lat="43.47464" lon="6.8301">
        <ele>97.2304688</ele>
        <time>2012-08-17T08:11:58Z</time>
      </trkpt>
      <trkpt lat="43.47452" lon="6.82995">
        <ele>97.2304688</ele>
        <time>2012-08-17T08:12:01Z</time>
      </trkpt>
      <trkpt lat="43.47439" lon="6.82973">
        <ele>96.7498779</ele>
        <time>2012-08-17T08:12:05Z</time>
      </trkpt>
      <trkpt lat="43.47413" lon="6.82976">
        <ele>96.7498779</ele>
        <time>2012-08-17T08:12:11Z</time>
      </trkpt>
      <trkpt lat="43.47397" lon="6.82997">
        <ele>97.7111816</ele>
        <time>2012-08-17T08:12:16Z</time>
      </trkpt>
      <trkpt lat="43.47375" lon="6.83013">
        <ele>97.7111816</ele>
        <time>2012-08-17T08:12:21Z</time>
      </trkpt>
      <trkpt lat="43.47364" lon="6.83017">
        <ele>97.2304688</ele>
        <time>2012-08-17T08:12:23Z</time>
      </trkpt>
      <trkpt lat="43.47333" lon="6.82978">
        <ele>95.7884521</ele>
        <time>2012-08-17T08:12:32Z</time>
      </trkpt>
      <trkpt lat="43.47332" lon="6.82969">
        <ele>95.3077393</ele>
        <time>2012-08-17T08:12:33Z</time>
      </trkpt>
      <trkpt lat="43.4733" lon="6.82951">
        <ele>94.8271484</ele>
        <time>2012-08-17T08:12:35Z</time>
      </trkpt>
      <trkpt lat="43.47327" lon="6.82937">
        <ele>94.3465576</ele>
        <time>2012-08-17T08:12:37Z</time>
      </trkpt>
      <trkpt lat="43.47322" lon="6.82923">
        <ele>94.3465576</ele>
        <time>2012-08-17T08:12:39Z</time>
      </trkpt>
      <trkpt lat="43.47306" lon="6.829">
        <ele>93.8658447</ele>
        <time>2012-08-17T08:12:43Z</time>
      </trkpt>
      <trkpt lat="43.47295" lon="6.82891">
        <ele>93.8658447</ele>
        <time>2012-08-17T08:12:45Z</time>
      </trkpt>
      <trkpt lat="43.47283" lon="6.82883">
        <ele>93.3851318</ele>
        <time>2012-08-17T08:12:47Z</time>
      </trkpt>
      <trkpt lat="43.47273" lon="6.82869">
        <ele>93.3851318</ele>
        <time>2012-08-17T08:12:49Z</time>
      </trkpt>
      <trkpt lat="43.47241" lon="6.82785">
        <ele>92.4239502</ele>
        <time>2012-08-17T08:12:59Z</time>
      </trkpt>
      <trkpt lat="43.47234" lon="6.82756">
        <ele>91.4625244</ele>
        <time>2012-08-17T08:13:02Z</time>
      </trkpt>
      <trkpt lat="43.47235" lon="6.82734">
        <ele>90.9819336</ele>
        <time>2012-08-17T08:13:04Z</time>
      </trkpt>
      <trkpt lat="43.47239" lon="6.82704">
        <ele>89.0593262</ele>
        <time>2012-08-17T08:13:08Z</time>
      </trkpt>
      <trkpt lat="43.4724" lon="6.8268">
        <ele>89.539917</ele>
        <time>2012-08-17T08:13:12Z</time>
      </trkpt>
      <trkpt lat="43.4724" lon="6.82659">
        <ele>88.5787354</ele>
        <time>2012-08-17T08:13:15Z</time>
      </trkpt>
      <trkpt lat="43.47241" lon="6.82637">
        <ele>88.5787354</ele>
        <time>2012-08-17T08:13:18Z</time>
      </trkpt>
      <trkpt lat="43.47254" lon="6.8259">
        <ele>88.0980225</ele>
        <time>2012-08-17T08:13:24Z</time>
      </trkpt>
      <trkpt lat="43.47261" lon="6.82578">
        <ele>87.1365967</ele>
        <time>2012-08-17T08:13:26Z</time>
      </trkpt>
      <trkpt lat="43.47265" lon="6.82538">
        <ele>87.1365967</ele>
        <time>2012-08-17T08:13:31Z</time>
      </trkpt>
      <trkpt lat="43.47269" lon="6.82515">
        <ele>86.6560059</ele>
        <time>2012-08-17T08:13:34Z</time>
      </trkpt>
      <trkpt lat="43.47276" lon="6.82483">
        <ele>85.6945801</ele>
        <time>2012-08-17T08:13:38Z</time>
      </trkpt>
      <trkpt lat="43.47281" lon="6.82466">
        <ele>85.2139893</ele>
        <time>2012-08-17T08:13:40Z</time>
      </trkpt>
      <trkpt lat="43.47303" lon="6.82368">
        <ele>83.2913818</ele>
        <time>2012-08-17T08:13:50Z</time>
      </trkpt>
      <trkpt lat="43.47314" lon="6.82268">
        <ele>81.3687744</ele>
        <time>2012-08-17T08:14:00Z</time>
      </trkpt>
      <trkpt lat="43.47322" lon="6.82223">
        <ele>80.8881836</ele>
        <time>2012-08-17T08:14:05Z</time>
      </trkpt>
      <trkpt lat="43.47333" lon="6.8219">
        <ele>79.9266357</ele>
        <time>2012-08-17T08:14:09Z</time>
      </trkpt>
      <trkpt lat="43.47356" lon="6.8215">
        <ele>79.4460449</ele>
        <time>2012-08-17T08:14:15Z</time>
      </trkpt>
      <trkpt lat="43.47369" lon="6.82132">
        <ele>79.4460449</ele>
        <time>2012-08-17T08:14:18Z</time>
      </trkpt>
      <trkpt lat="43.4738" lon="6.82105">
        <ele>79.4460449</ele>
        <time>2012-08-17T08:14:22Z</time>
      </trkpt>
      <trkpt lat="43.47395" lon="6.8204">
        <ele>81.3687744</ele>
        <time>2012-08-17T08:14:34Z</time>
      </trkpt>
      <trkpt lat="43.47397" lon="6.81979">
        <ele>82.3300781</ele>
        <time>2012-08-17T08:14:47Z</time>
      </trkpt>
      <trkpt lat="43.47395" lon="6.819">
        <ele>83.7719727</ele>
        <time>2012-08-17T08:15:02Z</time>
      </trkpt>
      <trkpt lat="43.47393" lon="6.81862">
        <ele>84.2526855</ele>
        <time>2012-08-17T08:15:09Z</time>
      </trkpt>
      <trkpt lat="43.47393" lon="6.8184">
        <ele>84.2526855</ele>
        <time>2012-08-17T08:15:13Z</time>
      </trkpt>
      <trkpt lat="43.47376" lon="6.81822">
        <ele>83.2913818</ele>
        <time>2012-08-17T08:15:21Z</time>
      </trkpt>
      <trkpt lat="43.47365" lon="6.8185">
        <ele>84.7333984</ele>
        <time>2012-08-17T08:15:28Z</time>
      </trkpt>
      <trkpt lat="43.47359" lon="6.81912">
        <ele>86.6560059</ele>
        <time>2012-08-17T08:15:43Z</time>
      </trkpt>
      <trkpt lat="43.47356" lon="6.81962">
        <ele>87.6171875</ele>
        <time>2012-08-17T08:15:55Z</time>
      </trkpt>
      <trkpt lat="43.47342" lon="6.82011">
        <ele>89.539917</ele>
        <time>2012-08-17T08:16:09Z</time>
      </trkpt>
      <trkpt lat="43.47321" lon="6.8205">
        <ele>91.4625244</ele>
        <time>2012-08-17T08:16:21Z</time>
      </trkpt>
      <trkpt lat="43.47292" lon="6.82101">
        <ele>92.904541</ele>
        <time>2012-08-17T08:16:36Z</time>
      </trkpt>
      <trkpt lat="43.47267" lon="6.82156">
        <ele>95.3077393</ele>
        <time>2012-08-17T08:16:52Z</time>
      </trkpt>
      <trkpt lat="43.47244" lon="6.82207">
        <ele>97.7111816</ele>
        <time>2012-08-17T08:17:06Z</time>
      </trkpt>
      <trkpt lat="43.47207" lon="6.82251">
        <ele>100.114502</ele>
        <time>2012-08-17T08:17:22Z</time>
      </trkpt>
      <trkpt lat="43.47169" lon="6.82283">
        <ele>102.0371094</ele>
        <time>2012-08-17T08:17:36Z</time>
      </trkpt>
      <trkpt lat="43.47137" lon="6.82276">
        <ele>103.9597168</ele>
        <time>2012-08-17T08:17:48Z</time>
      </trkpt>
      <trkpt lat="43.47109" lon="6.82247">
        <ele>105.8824463</ele>
        <time>2012-08-17T08:18:03Z</time>
      </trkpt>
      <trkpt lat="43.47109" lon="6.82247">
        <ele>105.4017334</ele>
        <time>2012-08-17T08:18:18Z</time>
      </trkpt>
      <trkpt lat="43.47109" lon="6.82247">
        <ele>100.5950928</ele>
        <time>2012-08-17T08:19:24Z</time>
      </trkpt>
      <trkpt lat="43.47109" lon="6.82247">
        <ele>105.4017334</ele>
        <time>2012-08-17T08:19:25Z</time>
      </trkpt>
      <trkpt lat="43.47109" lon="6.82247">
        <ele>106.3630371</ele>
        <time>2012-08-17T08:24:02Z</time>
      </trkpt>
      <trkpt lat="43.47106" lon="6.82243">
        <ele>106.3630371</ele>
        <time>2012-08-17T08:24:06Z</time>
      </trkpt>
      <trkpt lat="43.47114" lon="6.82188">
        <ele>104.9210205</ele>
        <time>2012-08-17T08:24:18Z</time>
      </trkpt>
      <trkpt lat="43.47109" lon="6.82168">
        <ele>103.9597168</ele>
        <time>2012-08-17T08:24:23Z</time>
      </trkpt>
      <trkpt lat="43.47103" lon="6.82146">
        <ele>102.998291</ele>
        <time>2012-08-17T08:24:26Z</time>
      </trkpt>
      <trkpt lat="43.47099" lon="6.82123">
        <ele>102.0371094</ele>
        <time>2012-08-17T08:24:30Z</time>
      </trkpt>
      <trkpt lat="43.47098" lon="6.82101">
        <ele>100.114502</ele>
        <time>2012-08-17T08:24:40Z</time>
      </trkpt>
      <trkpt lat="43.47098" lon="6.82101">
        <ele>100.114502</ele>
        <time>2012-08-17T08:24:57Z</time>
      </trkpt>
      <trkpt lat="43.47096" lon="6.82083">
        <ele>100.114502</ele>
        <time>2012-08-17T08:25:02Z</time>
      </trkpt>
      <trkpt lat="43.47088" lon="6.82057">
        <ele>99.6337891</ele>
        <time>2012-08-17T08:25:06Z</time>
      </trkpt>
      <trkpt lat="43.47055" lon="6.81997">
        <ele>96.2692871</ele>
        <time>2012-08-17T08:25:14Z</time>
      </trkpt>
      <trkpt lat="43.47007" lon="6.81907">
        <ele>92.4239502</ele>
        <time>2012-08-17T08:25:24Z</time>
      </trkpt>
      <trkpt lat="43.46984" lon="6.81872">
        <ele>90.9819336</ele>
        <time>2012-08-17T08:25:28Z</time>
      </trkpt>
      <trkpt lat="43.46965" lon="6.81852">
        <ele>90.0206299</ele>
        <time>2012-08-17T08:25:31Z</time>
      </trkpt>
      <trkpt lat="43.4693" lon="6.81789">
        <ele>86.6560059</ele>
        <time>2012-08-17T08:25:40Z</time>
      </trkpt>
      <trkpt lat="43.46895" lon="6.8171">
        <ele>85.2139893</ele>
        <time>2012-08-17T08:25:51Z</time>
      </trkpt>
      <trkpt lat="43.46887" lon="6.81682">
        <ele>84.7333984</ele>
        <time>2012-08-17T08:25:54Z</time>
      </trkpt>
      <trkpt lat="43.46879" lon="6.81589">
        <ele>82.3300781</ele>
        <time>2012-08-17T08:26:03Z</time>
      </trkpt>
      <trkpt lat="43.46893" lon="6.81552">
        <ele>83.7719727</ele>
        <time>2012-08-17T08:26:09Z</time>
      </trkpt>
      <trkpt lat="43.46899" lon="6.8153">
        <ele>84.2526855</ele>
        <time>2012-08-17T08:26:13Z</time>
      </trkpt>
      <trkpt lat="43.46909" lon="6.81452">
        <ele>86.6560059</ele>
        <time>2012-08-17T08:26:28Z</time>
      </trkpt>
      <trkpt lat="43.46915" lon="6.81392">
        <ele>88.5787354</ele>
        <time>2012-08-17T08:26:41Z</time>
      </trkpt>
      <trkpt lat="43.46921" lon="6.81368">
        <ele>88.5787354</ele>
        <time>2012-08-17T08:26:45Z</time>
      </trkpt>
      <trkpt lat="43.46918" lon="6.81336">
        <ele>87.1365967</ele>
        <time>2012-08-17T08:26:49Z</time>
      </trkpt>
      <trkpt lat="43.46905" lon="6.8126">
        <ele>84.7333984</ele>
        <time>2012-08-17T08:26:57Z</time>
      </trkpt>
      <trkpt lat="43.46901" lon="6.81211">
        <ele>81.3687744</ele>
        <time>2012-08-17T08:27:02Z</time>
      </trkpt>
      <trkpt lat="43.46888" lon="6.81099">
        <ele>78.0040283</ele>
        <time>2012-08-17T08:27:13Z</time>
      </trkpt>
      <trkpt lat="43.46885" lon="6.81078">
        <ele>77.0428467</ele>
        <time>2012-08-17T08:27:15Z</time>
      </trkpt>
      <trkpt lat="43.46882" lon="6.81058">
        <ele>76.5621338</ele>
        <time>2012-08-17T08:27:17Z</time>
      </trkpt>
      <trkpt lat="43.46875" lon="6.8102">
        <ele>76.0814209</ele>
        <time>2012-08-17T08:27:21Z</time>
      </trkpt>
      <trkpt lat="43.46879" lon="6.80984">
        <ele>75.1202393</ele>
        <time>2012-08-17T08:27:25Z</time>
      </trkpt>
      <trkpt lat="43.46889" lon="6.80928">
        <ele>75.1202393</ele>
        <time>2012-08-17T08:27:31Z</time>
      </trkpt>
      <trkpt lat="43.46895" lon="6.80892">
        <ele>75.1202393</ele>
        <time>2012-08-17T08:27:35Z</time>
      </trkpt>
      <trkpt lat="43.46915" lon="6.80837">
        <ele>74.6395264</ele>
        <time>2012-08-17T08:27:42Z</time>
      </trkpt>
      <trkpt lat="43.46915" lon="6.808">
        <ele>74.6395264</ele>
        <time>2012-08-17T08:27:46Z</time>
      </trkpt>
      <trkpt lat="43.46913" lon="6.80773">
        <ele>75.1202393</ele>
        <time>2012-08-17T08:27:49Z</time>
      </trkpt>
      <trkpt lat="43.46917" lon="6.80725">
        <ele>74.6395264</ele>
        <time>2012-08-17T08:27:55Z</time>
      </trkpt>
      <trkpt lat="43.46925" lon="6.80672">
        <ele>72.7169189</ele>
        <time>2012-08-17T08:28:01Z</time>
      </trkpt>
      <trkpt lat="43.46932" lon="6.8062">
        <ele>72.7169189</ele>
        <time>2012-08-17T08:28:07Z</time>
      </trkpt>
      <trkpt lat="43.46948" lon="6.80564">
        <ele>75.1202393</ele>
        <time>2012-08-17T08:28:18Z</time>
      </trkpt>
      <trkpt lat="43.46954" lon="6.80518">
        <ele>76.5621338</ele>
        <time>2012-08-17T08:28:29Z</time>
      </trkpt>
      <trkpt lat="43.46959" lon="6.80474">
        <ele>78.0040283</ele>
        <time>2012-08-17T08:28:40Z</time>
      </trkpt>
      <trkpt lat="43.46974" lon="6.80419">
        <ele>79.9266357</ele>
        <time>2012-08-17T08:28:53Z</time>
      </trkpt>
      <trkpt lat="43.47001" lon="6.80397">
        <ele>82.810791</ele>
        <time>2012-08-17T08:29:07Z</time>
      </trkpt>
      <trkpt lat="43.47025" lon="6.80367">
        <ele>85.2139893</ele>
        <time>2012-08-17T08:29:22Z</time>
      </trkpt>
      <trkpt lat="43.47038" lon="6.80317">
        <ele>86.6560059</ele>
        <time>2012-08-17T08:29:37Z</time>
      </trkpt>
      <trkpt lat="43.47034" lon="6.80281">
        <ele>88.5787354</ele>
        <time>2012-08-17T08:29:50Z</time>
      </trkpt>
      <trkpt lat="43.47033" lon="6.80241">
        <ele>90.9819336</ele>
        <time>2012-08-17T08:30:03Z</time>
      </trkpt>
      <trkpt lat="43.47038" lon="6.80203">
        <ele>92.904541</ele>
        <time>2012-08-17T08:30:17Z</time>
      </trkpt>
      <trkpt lat="43.47025" lon="6.80179">
        <ele>94.3465576</ele>
        <time>2012-08-17T08:30:28Z</time>
      </trkpt>
      <trkpt lat="43.46993" lon="6.80143">
        <ele>95.7884521</ele>
        <time>2012-08-17T08:30:43Z</time>
      </trkpt>
      <trkpt lat="43.46985" lon="6.80105">
        <ele>97.7111816</ele>
        <time>2012-08-17T08:30:55Z</time>
      </trkpt>
      <trkpt lat="43.46972" lon="6.80086">
        <ele>98.6724854</ele>
        <time>2012-08-17T08:31:04Z</time>
      </trkpt>
      <trkpt lat="43.46938" lon="6.80084">
        <ele>98.1918945</ele>
        <time>2012-08-17T08:31:14Z</time>
      </trkpt>
      <trkpt lat="43.46907" lon="6.80071">
        <ele>97.7111816</ele>
        <time>2012-08-17T08:31:26Z</time>
      </trkpt>
      <trkpt lat="43.46866" lon="6.80056">
        <ele>96.7498779</ele>
        <time>2012-08-17T08:31:41Z</time>
      </trkpt>
      <trkpt lat="43.46824" lon="6.80044">
        <ele>96.7498779</ele>
        <time>2012-08-17T08:31:52Z</time>
      </trkpt>
      <trkpt lat="43.4682" lon="6.80043">
        <ele>96.2692871</ele>
        <time>2012-08-17T08:31:53Z</time>
      </trkpt>
      <trkpt lat="43.46812" lon="6.80041">
        <ele>96.2692871</ele>
        <time>2012-08-17T08:31:55Z</time>
      </trkpt>
      <trkpt lat="43.46789" lon="6.80024">
        <ele>96.2692871</ele>
        <time>2012-08-17T08:32:00Z</time>
      </trkpt>
      <trkpt lat="43.46769" lon="6.79988">
        <ele>95.3077393</ele>
        <time>2012-08-17T08:32:06Z</time>
      </trkpt>
      <trkpt lat="43.46751" lon="6.79942">
        <ele>94.3465576</ele>
        <time>2012-08-17T08:32:12Z</time>
      </trkpt>
      <trkpt lat="43.46763" lon="6.79887">
        <ele>91.4625244</ele>
        <time>2012-08-17T08:32:21Z</time>
      </trkpt>
      <trkpt lat="43.46794" lon="6.79861">
        <ele>90.9819336</ele>
        <time>2012-08-17T08:32:27Z</time>
      </trkpt>
      <trkpt lat="43.46804" lon="6.79831">
        <ele>90.0206299</ele>
        <time>2012-08-17T08:32:31Z</time>
      </trkpt>
      <trkpt lat="43.46851" lon="6.79778">
        <ele>88.0980225</ele>
        <time>2012-08-17T08:32:40Z</time>
      </trkpt>
      <trkpt lat="43.46858" lon="6.79737">
        <ele>87.1365967</ele>
        <time>2012-08-17T08:32:46Z</time>
      </trkpt>
      <trkpt lat="43.46836" lon="6.79725">
        <ele>87.6171875</ele>
        <time>2012-08-17T08:32:51Z</time>
      </trkpt>
      <trkpt lat="43.46825" lon="6.79723">
        <ele>87.6171875</ele>
        <time>2012-08-17T08:32:54Z</time>
      </trkpt>
      <trkpt lat="43.46816" lon="6.79723">
        <ele>88.0980225</ele>
        <time>2012-08-17T08:32:56Z</time>
      </trkpt>
      <trkpt lat="43.46747" lon="6.79711">
        <ele>88.5787354</ele>
        <time>2012-08-17T08:33:10Z</time>
      </trkpt>
      <trkpt lat="43.46728" lon="6.79704">
        <ele>89.0593262</ele>
        <time>2012-08-17T08:33:14Z</time>
      </trkpt>
      <trkpt lat="43.46718" lon="6.79696">
        <ele>89.0593262</ele>
        <time>2012-08-17T08:33:16Z</time>
      </trkpt>
      <trkpt lat="43.46711" lon="6.79689">
        <ele>89.0593262</ele>
        <time>2012-08-17T08:33:18Z</time>
      </trkpt>
      <trkpt lat="43.46686" lon="6.79647">
        <ele>90.0206299</ele>
        <time>2012-08-17T08:33:26Z</time>
      </trkpt>
      <trkpt lat="43.4667" lon="6.79595">
        <ele>91.4625244</ele>
        <time>2012-08-17T08:33:37Z</time>
      </trkpt>
      <trkpt lat="43.46638" lon="6.79573">
        <ele>93.8658447</ele>
        <time>2012-08-17T08:33:49Z</time>
      </trkpt>
      <trkpt lat="43.46612" lon="6.79545">
        <ele>95.3077393</ele>
        <time>2012-08-17T08:34:00Z</time>
      </trkpt>
      <trkpt lat="43.4661" lon="6.79494">
        <ele>95.3077393</ele>
        <time>2012-08-17T08:34:10Z</time>
      </trkpt>
      <trkpt lat="43.4662" lon="6.79464">
        <ele>94.8271484</ele>
        <time>2012-08-17T08:34:15Z</time>
      </trkpt>
      <trkpt lat="43.46631" lon="6.79443">
        <ele>94.8271484</ele>
        <time>2012-08-17T08:34:19Z</time>
      </trkpt>
      <trkpt lat="43.4662" lon="6.7941">
        <ele>95.3077393</ele>
        <time>2012-08-17T08:34:27Z</time>
      </trkpt>
      <trkpt lat="43.46611" lon="6.79397">
        <ele>95.7884521</ele>
        <time>2012-08-17T08:34:30Z</time>
      </trkpt>
      <trkpt lat="43.46617" lon="6.79327">
        <ele>96.7498779</ele>
        <time>2012-08-17T08:34:43Z</time>
      </trkpt>
      <trkpt lat="43.46651" lon="6.79318">
        <ele>97.2304688</ele>
        <time>2012-08-17T08:34:51Z</time>
      </trkpt>
      <trkpt lat="43.46715" lon="6.79331">
        <ele>97.2304688</ele>
        <time>2012-08-17T08:35:05Z</time>
      </trkpt>
      <trkpt lat="43.46746" lon="6.79328">
        <ele>98.1918945</ele>
        <time>2012-08-17T08:35:12Z</time>
      </trkpt>
      <trkpt lat="43.46775" lon="6.79331">
        <ele>98.6724854</ele>
        <time>2012-08-17T08:35:19Z</time>
      </trkpt>
      <trkpt lat="43.46807" lon="6.79338">
        <ele>99.1530762</ele>
        <time>2012-08-17T08:35:27Z</time>
      </trkpt>
      <trkpt lat="43.46823" lon="6.79343">
        <ele>98.6724854</ele>
        <time>2012-08-17T08:35:31Z</time>
      </trkpt>
      <trkpt lat="43.4683" lon="6.79315">
        <ele>100.114502</ele>
        <time>2012-08-17T08:35:40Z</time>
      </trkpt>
      <trkpt lat="43.46817" lon="6.79306">
        <ele>100.5950928</ele>
        <time>2012-08-17T08:35:44Z</time>
      </trkpt>
      <trkpt lat="43.4677" lon="6.79279">
        <ele>102.5177002</ele>
        <time>2012-08-17T08:36:00Z</time>
      </trkpt>
      <trkpt lat="43.46734" lon="6.7927">
        <ele>103.9597168</ele>
        <time>2012-08-17T08:36:13Z</time>
      </trkpt>
      <trkpt lat="43.467" lon="6.79253">
        <ele>106.3630371</ele>
        <time>2012-08-17T08:36:26Z</time>
      </trkpt>
      <trkpt lat="43.46694" lon="6.79231">
        <ele>106.8436279</ele>
        <time>2012-08-17T08:36:33Z</time>
      </trkpt>
      <trkpt lat="43.46702" lon="6.79219">
        <ele>107.3243408</ele>
        <time>2012-08-17T08:36:38Z</time>
      </trkpt>
      <trkpt lat="43.46733" lon="6.79186">
        <ele>108.7662354</ele>
        <time>2012-08-17T08:36:52Z</time>
      </trkpt>
      <trkpt lat="43.46731" lon="6.79149">
        <ele>109.7276611</ele>
        <time>2012-08-17T08:37:02Z</time>
      </trkpt>
      <trkpt lat="43.4673" lon="6.79084">
        <ele>111.6502686</ele>
        <time>2012-08-17T08:37:17Z</time>
      </trkpt>
      <trkpt lat="43.46731" lon="6.79072">
        <ele>112.1309814</ele>
        <time>2012-08-17T08:37:28Z</time>
      </trkpt>
      <trkpt lat="43.46731" lon="6.79072">
        <ele>111.6502686</ele>
        <time>2012-08-17T08:39:02Z</time>
      </trkpt>
      <trkpt lat="43.46731" lon="6.79067">
        <ele>111.6502686</ele>
        <time>2012-08-17T08:39:05Z</time>
      </trkpt>
      <trkpt lat="43.46725" lon="6.79032">
        <ele>112.6115723</ele>
        <time>2012-08-17T08:39:17Z</time>
      </trkpt>
      <trkpt lat="43.46688" lon="6.7898">
        <ele>114.0535889</ele>
        <time>2012-08-17T08:39:33Z</time>
      </trkpt>
      <trkpt lat="43.46657" lon="6.7894">
        <ele>115.0148926</ele>
        <time>2012-08-17T08:39:47Z</time>
      </trkpt>
      <trkpt lat="43.46615" lon="6.78934">
        <ele>116.9375</ele>
        <time>2012-08-17T08:40:00Z</time>
      </trkpt>
      <trkpt lat="43.46572" lon="6.7894">
        <ele>118.3793945</ele>
        <time>2012-08-17T08:40:13Z</time>
      </trkpt>
      <trkpt lat="43.46565" lon="6.78966">
        <ele>119.3408203</ele>
        <time>2012-08-17T08:40:19Z</time>
      </trkpt>
      <trkpt lat="43.4656" lon="6.78971">
        <ele>119.3408203</ele>
        <time>2012-08-17T08:40:21Z</time>
      </trkpt>
      <trkpt lat="43.46549" lon="6.78969">
        <ele>119.3408203</ele>
        <time>2012-08-17T08:40:25Z</time>
      </trkpt>
      <trkpt lat="43.46511" lon="6.78947">
        <ele>119.3408203</ele>
        <time>2012-08-17T08:40:33Z</time>
      </trkpt>
      <trkpt lat="43.46487" lon="6.78919">
        <ele>118.3793945</ele>
        <time>2012-08-17T08:40:38Z</time>
      </trkpt>
      <trkpt lat="43.46452" lon="6.78812">
        <ele>116.9375</ele>
        <time>2012-08-17T08:40:51Z</time>
      </trkpt>
      <trkpt lat="43.46438" lon="6.78781">
        <ele>115.9761963</ele>
        <time>2012-08-17T08:40:55Z</time>
      </trkpt>
      <trkpt lat="43.46365" lon="6.78677">
        <ele>114.0535889</ele>
        <time>2012-08-17T08:41:09Z</time>
      </trkpt>
      <trkpt lat="43.46294" lon="6.78624">
        <ele>113.572998</ele>
        <time>2012-08-17T08:41:20Z</time>
      </trkpt>
      <trkpt lat="43.46277" lon="6.78608">
        <ele>114.0535889</ele>
        <time>2012-08-17T08:41:23Z</time>
      </trkpt>
      <trkpt lat="43.46239" lon="6.78532">
        <ele>112.1309814</ele>
        <time>2012-08-17T08:41:32Z</time>
      </trkpt>
      <trkpt lat="43.46171" lon="6.78462">
        <ele>107.8050537</ele>
        <time>2012-08-17T08:41:41Z</time>
      </trkpt>
      <trkpt lat="43.46164" lon="6.78454">
        <ele>107.3243408</ele>
        <time>2012-08-17T08:41:42Z</time>
      </trkpt>
      <trkpt lat="43.46124" lon="6.78434">
        <ele>105.4017334</ele>
        <time>2012-08-17T08:41:46Z</time>
      </trkpt>
      <trkpt lat="43.45995" lon="6.78385">
        <ele>102.0371094</ele>
        <time>2012-08-17T08:41:59Z</time>
      </trkpt>
      <trkpt lat="43.45866" lon="6.78336">
        <ele>99.1530762</ele>
        <time>2012-08-17T08:42:14Z</time>
      </trkpt>
      <trkpt lat="43.45808" lon="6.78314">
        <ele>96.2692871</ele>
        <time>2012-08-17T08:42:20Z</time>
      </trkpt>
      <trkpt lat="43.45769" lon="6.783">
        <ele>94.3465576</ele>
        <time>2012-08-17T08:42:24Z</time>
      </trkpt>
      <trkpt lat="43.45726" lon="6.78286">
        <ele>92.904541</ele>
        <time>2012-08-17T08:42:28Z</time>
      </trkpt>
      <trkpt lat="43.45705" lon="6.78286">
        <ele>91.9432373</ele>
        <time>2012-08-17T08:42:30Z</time>
      </trkpt>
      <trkpt lat="43.45675" lon="6.78295">
        <ele>90.0206299</ele>
        <time>2012-08-17T08:42:33Z</time>
      </trkpt>
      <trkpt lat="43.45633" lon="6.78308">
        <ele>87.1365967</ele>
        <time>2012-08-17T08:42:37Z</time>
      </trkpt>
      <trkpt lat="43.45587" lon="6.78301">
        <ele>86.175293</ele>
        <time>2012-08-17T08:42:42Z</time>
      </trkpt>
      <trkpt lat="43.45483" lon="6.78226">
        <ele>84.2526855</ele>
        <time>2012-08-17T08:42:55Z</time>
      </trkpt>
      <trkpt lat="43.45405" lon="6.7817">
        <ele>82.810791</ele>
        <time>2012-08-17T08:43:06Z</time>
      </trkpt>
      <trkpt lat="43.45321" lon="6.78122">
        <ele>79.4460449</ele>
        <time>2012-08-17T08:43:17Z</time>
      </trkpt>
      <trkpt lat="43.45266" lon="6.78102">
        <ele>77.0428467</ele>
        <time>2012-08-17T08:43:23Z</time>
      </trkpt>
      <trkpt lat="43.45246" lon="6.78095">
        <ele>77.0428467</ele>
        <time>2012-08-17T08:43:25Z</time>
      </trkpt>
      <trkpt lat="43.45228" lon="6.78088">
        <ele>76.0814209</ele>
        <time>2012-08-17T08:43:27Z</time>
      </trkpt>
      <trkpt lat="43.45192" lon="6.78081">
        <ele>73.6782227</ele>
        <time>2012-08-17T08:43:31Z</time>
      </trkpt>
      <trkpt lat="43.45099" lon="6.78033">
        <ele>71.7554932</ele>
        <time>2012-08-17T08:43:43Z</time>
      </trkpt>
      <trkpt lat="43.45078" lon="6.78018">
        <ele>71.7554932</ele>
        <time>2012-08-17T08:43:46Z</time>
      </trkpt>
      <trkpt lat="43.4499" lon="6.77954">
        <ele>68.871582</ele>
        <time>2012-08-17T08:43:59Z</time>
      </trkpt>
      <trkpt lat="43.44965" lon="6.77937">
        <ele>67.4296875</ele>
        <time>2012-08-17T08:44:02Z</time>
      </trkpt>
      <trkpt lat="43.44919" lon="6.77927">
        <ele>66.9489746</ele>
        <time>2012-08-17T08:44:07Z</time>
      </trkpt>
      <trkpt lat="43.44826" lon="6.77932">
        <ele>66.4682617</ele>
        <time>2012-08-17T08:44:18Z</time>
      </trkpt>
      <trkpt lat="43.44719" lon="6.77938">
        <ele>62.6229248</ele>
        <time>2012-08-17T08:44:31Z</time>
      </trkpt>
      <trkpt lat="43.44679" lon="6.77943">
        <ele>62.6229248</ele>
        <time>2012-08-17T08:44:36Z</time>
      </trkpt>
      <trkpt lat="43.44568" lon="6.77969">
        <ele>61.6617432</ele>
        <time>2012-08-17T08:44:49Z</time>
      </trkpt>
      <trkpt lat="43.4456" lon="6.7797">
        <ele>61.1810303</ele>
        <time>2012-08-17T08:44:50Z</time>
      </trkpt>
      <trkpt lat="43.44514" lon="6.77979">
        <ele>57.8165283</ele>
        <time>2012-08-17T08:44:55Z</time>
      </trkpt>
      <trkpt lat="43.44459" lon="6.77989">
        <ele>55.4130859</ele>
        <time>2012-08-17T08:45:00Z</time>
      </trkpt>
      <trkpt lat="43.44437" lon="6.77992">
        <ele>53.0097656</ele>
        <time>2012-08-17T08:45:02Z</time>
      </trkpt>
      <trkpt lat="43.44393" lon="6.7798">
        <ele>51.0871582</ele>
        <time>2012-08-17T08:45:06Z</time>
      </trkpt>
      <trkpt lat="43.44304" lon="6.77914">
        <ele>50.1259766</ele>
        <time>2012-08-17T08:45:16Z</time>
      </trkpt>
      <trkpt lat="43.44216" lon="6.77899">
        <ele>46.7612305</ele>
        <time>2012-08-17T08:45:26Z</time>
      </trkpt>
      <trkpt lat="43.44177" lon="6.77907">
        <ele>44.838623</ele>
        <time>2012-08-17T08:45:30Z</time>
      </trkpt>
      <trkpt lat="43.44139" lon="6.77916">
        <ele>43.3966064</ele>
        <time>2012-08-17T08:45:34Z</time>
      </trkpt>
      <trkpt lat="43.44108" lon="6.77914">
        <ele>38.5900879</ele>
        <time>2012-08-17T08:45:38Z</time>
      </trkpt>
      <trkpt lat="43.44078" lon="6.7788">
        <ele>36.1867676</ele>
        <time>2012-08-17T08:45:45Z</time>
      </trkpt>
      <trkpt lat="43.44059" lon="6.77837">
        <ele>35.7060547</ele>
        <time>2012-08-17T08:45:52Z</time>
      </trkpt>
      <trkpt lat="43.4405" lon="6.77867">
        <ele>34.744873</ele>
        <time>2012-08-17T08:45:55Z</time>
      </trkpt>
      <trkpt lat="43.44043" lon="6.77887">
        <ele>33.7834473</ele>
        <time>2012-08-17T08:45:57Z</time>
      </trkpt>
      <trkpt lat="43.44026" lon="6.77908">
        <ele>33.7834473</ele>
        <time>2012-08-17T08:46:01Z</time>
      </trkpt>
      <trkpt lat="43.44026" lon="6.77908">
        <ele>33.3028564</ele>
        <time>2012-08-17T08:46:03Z</time>
      </trkpt>
      <trkpt lat="43.43978" lon="6.77906">
        <ele>33.3028564</ele>
        <time>2012-08-17T08:46:08Z</time>
      </trkpt>
      <trkpt lat="43.43919" lon="6.77878">
        <ele>34.2641602</ele>
        <time>2012-08-17T08:46:18Z</time>
      </trkpt>
      <trkpt lat="43.43864" lon="6.77867">
        <ele>34.2641602</ele>
        <time>2012-08-17T08:46:27Z</time>
      </trkpt>
      <trkpt lat="43.43856" lon="6.77866">
        <ele>34.2641602</ele>
        <time>2012-08-17T08:46:28Z</time>
      </trkpt>
      <trkpt lat="43.43799" lon="6.77831">
        <ele>34.744873</ele>
        <time>2012-08-17T08:46:37Z</time>
      </trkpt>
      <trkpt lat="43.43725" lon="6.77743">
        <ele>33.3028564</ele>
        <time>2012-08-17T08:46:50Z</time>
      </trkpt>
      <trkpt lat="43.4368" lon="6.77691">
        <ele>29.9381104</ele>
        <time>2012-08-17T08:46:57Z</time>
      </trkpt>
      <trkpt lat="43.43673" lon="6.77684">
        <ele>29.9381104</ele>
        <time>2012-08-17T08:46:58Z</time>
      </trkpt>
      <trkpt lat="43.43653" lon="6.77663">
        <ele>28.9769287</ele>
        <time>2012-08-17T08:47:01Z</time>
      </trkpt>
      <trkpt lat="43.43614" lon="6.7764">
        <ele>28.9769287</ele>
        <time>2012-08-17T08:47:06Z</time>
      </trkpt>
      <trkpt lat="43.43541" lon="6.77609">
        <ele>29.4575195</ele>
        <time>2012-08-17T08:47:17Z</time>
      </trkpt>
      <trkpt lat="43.43528" lon="6.77604">
        <ele>28.9769287</ele>
        <time>2012-08-17T08:47:19Z</time>
      </trkpt>
      <trkpt lat="43.43504" lon="6.77587">
        <ele>28.9769287</ele>
        <time>2012-08-17T08:47:23Z</time>
      </trkpt>
      <trkpt lat="43.43461" lon="6.77543">
        <ele>27.5349121</ele>
        <time>2012-08-17T08:47:30Z</time>
      </trkpt>
      <trkpt lat="43.43401" lon="6.77446">
        <ele>28.0155029</ele>
        <time>2012-08-17T08:47:44Z</time>
      </trkpt>
      <trkpt lat="43.43363" lon="6.77381">
        <ele>26.0928955</ele>
        <time>2012-08-17T08:47:56Z</time>
      </trkpt>
      <trkpt lat="43.43332" lon="6.77329">
        <ele>24.651001</ele>
        <time>2012-08-17T08:48:03Z</time>
      </trkpt>
      <trkpt lat="43.43306" lon="6.77299">
        <ele>23.6895752</ele>
        <time>2012-08-17T08:48:08Z</time>
      </trkpt>
      <trkpt lat="43.43267" lon="6.77286">
        <ele>22.7282715</ele>
        <time>2012-08-17T08:48:14Z</time>
      </trkpt>
      <trkpt lat="43.43246" lon="6.77289">
        <ele>21.286377</ele>
        <time>2012-08-17T08:48:17Z</time>
      </trkpt>
      <trkpt lat="43.43198" lon="6.77302">
        <ele>18.8830566</ele>
        <time>2012-08-17T08:48:23Z</time>
      </trkpt>
      <trkpt lat="43.4319" lon="6.77303">
        <ele>18.8830566</ele>
        <time>2012-08-17T08:48:24Z</time>
      </trkpt>
      <trkpt lat="43.43143" lon="6.77301">
        <ele>16.9604492</ele>
        <time>2012-08-17T08:48:30Z</time>
      </trkpt>
      <trkpt lat="43.43113" lon="6.77285">
        <ele>16.4797363</ele>
        <time>2012-08-17T08:48:34Z</time>
      </trkpt>
      <trkpt lat="43.43086" lon="6.77268">
        <ele>15.9990234</ele>
        <time>2012-08-17T08:48:38Z</time>
      </trkpt>
      <trkpt lat="43.43065" lon="6.77265">
        <ele>15.5184326</ele>
        <time>2012-08-17T08:48:41Z</time>
      </trkpt>
      <trkpt lat="43.42969" lon="6.77278">
        <ele>14.076416</ele>
        <time>2012-08-17T08:48:53Z</time>
      </trkpt>
      <trkpt lat="43.42956" lon="6.77281">
        <ele>13.1151123</ele>
        <time>2012-08-17T08:48:55Z</time>
      </trkpt>
      <trkpt lat="43.42934" lon="6.7728">
        <ele>12.1538086</ele>
        <time>2012-08-17T08:48:59Z</time>
      </trkpt>
      <trkpt lat="43.42904" lon="6.77267">
        <ele>12.1538086</ele>
        <time>2012-08-17T08:49:05Z</time>
      </trkpt>
      <trkpt lat="43.42851" lon="6.77231">
        <ele>13.1151123</ele>
        <time>2012-08-17T08:49:17Z</time>
      </trkpt>
      <trkpt lat="43.42842" lon="6.77224">
        <ele>11.6732178</ele>
        <time>2012-08-17T08:49:20Z</time>
      </trkpt>
      <trkpt lat="43.42831" lon="6.77171">
        <ele>10.711792</ele>
        <time>2012-08-17T08:49:33Z</time>
      </trkpt>
      <trkpt lat="43.4283" lon="6.77158">
        <ele>10.711792</ele>
        <time>2012-08-17T08:49:36Z</time>
      </trkpt>
      <trkpt lat="43.42826" lon="6.771">
        <ele>10.711792</ele>
        <time>2012-08-17T08:49:44Z</time>
      </trkpt>
      <trkpt lat="43.42823" lon="6.77059">
        <ele>10.2312012</ele>
        <time>2012-08-17T08:49:51Z</time>
      </trkpt>
      <trkpt lat="43.42806" lon="6.77021">
        <ele>10.2312012</ele>
        <time>2012-08-17T08:49:57Z</time>
      </trkpt>
      <trkpt lat="43.42799" lon="6.77006">
        <ele>10.2312012</ele>
        <time>2012-08-17T08:50:00Z</time>
      </trkpt>
      <trkpt lat="43.42787" lon="6.76982">
        <ele>10.2312012</ele>
        <time>2012-08-17T08:50:05Z</time>
      </trkpt>
      <trkpt lat="43.4278" lon="6.76966">
        <ele>10.2312012</ele>
        <time>2012-08-17T08:50:08Z</time>
      </trkpt>
      <trkpt lat="43.42772" lon="6.76939">
        <ele>10.2312012</ele>
        <time>2012-08-17T08:50:12Z</time>
      </trkpt>
      <trkpt lat="43.42765" lon="6.76914">
        <ele>10.2312012</ele>
        <time>2012-08-17T08:50:16Z</time>
      </trkpt>
      <trkpt lat="43.42758" lon="6.7689">
        <ele>9.7506104</ele>
        <time>2012-08-17T08:50:21Z</time>
      </trkpt>
      <trkpt lat="43.42738" lon="6.76847">
        <ele>9.7506104</ele>
        <time>2012-08-17T08:50:31Z</time>
      </trkpt>
      <trkpt lat="43.42737" lon="6.76846">
        <ele>9.7506104</ele>
        <time>2012-08-17T08:50:33Z</time>
      </trkpt>
      <trkpt lat="43.42733" lon="6.76843">
        <ele>10.2312012</ele>
        <time>2012-08-17T08:50:37Z</time>
      </trkpt>
      <trkpt lat="43.42699" lon="6.76825">
        <ele>10.2312012</ele>
        <time>2012-08-17T08:50:47Z</time>
      </trkpt>
      <trkpt lat="43.42696" lon="6.76823">
        <ele>10.2312012</ele>
        <time>2012-08-17T08:50:50Z</time>
      </trkpt>
      <trkpt lat="43.42673" lon="6.7681">
        <ele>10.2312012</ele>
        <time>2012-08-17T08:51:00Z</time>
      </trkpt>
      <trkpt lat="43.42669" lon="6.76818">
        <ele>10.711792</ele>
        <time>2012-08-17T08:51:12Z</time>
      </trkpt>
      <trkpt lat="43.42641" lon="6.76857">
        <ele>12.1538086</ele>
        <time>2012-08-17T08:51:40Z</time>
      </trkpt>
      <trkpt lat="43.42617" lon="6.76884">
        <ele>13.1151123</ele>
        <time>2012-08-17T08:51:50Z</time>
      </trkpt>
      <trkpt lat="43.42597" lon="6.76879">
        <ele>14.5570068</ele>
        <time>2012-08-17T08:51:58Z</time>
      </trkpt>
      <trkpt lat="43.42566" lon="6.7687">
        <ele>14.5570068</ele>
        <time>2012-08-17T08:52:08Z</time>
      </trkpt>
      <trkpt lat="43.42549" lon="6.76869">
        <ele>13.5958252</ele>
        <time>2012-08-17T08:52:12Z</time>
      </trkpt>
      <trkpt lat="43.42508" lon="6.76813">
        <ele>11.6732178</ele>
        <time>2012-08-17T08:52:20Z</time>
      </trkpt>
      <trkpt lat="43.42499" lon="6.76755">
        <ele>9.7506104</ele>
        <time>2012-08-17T08:52:29Z</time>
      </trkpt>
      <trkpt lat="43.42499" lon="6.76752">
        <ele>9.7506104</ele>
        <time>2012-08-17T08:52:30Z</time>
      </trkpt>
      <trkpt lat="43.42514" lon="6.76709">
        <ele>9.2698975</ele>
        <time>2012-08-17T08:52:39Z</time>
      </trkpt>
      <trkpt lat="43.42516" lon="6.76705">
        <ele>9.2698975</ele>
        <time>2012-08-17T08:52:41Z</time>
      </trkpt>
      <trkpt lat="43.42526" lon="6.76687">
        <ele>9.7506104</ele>
        <time>2012-08-17T08:52:49Z</time>
      </trkpt>
      <trkpt lat="43.42515" lon="6.76666">
        <ele>9.7506104</ele>
        <time>2012-08-17T08:52:58Z</time>
      </trkpt>
      <trkpt lat="43.42492" lon="6.76651">
        <ele>8.7891846</ele>
        <time>2012-08-17T08:53:06Z</time>
      </trkpt>
      <trkpt lat="43.42474" lon="6.76618">
        <ele>9.2698975</ele>
        <time>2012-08-17T08:53:11Z</time>
      </trkpt>
      <trkpt lat="43.42478" lon="6.76553">
        <ele>10.2312012</ele>
        <time>2012-08-17T08:53:22Z</time>
      </trkpt>
      <trkpt lat="43.42478" lon="6.76499">
        <ele>9.7506104</ele>
        <time>2012-08-17T08:53:29Z</time>
      </trkpt>
      <trkpt lat="43.42458" lon="6.7643">
        <ele>10.711792</ele>
        <time>2012-08-17T08:53:44Z</time>
      </trkpt>
      <trkpt lat="43.42455" lon="6.76358">
        <ele>11.1925049</ele>
        <time>2012-08-17T08:53:55Z</time>
      </trkpt>
      <trkpt lat="43.42457" lon="6.76342">
        <ele>11.1925049</ele>
        <time>2012-08-17T08:53:58Z</time>
      </trkpt>
      <trkpt lat="43.4247" lon="6.76271">
        <ele>10.711792</ele>
        <time>2012-08-17T08:54:10Z</time>
      </trkpt>
      <trkpt lat="43.42471" lon="6.76265">
        <ele>10.711792</ele>
        <time>2012-08-17T08:54:11Z</time>
      </trkpt>
      <trkpt lat="43.42473" lon="6.76254">
        <ele>10.2312012</ele>
        <time>2012-08-17T08:54:15Z</time>
      </trkpt>
      <trkpt lat="43.42484" lon="6.76239">
        <ele>10.2312012</ele>
        <time>2012-08-17T08:54:19Z</time>
      </trkpt>
      <trkpt lat="43.42481" lon="6.76226">
        <ele>10.711792</ele>
        <time>2012-08-17T08:54:23Z</time>
      </trkpt>
      <trkpt lat="43.42477" lon="6.76146">
        <ele>10.711792</ele>
        <time>2012-08-17T08:54:32Z</time>
      </trkpt>
      <trkpt lat="43.42471" lon="6.7606">
        <ele>10.711792</ele>
        <time>2012-08-17T08:54:44Z</time>
      </trkpt>
      <trkpt lat="43.42468" lon="6.76044">
        <ele>10.711792</ele>
        <time>2012-08-17T08:54:46Z</time>
      </trkpt>
      <trkpt lat="43.42453" lon="6.75979">
        <ele>10.711792</ele>
        <time>2012-08-17T08:54:55Z</time>
      </trkpt>
      <trkpt lat="43.42446" lon="6.75951">
        <ele>10.711792</ele>
        <time>2012-08-17T08:54:59Z</time>
      </trkpt>
      <trkpt lat="43.42439" lon="6.75922">
        <ele>10.711792</ele>
        <time>2012-08-17T08:55:03Z</time>
      </trkpt>
      <trkpt lat="43.42431" lon="6.75887">
        <ele>9.7506104</ele>
        <time>2012-08-17T08:55:12Z</time>
      </trkpt>
      <trkpt lat="43.42419" lon="6.75837">
        <ele>9.7506104</ele>
        <time>2012-08-17T08:55:21Z</time>
      </trkpt>
      <trkpt lat="43.42417" lon="6.75831">
        <ele>9.7506104</ele>
        <time>2012-08-17T08:55:22Z</time>
      </trkpt>
      <trkpt lat="43.42397" lon="6.75745">
        <ele>9.2698975</ele>
        <time>2012-08-17T08:55:35Z</time>
      </trkpt>
      <trkpt lat="43.42389" lon="6.75724">
        <ele>9.7506104</ele>
        <time>2012-08-17T08:55:44Z</time>
      </trkpt>
      <trkpt lat="43.42386" lon="6.75714">
        <ele>10.2312012</ele>
        <time>2012-08-17T08:55:48Z</time>
      </trkpt>
      <trkpt lat="43.42378" lon="6.75684">
        <ele>9.2698975</ele>
        <time>2012-08-17T08:56:00Z</time>
      </trkpt>
      <trkpt lat="43.42373" lon="6.75681">
        <ele>9.7506104</ele>
        <time>2012-08-17T08:56:04Z</time>
      </trkpt>
    </trkseg>
  </trk>
</gpx>